<?xml version="1.0" encoding="UTF-8" standalone="no" ?>
<gpx xmlns="http://www.topografix.com/GPX/1/1" xmlns:xsi="http://www.w3.org/2001/XMLSchema-instance" xsi:schemaLocation="http://www.topografix.com/GPX/1/1 http://www.topografix.com/GPX/1/1/gpx.xsd" version="1.1" creator="VisuGPX - https://www.visugpx.com">
  <metadata>
    <name>Chevrière 22km</name>
    <desc><![CDATA[tracé du 08 05 2022 - Départ d'un lieu privé. ]]></desc>
  </metadata>
  <trk>
    <name><![CDATA[2022-05-08 15:40:51]]></name>
    <extensions>
      <line xmlns="http://www.topografix.com/GPX/gpx_style/0/2">
        <color>0000FF</color>
        <width>4</width>
      </line>
    </extensions>
    <trkseg>
      <trkpt lat="45.5785" lon="4.40866">
        <ele>600.96</ele>
        <time>2022-05-08T08:08:06Z</time>
      </trkpt>
      <trkpt lat="45.57847" lon="4.40866">
        <ele>596.64</ele>
        <time>2022-05-08T08:08:23Z</time>
      </trkpt>
      <trkpt lat="45.57856" lon="4.40875">
        <ele>595.19</ele>
        <time>2022-05-08T08:08:39Z</time>
      </trkpt>
      <trkpt lat="45.57867" lon="4.40875">
        <ele>595.19</ele>
        <time>2022-05-08T08:08:54Z</time>
      </trkpt>
      <trkpt lat="45.57866" lon="4.40878">
        <ele>597.12</ele>
        <time>2022-05-08T08:09:11Z</time>
      </trkpt>
      <trkpt lat="45.57866" lon="4.40879">
        <ele>600</ele>
        <time>2022-05-08T08:09:36Z</time>
      </trkpt>
      <trkpt lat="45.57867" lon="4.40878">
        <ele>596.64</ele>
        <time>2022-05-08T08:10:07Z</time>
      </trkpt>
      <trkpt lat="45.57869" lon="4.40877">
        <ele>598.08</ele>
        <time>2022-05-08T08:10:41Z</time>
      </trkpt>
      <trkpt lat="45.57867" lon="4.40877">
        <ele>596.15</ele>
        <time>2022-05-08T08:11:08Z</time>
      </trkpt>
      <trkpt lat="45.57867" lon="4.4088">
        <ele>598.56</ele>
        <time>2022-05-08T08:11:35Z</time>
      </trkpt>
      <trkpt lat="45.57867" lon="4.40878">
        <ele>598.56</ele>
        <time>2022-05-08T08:11:52Z</time>
      </trkpt>
      <trkpt lat="45.5787" lon="4.4088">
        <ele>602.88</ele>
        <time>2022-05-08T08:12:17Z</time>
      </trkpt>
      <trkpt lat="45.57869" lon="4.40878">
        <ele>600.48</ele>
        <time>2022-05-08T08:12:44Z</time>
      </trkpt>
      <trkpt lat="45.57868" lon="4.40876">
        <ele>598.56</ele>
        <time>2022-05-08T08:13:09Z</time>
      </trkpt>
      <trkpt lat="45.57863" lon="4.40868">
        <ele>598.56</ele>
        <time>2022-05-08T08:13:32Z</time>
      </trkpt>
      <trkpt lat="45.57859" lon="4.40865">
        <ele>598.08</ele>
        <time>2022-05-08T08:13:36Z</time>
      </trkpt>
      <trkpt lat="45.57854" lon="4.40863">
        <ele>597.6</ele>
        <time>2022-05-08T08:13:40Z</time>
      </trkpt>
      <trkpt lat="45.57848" lon="4.40852">
        <ele>596.15</ele>
        <time>2022-05-08T08:13:54Z</time>
      </trkpt>
      <trkpt lat="45.57847" lon="4.40847">
        <ele>595.19</ele>
        <time>2022-05-08T08:14:02Z</time>
      </trkpt>
      <trkpt lat="45.57849" lon="4.4084">
        <ele>595.19</ele>
        <time>2022-05-08T08:14:07Z</time>
      </trkpt>
      <trkpt lat="45.57864" lon="4.40816">
        <ele>599.04</ele>
        <time>2022-05-08T08:14:24Z</time>
      </trkpt>
      <trkpt lat="45.57874" lon="4.40803">
        <ele>599.52</ele>
        <time>2022-05-08T08:14:33Z</time>
      </trkpt>
      <trkpt lat="45.57899" lon="4.4082">
        <ele>598.08</ele>
        <time>2022-05-08T08:14:50Z</time>
      </trkpt>
      <trkpt lat="45.57915" lon="4.40849">
        <ele>600.48</ele>
        <time>2022-05-08T08:15:07Z</time>
      </trkpt>
      <trkpt lat="45.57933" lon="4.40888">
        <ele>603.85</ele>
        <time>2022-05-08T08:15:29Z</time>
      </trkpt>
      <trkpt lat="45.57946" lon="4.40925">
        <ele>606.25</ele>
        <time>2022-05-08T08:15:49Z</time>
      </trkpt>
      <trkpt lat="45.57963" lon="4.40963">
        <ele>610.57</ele>
        <time>2022-05-08T08:16:11Z</time>
      </trkpt>
      <trkpt lat="45.57971" lon="4.40987">
        <ele>612.5</ele>
        <time>2022-05-08T08:16:25Z</time>
      </trkpt>
      <trkpt lat="45.57983" lon="4.40987">
        <ele>611.54</ele>
        <time>2022-05-08T08:16:41Z</time>
      </trkpt>
      <trkpt lat="45.57989" lon="4.40976">
        <ele>610.57</ele>
        <time>2022-05-08T08:16:52Z</time>
      </trkpt>
      <trkpt lat="45.58001" lon="4.40956">
        <ele>608.17</ele>
        <time>2022-05-08T08:17:11Z</time>
      </trkpt>
      <trkpt lat="45.58013" lon="4.40933">
        <ele>606.25</ele>
        <time>2022-05-08T08:17:28Z</time>
      </trkpt>
      <trkpt lat="45.58018" lon="4.4093">
        <ele>605.77</ele>
        <time>2022-05-08T08:17:32Z</time>
      </trkpt>
      <trkpt lat="45.58045" lon="4.40929">
        <ele>603.85</ele>
        <time>2022-05-08T08:17:48Z</time>
      </trkpt>
      <trkpt lat="45.58071" lon="4.40938">
        <ele>600.48</ele>
        <time>2022-05-08T08:17:59Z</time>
      </trkpt>
      <trkpt lat="45.5808" lon="4.40912">
        <ele>597.12</ele>
        <time>2022-05-08T08:18:09Z</time>
      </trkpt>
      <trkpt lat="45.58076" lon="4.40875">
        <ele>595.67</ele>
        <time>2022-05-08T08:18:25Z</time>
      </trkpt>
      <trkpt lat="45.58082" lon="4.40846">
        <ele>595.67</ele>
        <time>2022-05-08T08:18:40Z</time>
      </trkpt>
      <trkpt lat="45.58109" lon="4.4085">
        <ele>600</ele>
        <time>2022-05-08T08:18:56Z</time>
      </trkpt>
      <trkpt lat="45.58136" lon="4.40856">
        <ele>602.88</ele>
        <time>2022-05-08T08:19:15Z</time>
      </trkpt>
      <trkpt lat="45.58168" lon="4.40863">
        <ele>606.25</ele>
        <time>2022-05-08T08:19:36Z</time>
      </trkpt>
      <trkpt lat="45.58192" lon="4.40866">
        <ele>612.02</ele>
        <time>2022-05-08T08:19:53Z</time>
      </trkpt>
      <trkpt lat="45.5821" lon="4.40852">
        <ele>614.42</ele>
        <time>2022-05-08T08:20:10Z</time>
      </trkpt>
      <trkpt lat="45.58214" lon="4.40826">
        <ele>615.38</ele>
        <time>2022-05-08T08:20:28Z</time>
      </trkpt>
      <trkpt lat="45.58209" lon="4.40807">
        <ele>615.86</ele>
        <time>2022-05-08T08:20:36Z</time>
      </trkpt>
      <trkpt lat="45.5821" lon="4.40804">
        <ele>615.86</ele>
        <time>2022-05-08T08:20:37Z</time>
      </trkpt>
      <trkpt lat="45.58211" lon="4.40801">
        <ele>616.34</ele>
        <time>2022-05-08T08:20:38Z</time>
      </trkpt>
      <trkpt lat="45.58211" lon="4.40792">
        <ele>615.86</ele>
        <time>2022-05-08T08:20:42Z</time>
      </trkpt>
      <trkpt lat="45.5821" lon="4.4079">
        <ele>615.86</ele>
        <time>2022-05-08T08:20:43Z</time>
      </trkpt>
      <trkpt lat="45.5821" lon="4.40788">
        <ele>615.86</ele>
        <time>2022-05-08T08:20:44Z</time>
      </trkpt>
      <trkpt lat="45.58196" lon="4.40758">
        <ele>621.15</ele>
        <time>2022-05-08T08:20:59Z</time>
      </trkpt>
      <trkpt lat="45.58187" lon="4.40735">
        <ele>622.59</ele>
        <time>2022-05-08T08:21:11Z</time>
      </trkpt>
      <trkpt lat="45.58194" lon="4.40731">
        <ele>623.07</ele>
        <time>2022-05-08T08:21:16Z</time>
      </trkpt>
      <trkpt lat="45.58226" lon="4.40747">
        <ele>624.99</ele>
        <time>2022-05-08T08:21:38Z</time>
      </trkpt>
      <trkpt lat="45.58248" lon="4.40754">
        <ele>629.8</ele>
        <time>2022-05-08T08:21:55Z</time>
      </trkpt>
      <trkpt lat="45.58268" lon="4.40745">
        <ele>633.17</ele>
        <time>2022-05-08T08:22:12Z</time>
      </trkpt>
      <trkpt lat="45.58287" lon="4.40734">
        <ele>637.49</ele>
        <time>2022-05-08T08:22:29Z</time>
      </trkpt>
      <trkpt lat="45.58289" lon="4.40726">
        <ele>638.93</ele>
        <time>2022-05-08T08:22:35Z</time>
      </trkpt>
      <trkpt lat="45.58292" lon="4.40694">
        <ele>641.82</ele>
        <time>2022-05-08T08:22:51Z</time>
      </trkpt>
      <trkpt lat="45.58293" lon="4.40683">
        <ele>641.82</ele>
        <time>2022-05-08T08:22:57Z</time>
      </trkpt>
      <trkpt lat="45.58297" lon="4.4067">
        <ele>640.86</ele>
        <time>2022-05-08T08:23:04Z</time>
      </trkpt>
      <trkpt lat="45.58307" lon="4.40642">
        <ele>636.53</ele>
        <time>2022-05-08T08:23:20Z</time>
      </trkpt>
      <trkpt lat="45.5832" lon="4.40611">
        <ele>628.84</ele>
        <time>2022-05-08T08:23:36Z</time>
      </trkpt>
      <trkpt lat="45.58336" lon="4.40583">
        <ele>626.92</ele>
        <time>2022-05-08T08:23:52Z</time>
      </trkpt>
      <trkpt lat="45.58346" lon="4.4057">
        <ele>628.36</ele>
        <time>2022-05-08T08:23:59Z</time>
      </trkpt>
      <trkpt lat="45.58349" lon="4.4057">
        <ele>628.84</ele>
        <time>2022-05-08T08:24:00Z</time>
      </trkpt>
      <trkpt lat="45.58351" lon="4.40571">
        <ele>628.84</ele>
        <time>2022-05-08T08:24:01Z</time>
      </trkpt>
      <trkpt lat="45.58353" lon="4.40571">
        <ele>629.32</ele>
        <time>2022-05-08T08:24:02Z</time>
      </trkpt>
      <trkpt lat="45.58355" lon="4.40571">
        <ele>629.8</ele>
        <time>2022-05-08T08:24:03Z</time>
      </trkpt>
      <trkpt lat="45.58383" lon="4.40565">
        <ele>634.61</ele>
        <time>2022-05-08T08:24:22Z</time>
      </trkpt>
      <trkpt lat="45.58408" lon="4.4056">
        <ele>637.01</ele>
        <time>2022-05-08T08:24:38Z</time>
      </trkpt>
      <trkpt lat="45.58432" lon="4.40549">
        <ele>640.86</ele>
        <time>2022-05-08T08:24:55Z</time>
      </trkpt>
      <trkpt lat="45.58451" lon="4.40552">
        <ele>640.86</ele>
        <time>2022-05-08T08:25:08Z</time>
      </trkpt>
      <trkpt lat="45.5847" lon="4.4058">
        <ele>642.78</ele>
        <time>2022-05-08T08:25:26Z</time>
      </trkpt>
      <trkpt lat="45.5849" lon="4.40602">
        <ele>642.3</ele>
        <time>2022-05-08T08:25:44Z</time>
      </trkpt>
      <trkpt lat="45.58505" lon="4.40623">
        <ele>638.93</ele>
        <time>2022-05-08T08:26:00Z</time>
      </trkpt>
      <trkpt lat="45.58523" lon="4.40646">
        <ele>636.05</ele>
        <time>2022-05-08T08:26:16Z</time>
      </trkpt>
      <trkpt lat="45.58541" lon="4.40676">
        <ele>639.89</ele>
        <time>2022-05-08T08:26:35Z</time>
      </trkpt>
      <trkpt lat="45.58558" lon="4.40704">
        <ele>640.38</ele>
        <time>2022-05-08T08:26:53Z</time>
      </trkpt>
      <trkpt lat="45.5857" lon="4.40728">
        <ele>639.41</ele>
        <time>2022-05-08T08:27:09Z</time>
      </trkpt>
      <trkpt lat="45.58585" lon="4.40753">
        <ele>638.93</ele>
        <time>2022-05-08T08:27:26Z</time>
      </trkpt>
      <trkpt lat="45.58596" lon="4.40781">
        <ele>638.45</ele>
        <time>2022-05-08T08:27:42Z</time>
      </trkpt>
      <trkpt lat="45.58609" lon="4.40813">
        <ele>641.34</ele>
        <time>2022-05-08T08:28:01Z</time>
      </trkpt>
      <trkpt lat="45.58623" lon="4.40843">
        <ele>644.22</ele>
        <time>2022-05-08T08:28:19Z</time>
      </trkpt>
      <trkpt lat="45.58636" lon="4.40876">
        <ele>644.22</ele>
        <time>2022-05-08T08:28:39Z</time>
      </trkpt>
      <trkpt lat="45.58649" lon="4.40906">
        <ele>646.14</ele>
        <time>2022-05-08T08:28:57Z</time>
      </trkpt>
      <trkpt lat="45.58654" lon="4.40917">
        <ele>650.95</ele>
        <time>2022-05-08T08:29:12Z</time>
      </trkpt>
      <trkpt lat="45.58654" lon="4.40918">
        <ele>649.99</ele>
        <time>2022-05-08T08:29:39Z</time>
      </trkpt>
      <trkpt lat="45.58655" lon="4.40917">
        <ele>651.91</ele>
        <time>2022-05-08T08:30:02Z</time>
      </trkpt>
      <trkpt lat="45.58656" lon="4.40918">
        <ele>656.24</ele>
        <time>2022-05-08T08:30:24Z</time>
      </trkpt>
      <trkpt lat="45.58656" lon="4.40916">
        <ele>655.28</ele>
        <time>2022-05-08T08:30:49Z</time>
      </trkpt>
      <trkpt lat="45.58654" lon="4.40916">
        <ele>656.72</ele>
        <time>2022-05-08T08:31:11Z</time>
      </trkpt>
      <trkpt lat="45.58656" lon="4.4091">
        <ele>655.28</ele>
        <time>2022-05-08T08:31:25Z</time>
      </trkpt>
      <trkpt lat="45.58656" lon="4.4091">
        <ele>653.83</ele>
        <time>2022-05-08T08:31:45Z</time>
      </trkpt>
      <trkpt lat="45.58657" lon="4.40913">
        <ele>653.35</ele>
        <time>2022-05-08T08:32:09Z</time>
      </trkpt>
      <trkpt lat="45.58659" lon="4.4091">
        <ele>655.28</ele>
        <time>2022-05-08T08:32:37Z</time>
      </trkpt>
      <trkpt lat="45.58658" lon="4.40911">
        <ele>652.39</ele>
        <time>2022-05-08T08:33:14Z</time>
      </trkpt>
      <trkpt lat="45.58658" lon="4.4091">
        <ele>651.43</ele>
        <time>2022-05-08T08:33:52Z</time>
      </trkpt>
      <trkpt lat="45.58657" lon="4.40911">
        <ele>650.47</ele>
        <time>2022-05-08T08:34:18Z</time>
      </trkpt>
      <trkpt lat="45.58658" lon="4.4091">
        <ele>653.35</ele>
        <time>2022-05-08T08:34:42Z</time>
      </trkpt>
      <trkpt lat="45.5866" lon="4.40911">
        <ele>654.31</ele>
        <time>2022-05-08T08:35:10Z</time>
      </trkpt>
      <trkpt lat="45.58659" lon="4.40912">
        <ele>654.31</ele>
        <time>2022-05-08T08:35:40Z</time>
      </trkpt>
      <trkpt lat="45.58658" lon="4.4091">
        <ele>655.76</ele>
        <time>2022-05-08T08:36:10Z</time>
      </trkpt>
      <trkpt lat="45.58659" lon="4.40911">
        <ele>653.35</ele>
        <time>2022-05-08T08:36:33Z</time>
      </trkpt>
      <trkpt lat="45.58658" lon="4.40911">
        <ele>653.83</ele>
        <time>2022-05-08T08:36:49Z</time>
      </trkpt>
      <trkpt lat="45.58657" lon="4.40915">
        <ele>655.28</ele>
        <time>2022-05-08T08:37:05Z</time>
      </trkpt>
      <trkpt lat="45.58657" lon="4.40921">
        <ele>654.31</ele>
        <time>2022-05-08T08:37:28Z</time>
      </trkpt>
      <trkpt lat="45.58653" lon="4.40923">
        <ele>652.39</ele>
        <time>2022-05-08T08:37:41Z</time>
      </trkpt>
      <trkpt lat="45.58651" lon="4.40922">
        <ele>653.35</ele>
        <time>2022-05-08T08:38:04Z</time>
      </trkpt>
      <trkpt lat="45.58649" lon="4.40919">
        <ele>654.8</ele>
        <time>2022-05-08T08:38:27Z</time>
      </trkpt>
      <trkpt lat="45.58653" lon="4.4092">
        <ele>655.76</ele>
        <time>2022-05-08T08:38:46Z</time>
      </trkpt>
      <trkpt lat="45.58654" lon="4.4092">
        <ele>658.16</ele>
        <time>2022-05-08T08:39:18Z</time>
      </trkpt>
      <trkpt lat="45.58653" lon="4.4092">
        <ele>658.16</ele>
        <time>2022-05-08T08:39:46Z</time>
      </trkpt>
      <trkpt lat="45.58654" lon="4.4092">
        <ele>657.2</ele>
        <time>2022-05-08T08:40:16Z</time>
      </trkpt>
      <trkpt lat="45.58654" lon="4.40921">
        <ele>658.16</ele>
        <time>2022-05-08T08:40:33Z</time>
      </trkpt>
      <trkpt lat="45.58655" lon="4.40921">
        <ele>658.16</ele>
        <time>2022-05-08T08:40:34Z</time>
      </trkpt>
      <trkpt lat="45.58657" lon="4.40923">
        <ele>658.16</ele>
        <time>2022-05-08T08:40:35Z</time>
      </trkpt>
      <trkpt lat="45.58658" lon="4.40925">
        <ele>658.16</ele>
        <time>2022-05-08T08:40:36Z</time>
      </trkpt>
      <trkpt lat="45.58658" lon="4.40927">
        <ele>658.16</ele>
        <time>2022-05-08T08:40:37Z</time>
      </trkpt>
      <trkpt lat="45.58661" lon="4.40934">
        <ele>658.64</ele>
        <time>2022-05-08T08:40:41Z</time>
      </trkpt>
      <trkpt lat="45.58667" lon="4.40965">
        <ele>658.16</ele>
        <time>2022-05-08T08:40:56Z</time>
      </trkpt>
      <trkpt lat="45.58677" lon="4.40997">
        <ele>655.76</ele>
        <time>2022-05-08T08:41:11Z</time>
      </trkpt>
      <trkpt lat="45.58681" lon="4.41009">
        <ele>656.24</ele>
        <time>2022-05-08T08:41:18Z</time>
      </trkpt>
      <trkpt lat="45.5868" lon="4.41024">
        <ele>654.31</ele>
        <time>2022-05-08T08:41:32Z</time>
      </trkpt>
      <trkpt lat="45.58694" lon="4.41059">
        <ele>652.87</ele>
        <time>2022-05-08T08:41:46Z</time>
      </trkpt>
      <trkpt lat="45.58704" lon="4.41086">
        <ele>649.51</ele>
        <time>2022-05-08T08:42:01Z</time>
      </trkpt>
      <trkpt lat="45.58708" lon="4.411">
        <ele>647.59</ele>
        <time>2022-05-08T08:42:08Z</time>
      </trkpt>
      <trkpt lat="45.58708" lon="4.41102">
        <ele>647.59</ele>
        <time>2022-05-08T08:42:09Z</time>
      </trkpt>
      <trkpt lat="45.58708" lon="4.41103">
        <ele>647.59</ele>
        <time>2022-05-08T08:42:10Z</time>
      </trkpt>
      <trkpt lat="45.58709" lon="4.41106">
        <ele>647.59</ele>
        <time>2022-05-08T08:42:11Z</time>
      </trkpt>
      <trkpt lat="45.58709" lon="4.41108">
        <ele>647.59</ele>
        <time>2022-05-08T08:42:12Z</time>
      </trkpt>
      <trkpt lat="45.58723" lon="4.41138">
        <ele>648.07</ele>
        <time>2022-05-08T08:42:29Z</time>
      </trkpt>
      <trkpt lat="45.58733" lon="4.41148">
        <ele>648.55</ele>
        <time>2022-05-08T08:42:49Z</time>
      </trkpt>
      <trkpt lat="45.58756" lon="4.41168">
        <ele>649.03</ele>
        <time>2022-05-08T08:43:07Z</time>
      </trkpt>
      <trkpt lat="45.58771" lon="4.41195">
        <ele>647.59</ele>
        <time>2022-05-08T08:43:24Z</time>
      </trkpt>
      <trkpt lat="45.58774" lon="4.41235">
        <ele>644.22</ele>
        <time>2022-05-08T08:43:43Z</time>
      </trkpt>
      <trkpt lat="45.58772" lon="4.41244">
        <ele>643.26</ele>
        <time>2022-05-08T08:43:48Z</time>
      </trkpt>
      <trkpt lat="45.58763" lon="4.41265">
        <ele>639.41</ele>
        <time>2022-05-08T08:44:03Z</time>
      </trkpt>
      <trkpt lat="45.58743" lon="4.41289">
        <ele>637.97</ele>
        <time>2022-05-08T08:44:19Z</time>
      </trkpt>
      <trkpt lat="45.58736" lon="4.413">
        <ele>637.49</ele>
        <time>2022-05-08T08:44:25Z</time>
      </trkpt>
      <trkpt lat="45.58735" lon="4.41302">
        <ele>637.49</ele>
        <time>2022-05-08T08:44:26Z</time>
      </trkpt>
      <trkpt lat="45.58734" lon="4.41303">
        <ele>637.49</ele>
        <time>2022-05-08T08:44:27Z</time>
      </trkpt>
      <trkpt lat="45.58732" lon="4.41304">
        <ele>637.49</ele>
        <time>2022-05-08T08:44:28Z</time>
      </trkpt>
      <trkpt lat="45.58731" lon="4.41306">
        <ele>637.49</ele>
        <time>2022-05-08T08:44:29Z</time>
      </trkpt>
      <trkpt lat="45.5873" lon="4.41307">
        <ele>637.49</ele>
        <time>2022-05-08T08:44:30Z</time>
      </trkpt>
      <trkpt lat="45.58728" lon="4.41309">
        <ele>637.97</ele>
        <time>2022-05-08T08:44:31Z</time>
      </trkpt>
      <trkpt lat="45.58725" lon="4.41339">
        <ele>637.49</ele>
        <time>2022-05-08T08:44:45Z</time>
      </trkpt>
      <trkpt lat="45.58728" lon="4.41357">
        <ele>633.65</ele>
        <time>2022-05-08T08:44:55Z</time>
      </trkpt>
      <trkpt lat="45.58727" lon="4.41359">
        <ele>633.17</ele>
        <time>2022-05-08T08:44:56Z</time>
      </trkpt>
      <trkpt lat="45.5872" lon="4.41381">
        <ele>626.44</ele>
        <time>2022-05-08T08:45:09Z</time>
      </trkpt>
      <trkpt lat="45.58717" lon="4.41402">
        <ele>622.11</ele>
        <time>2022-05-08T08:45:19Z</time>
      </trkpt>
      <trkpt lat="45.58721" lon="4.41416">
        <ele>620.19</ele>
        <time>2022-05-08T08:45:27Z</time>
      </trkpt>
      <trkpt lat="45.58722" lon="4.41418">
        <ele>620.67</ele>
        <time>2022-05-08T08:45:28Z</time>
      </trkpt>
      <trkpt lat="45.58736" lon="4.41435">
        <ele>624.99</ele>
        <time>2022-05-08T08:45:40Z</time>
      </trkpt>
      <trkpt lat="45.5874" lon="4.4144">
        <ele>624.99</ele>
        <time>2022-05-08T08:45:43Z</time>
      </trkpt>
      <trkpt lat="45.58742" lon="4.41441">
        <ele>624.99</ele>
        <time>2022-05-08T08:45:44Z</time>
      </trkpt>
      <trkpt lat="45.58749" lon="4.41449">
        <ele>624.51</ele>
        <time>2022-05-08T08:45:50Z</time>
      </trkpt>
      <trkpt lat="45.5875" lon="4.4145">
        <ele>624.51</ele>
        <time>2022-05-08T08:45:51Z</time>
      </trkpt>
      <trkpt lat="45.58751" lon="4.41452">
        <ele>624.99</ele>
        <time>2022-05-08T08:45:52Z</time>
      </trkpt>
      <trkpt lat="45.58752" lon="4.41453">
        <ele>624.51</ele>
        <time>2022-05-08T08:45:53Z</time>
      </trkpt>
      <trkpt lat="45.58754" lon="4.41456">
        <ele>624.99</ele>
        <time>2022-05-08T08:45:54Z</time>
      </trkpt>
      <trkpt lat="45.58755" lon="4.41458">
        <ele>624.99</ele>
        <time>2022-05-08T08:45:55Z</time>
      </trkpt>
      <trkpt lat="45.58762" lon="4.41492">
        <ele>624.51</ele>
        <time>2022-05-08T08:46:10Z</time>
      </trkpt>
      <trkpt lat="45.58771" lon="4.41518">
        <ele>622.11</ele>
        <time>2022-05-08T08:46:25Z</time>
      </trkpt>
      <trkpt lat="45.58776" lon="4.41548">
        <ele>619.71</ele>
        <time>2022-05-08T08:46:42Z</time>
      </trkpt>
      <trkpt lat="45.58775" lon="4.4157">
        <ele>614.9</ele>
        <time>2022-05-08T08:46:57Z</time>
      </trkpt>
      <trkpt lat="45.58775" lon="4.41573">
        <ele>613.94</ele>
        <time>2022-05-08T08:47:00Z</time>
      </trkpt>
      <trkpt lat="45.58778" lon="4.41592">
        <ele>613.46</ele>
        <time>2022-05-08T08:47:13Z</time>
      </trkpt>
      <trkpt lat="45.58779" lon="4.41594">
        <ele>613.46</ele>
        <time>2022-05-08T08:47:14Z</time>
      </trkpt>
      <trkpt lat="45.58783" lon="4.41597">
        <ele>613.46</ele>
        <time>2022-05-08T08:47:19Z</time>
      </trkpt>
      <trkpt lat="45.58801" lon="4.41607">
        <ele>613.94</ele>
        <time>2022-05-08T08:47:36Z</time>
      </trkpt>
      <trkpt lat="45.58817" lon="4.41611">
        <ele>612.98</ele>
        <time>2022-05-08T08:47:48Z</time>
      </trkpt>
      <trkpt lat="45.58825" lon="4.41605">
        <ele>612.98</ele>
        <time>2022-05-08T08:47:54Z</time>
      </trkpt>
      <trkpt lat="45.5883" lon="4.41587">
        <ele>611.54</ele>
        <time>2022-05-08T08:48:03Z</time>
      </trkpt>
      <trkpt lat="45.58835" lon="4.41571">
        <ele>609.61</ele>
        <time>2022-05-08T08:48:12Z</time>
      </trkpt>
      <trkpt lat="45.58837" lon="4.41568">
        <ele>609.13</ele>
        <time>2022-05-08T08:48:14Z</time>
      </trkpt>
      <trkpt lat="45.58855" lon="4.41553">
        <ele>610.09</ele>
        <time>2022-05-08T08:48:27Z</time>
      </trkpt>
      <trkpt lat="45.58879" lon="4.4154">
        <ele>609.13</ele>
        <time>2022-05-08T08:48:43Z</time>
      </trkpt>
      <trkpt lat="45.58894" lon="4.4153">
        <ele>608.65</ele>
        <time>2022-05-08T08:48:56Z</time>
      </trkpt>
      <trkpt lat="45.58913" lon="4.41539">
        <ele>608.17</ele>
        <time>2022-05-08T08:49:12Z</time>
      </trkpt>
      <trkpt lat="45.58931" lon="4.41545">
        <ele>603.85</ele>
        <time>2022-05-08T08:49:28Z</time>
      </trkpt>
      <trkpt lat="45.58945" lon="4.41556">
        <ele>601.92</ele>
        <time>2022-05-08T08:49:42Z</time>
      </trkpt>
      <trkpt lat="45.58963" lon="4.41559">
        <ele>599.52</ele>
        <time>2022-05-08T08:49:55Z</time>
      </trkpt>
      <trkpt lat="45.58973" lon="4.41524">
        <ele>594.71</ele>
        <time>2022-05-08T08:50:08Z</time>
      </trkpt>
      <trkpt lat="45.58987" lon="4.41497">
        <ele>590.87</ele>
        <time>2022-05-08T08:50:25Z</time>
      </trkpt>
      <trkpt lat="45.5899" lon="4.41496">
        <ele>590.39</ele>
        <time>2022-05-08T08:50:27Z</time>
      </trkpt>
      <trkpt lat="45.59007" lon="4.41489">
        <ele>588.46</ele>
        <time>2022-05-08T08:50:40Z</time>
      </trkpt>
      <trkpt lat="45.59021" lon="4.41475">
        <ele>586.06</ele>
        <time>2022-05-08T08:50:54Z</time>
      </trkpt>
      <trkpt lat="45.59032" lon="4.41465">
        <ele>579.33</ele>
        <time>2022-05-08T08:51:06Z</time>
      </trkpt>
      <trkpt lat="45.59059" lon="4.41441">
        <ele>575.49</ele>
        <time>2022-05-08T08:51:21Z</time>
      </trkpt>
      <trkpt lat="45.59075" lon="4.41422">
        <ele>574.53</ele>
        <time>2022-05-08T08:51:34Z</time>
      </trkpt>
      <trkpt lat="45.5908" lon="4.41408">
        <ele>571.16</ele>
        <time>2022-05-08T08:51:44Z</time>
      </trkpt>
      <trkpt lat="45.59082" lon="4.414">
        <ele>571.64</ele>
        <time>2022-05-08T08:51:48Z</time>
      </trkpt>
      <trkpt lat="45.59087" lon="4.41388">
        <ele>571.64</ele>
        <time>2022-05-08T08:51:55Z</time>
      </trkpt>
      <trkpt lat="45.59105" lon="4.41376">
        <ele>569.24</ele>
        <time>2022-05-08T08:52:09Z</time>
      </trkpt>
      <trkpt lat="45.59129" lon="4.41374">
        <ele>569.24</ele>
        <time>2022-05-08T08:52:24Z</time>
      </trkpt>
      <trkpt lat="45.5913" lon="4.41376">
        <ele>569.72</ele>
        <time>2022-05-08T08:52:26Z</time>
      </trkpt>
      <trkpt lat="45.59134" lon="4.41388">
        <ele>566.83</ele>
        <time>2022-05-08T08:52:31Z</time>
      </trkpt>
      <trkpt lat="45.59136" lon="4.41394">
        <ele>565.39</ele>
        <time>2022-05-08T08:52:33Z</time>
      </trkpt>
      <trkpt lat="45.59144" lon="4.41424">
        <ele>566.83</ele>
        <time>2022-05-08T08:52:45Z</time>
      </trkpt>
      <trkpt lat="45.59153" lon="4.4145">
        <ele>565.87</ele>
        <time>2022-05-08T08:53:01Z</time>
      </trkpt>
      <trkpt lat="45.59154" lon="4.41451">
        <ele>565.87</ele>
        <time>2022-05-08T08:53:02Z</time>
      </trkpt>
      <trkpt lat="45.59155" lon="4.41452">
        <ele>565.39</ele>
        <time>2022-05-08T08:53:03Z</time>
      </trkpt>
      <trkpt lat="45.59156" lon="4.41452">
        <ele>565.39</ele>
        <time>2022-05-08T08:53:04Z</time>
      </trkpt>
      <trkpt lat="45.59157" lon="4.41453">
        <ele>565.39</ele>
        <time>2022-05-08T08:53:05Z</time>
      </trkpt>
      <trkpt lat="45.59158" lon="4.41454">
        <ele>564.91</ele>
        <time>2022-05-08T08:53:06Z</time>
      </trkpt>
      <trkpt lat="45.59159" lon="4.41455">
        <ele>565.39</ele>
        <time>2022-05-08T08:53:07Z</time>
      </trkpt>
      <trkpt lat="45.5916" lon="4.41457">
        <ele>565.39</ele>
        <time>2022-05-08T08:53:08Z</time>
      </trkpt>
      <trkpt lat="45.59161" lon="4.41458">
        <ele>565.39</ele>
        <time>2022-05-08T08:53:09Z</time>
      </trkpt>
      <trkpt lat="45.59162" lon="4.4146">
        <ele>565.39</ele>
        <time>2022-05-08T08:53:10Z</time>
      </trkpt>
      <trkpt lat="45.59163" lon="4.41462">
        <ele>565.87</ele>
        <time>2022-05-08T08:53:11Z</time>
      </trkpt>
      <trkpt lat="45.59163" lon="4.41464">
        <ele>566.35</ele>
        <time>2022-05-08T08:53:12Z</time>
      </trkpt>
      <trkpt lat="45.59164" lon="4.41466">
        <ele>566.35</ele>
        <time>2022-05-08T08:53:13Z</time>
      </trkpt>
      <trkpt lat="45.59164" lon="4.41468">
        <ele>566.83</ele>
        <time>2022-05-08T08:53:14Z</time>
      </trkpt>
      <trkpt lat="45.59164" lon="4.4147">
        <ele>566.83</ele>
        <time>2022-05-08T08:53:15Z</time>
      </trkpt>
      <trkpt lat="45.59166" lon="4.41479">
        <ele>567.8</ele>
        <time>2022-05-08T08:53:20Z</time>
      </trkpt>
      <trkpt lat="45.59168" lon="4.41485">
        <ele>568.28</ele>
        <time>2022-05-08T08:53:23Z</time>
      </trkpt>
      <trkpt lat="45.59195" lon="4.41517">
        <ele>570.2</ele>
        <time>2022-05-08T08:53:39Z</time>
      </trkpt>
      <trkpt lat="45.59202" lon="4.41523">
        <ele>570.68</ele>
        <time>2022-05-08T08:53:43Z</time>
      </trkpt>
      <trkpt lat="45.59203" lon="4.41524">
        <ele>570.68</ele>
        <time>2022-05-08T08:53:44Z</time>
      </trkpt>
      <trkpt lat="45.5923" lon="4.41543">
        <ele>573.08</ele>
        <time>2022-05-08T08:54:01Z</time>
      </trkpt>
      <trkpt lat="45.59255" lon="4.41559">
        <ele>577.89</ele>
        <time>2022-05-08T08:54:20Z</time>
      </trkpt>
      <trkpt lat="45.59281" lon="4.41573">
        <ele>580.29</ele>
        <time>2022-05-08T08:54:39Z</time>
      </trkpt>
      <trkpt lat="45.59309" lon="4.41586">
        <ele>581.25</ele>
        <time>2022-05-08T08:54:59Z</time>
      </trkpt>
      <trkpt lat="45.59326" lon="4.41595">
        <ele>582.7</ele>
        <time>2022-05-08T08:55:12Z</time>
      </trkpt>
      <trkpt lat="45.59352" lon="4.41604">
        <ele>586.06</ele>
        <time>2022-05-08T08:55:31Z</time>
      </trkpt>
      <trkpt lat="45.59369" lon="4.41617">
        <ele>588.95</ele>
        <time>2022-05-08T08:55:46Z</time>
      </trkpt>
      <trkpt lat="45.59386" lon="4.41638">
        <ele>591.35</ele>
        <time>2022-05-08T08:56:00Z</time>
      </trkpt>
      <trkpt lat="45.59411" lon="4.41668">
        <ele>594.23</ele>
        <time>2022-05-08T08:56:22Z</time>
      </trkpt>
      <trkpt lat="45.59434" lon="4.41688">
        <ele>598.56</ele>
        <time>2022-05-08T08:56:41Z</time>
      </trkpt>
      <trkpt lat="45.59456" lon="4.41699">
        <ele>599.52</ele>
        <time>2022-05-08T08:56:58Z</time>
      </trkpt>
      <trkpt lat="45.59483" lon="4.41706">
        <ele>600.48</ele>
        <time>2022-05-08T08:57:15Z</time>
      </trkpt>
      <trkpt lat="45.59484" lon="4.41708">
        <ele>600.48</ele>
        <time>2022-05-08T08:57:16Z</time>
      </trkpt>
      <trkpt lat="45.59484" lon="4.4171">
        <ele>600</ele>
        <time>2022-05-08T08:57:17Z</time>
      </trkpt>
      <trkpt lat="45.59485" lon="4.41712">
        <ele>600</ele>
        <time>2022-05-08T08:57:18Z</time>
      </trkpt>
      <trkpt lat="45.59486" lon="4.41714">
        <ele>600</ele>
        <time>2022-05-08T08:57:19Z</time>
      </trkpt>
      <trkpt lat="45.59486" lon="4.41717">
        <ele>599.52</ele>
        <time>2022-05-08T08:57:20Z</time>
      </trkpt>
      <trkpt lat="45.59486" lon="4.41719">
        <ele>599.52</ele>
        <time>2022-05-08T08:57:21Z</time>
      </trkpt>
      <trkpt lat="45.59485" lon="4.41721">
        <ele>599.52</ele>
        <time>2022-05-08T08:57:22Z</time>
      </trkpt>
      <trkpt lat="45.59485" lon="4.41724">
        <ele>599.04</ele>
        <time>2022-05-08T08:57:23Z</time>
      </trkpt>
      <trkpt lat="45.5947" lon="4.4176">
        <ele>597.6</ele>
        <time>2022-05-08T08:57:40Z</time>
      </trkpt>
      <trkpt lat="45.59453" lon="4.41785">
        <ele>598.56</ele>
        <time>2022-05-08T08:57:57Z</time>
      </trkpt>
      <trkpt lat="45.59453" lon="4.41813">
        <ele>601.44</ele>
        <time>2022-05-08T08:58:12Z</time>
      </trkpt>
      <trkpt lat="45.59462" lon="4.41863">
        <ele>604.81</ele>
        <time>2022-05-08T08:58:35Z</time>
      </trkpt>
      <trkpt lat="45.59466" lon="4.41894">
        <ele>603.85</ele>
        <time>2022-05-08T08:58:51Z</time>
      </trkpt>
      <trkpt lat="45.59466" lon="4.41928">
        <ele>602.88</ele>
        <time>2022-05-08T08:59:08Z</time>
      </trkpt>
      <trkpt lat="45.59468" lon="4.41962">
        <ele>601.44</ele>
        <time>2022-05-08T08:59:26Z</time>
      </trkpt>
      <trkpt lat="45.59466" lon="4.41969">
        <ele>600.48</ele>
        <time>2022-05-08T08:59:32Z</time>
      </trkpt>
      <trkpt lat="45.59465" lon="4.41971">
        <ele>600.48</ele>
        <time>2022-05-08T08:59:33Z</time>
      </trkpt>
      <trkpt lat="45.59464" lon="4.41973">
        <ele>600</ele>
        <time>2022-05-08T08:59:34Z</time>
      </trkpt>
      <trkpt lat="45.59456" lon="4.4199">
        <ele>596.64</ele>
        <time>2022-05-08T08:59:48Z</time>
      </trkpt>
      <trkpt lat="45.59445" lon="4.42007">
        <ele>592.31</ele>
        <time>2022-05-08T09:00:03Z</time>
      </trkpt>
      <trkpt lat="45.59441" lon="4.42014">
        <ele>590.87</ele>
        <time>2022-05-08T09:00:08Z</time>
      </trkpt>
      <trkpt lat="45.5944" lon="4.42015">
        <ele>590.87</ele>
        <time>2022-05-08T09:00:09Z</time>
      </trkpt>
      <trkpt lat="45.59439" lon="4.42016">
        <ele>590.39</ele>
        <time>2022-05-08T09:00:10Z</time>
      </trkpt>
      <trkpt lat="45.59438" lon="4.42017">
        <ele>589.91</ele>
        <time>2022-05-08T09:00:11Z</time>
      </trkpt>
      <trkpt lat="45.59437" lon="4.42018">
        <ele>589.43</ele>
        <time>2022-05-08T09:00:12Z</time>
      </trkpt>
      <trkpt lat="45.59436" lon="4.42018">
        <ele>589.43</ele>
        <time>2022-05-08T09:00:13Z</time>
      </trkpt>
      <trkpt lat="45.59435" lon="4.42019">
        <ele>588.95</ele>
        <time>2022-05-08T09:00:14Z</time>
      </trkpt>
      <trkpt lat="45.59433" lon="4.42021">
        <ele>588.46</ele>
        <time>2022-05-08T09:00:15Z</time>
      </trkpt>
      <trkpt lat="45.59432" lon="4.42021">
        <ele>588.46</ele>
        <time>2022-05-08T09:00:16Z</time>
      </trkpt>
      <trkpt lat="45.59431" lon="4.42021">
        <ele>587.98</ele>
        <time>2022-05-08T09:00:17Z</time>
      </trkpt>
      <trkpt lat="45.59429" lon="4.42022">
        <ele>587.5</ele>
        <time>2022-05-08T09:00:18Z</time>
      </trkpt>
      <trkpt lat="45.59428" lon="4.42022">
        <ele>587.02</ele>
        <time>2022-05-08T09:00:19Z</time>
      </trkpt>
      <trkpt lat="45.59427" lon="4.42022">
        <ele>586.54</ele>
        <time>2022-05-08T09:00:20Z</time>
      </trkpt>
      <trkpt lat="45.59425" lon="4.42023">
        <ele>586.54</ele>
        <time>2022-05-08T09:00:21Z</time>
      </trkpt>
      <trkpt lat="45.59424" lon="4.42025">
        <ele>586.06</ele>
        <time>2022-05-08T09:00:22Z</time>
      </trkpt>
      <trkpt lat="45.59423" lon="4.42027">
        <ele>585.58</ele>
        <time>2022-05-08T09:00:23Z</time>
      </trkpt>
      <trkpt lat="45.59413" lon="4.42047">
        <ele>583.66</ele>
        <time>2022-05-08T09:00:35Z</time>
      </trkpt>
      <trkpt lat="45.59408" lon="4.42069">
        <ele>579.81</ele>
        <time>2022-05-08T09:00:49Z</time>
      </trkpt>
      <trkpt lat="45.59406" lon="4.42075">
        <ele>578.37</ele>
        <time>2022-05-08T09:00:53Z</time>
      </trkpt>
      <trkpt lat="45.59405" lon="4.42077">
        <ele>578.37</ele>
        <time>2022-05-08T09:00:54Z</time>
      </trkpt>
      <trkpt lat="45.59404" lon="4.42079">
        <ele>577.89</ele>
        <time>2022-05-08T09:00:55Z</time>
      </trkpt>
      <trkpt lat="45.59403" lon="4.42082">
        <ele>577.89</ele>
        <time>2022-05-08T09:00:56Z</time>
      </trkpt>
      <trkpt lat="45.59402" lon="4.42084">
        <ele>577.41</ele>
        <time>2022-05-08T09:00:57Z</time>
      </trkpt>
      <trkpt lat="45.594" lon="4.42087">
        <ele>577.41</ele>
        <time>2022-05-08T09:00:58Z</time>
      </trkpt>
      <trkpt lat="45.59399" lon="4.42089">
        <ele>577.41</ele>
        <time>2022-05-08T09:00:59Z</time>
      </trkpt>
      <trkpt lat="45.59396" lon="4.42101">
        <ele>576.93</ele>
        <time>2022-05-08T09:01:03Z</time>
      </trkpt>
      <trkpt lat="45.59397" lon="4.42109">
        <ele>576.93</ele>
        <time>2022-05-08T09:01:06Z</time>
      </trkpt>
      <trkpt lat="45.59397" lon="4.42112">
        <ele>576.93</ele>
        <time>2022-05-08T09:01:07Z</time>
      </trkpt>
      <trkpt lat="45.59398" lon="4.42114">
        <ele>576.93</ele>
        <time>2022-05-08T09:01:08Z</time>
      </trkpt>
      <trkpt lat="45.59399" lon="4.42117">
        <ele>577.41</ele>
        <time>2022-05-08T09:01:09Z</time>
      </trkpt>
      <trkpt lat="45.594" lon="4.42121">
        <ele>577.41</ele>
        <time>2022-05-08T09:01:10Z</time>
      </trkpt>
      <trkpt lat="45.59402" lon="4.42158">
        <ele>577.41</ele>
        <time>2022-05-08T09:01:23Z</time>
      </trkpt>
      <trkpt lat="45.594" lon="4.42183">
        <ele>573.56</ele>
        <time>2022-05-08T09:01:38Z</time>
      </trkpt>
      <trkpt lat="45.59405" lon="4.42206">
        <ele>573.08</ele>
        <time>2022-05-08T09:01:51Z</time>
      </trkpt>
      <trkpt lat="45.59403" lon="4.42228">
        <ele>570.2</ele>
        <time>2022-05-08T09:02:03Z</time>
      </trkpt>
      <trkpt lat="45.59401" lon="4.42263">
        <ele>571.16</ele>
        <time>2022-05-08T09:02:18Z</time>
      </trkpt>
      <trkpt lat="45.59392" lon="4.42296">
        <ele>571.64</ele>
        <time>2022-05-08T09:02:29Z</time>
      </trkpt>
      <trkpt lat="45.5939" lon="4.4232">
        <ele>567.8</ele>
        <time>2022-05-08T09:02:43Z</time>
      </trkpt>
      <trkpt lat="45.59387" lon="4.42347">
        <ele>567.8</ele>
        <time>2022-05-08T09:02:56Z</time>
      </trkpt>
      <trkpt lat="45.59386" lon="4.42351">
        <ele>566.83</ele>
        <time>2022-05-08T09:02:58Z</time>
      </trkpt>
      <trkpt lat="45.59386" lon="4.42354">
        <ele>566.35</ele>
        <time>2022-05-08T09:02:59Z</time>
      </trkpt>
      <trkpt lat="45.59385" lon="4.42357">
        <ele>565.39</ele>
        <time>2022-05-08T09:03:00Z</time>
      </trkpt>
      <trkpt lat="45.59385" lon="4.42365">
        <ele>563.47</ele>
        <time>2022-05-08T09:03:03Z</time>
      </trkpt>
      <trkpt lat="45.59386" lon="4.42367">
        <ele>562.99</ele>
        <time>2022-05-08T09:03:04Z</time>
      </trkpt>
      <trkpt lat="45.59388" lon="4.42394">
        <ele>556.26</ele>
        <time>2022-05-08T09:03:14Z</time>
      </trkpt>
      <trkpt lat="45.59386" lon="4.42424">
        <ele>555.78</ele>
        <time>2022-05-08T09:03:26Z</time>
      </trkpt>
      <trkpt lat="45.59385" lon="4.42443">
        <ele>558.18</ele>
        <time>2022-05-08T09:03:39Z</time>
      </trkpt>
      <trkpt lat="45.59382" lon="4.42463">
        <ele>554.34</ele>
        <time>2022-05-08T09:03:51Z</time>
      </trkpt>
      <trkpt lat="45.59382" lon="4.42482">
        <ele>547.61</ele>
        <time>2022-05-08T09:04:02Z</time>
      </trkpt>
      <trkpt lat="45.59381" lon="4.42486">
        <ele>547.13</ele>
        <time>2022-05-08T09:04:04Z</time>
      </trkpt>
      <trkpt lat="45.59378" lon="4.42505">
        <ele>548.09</ele>
        <time>2022-05-08T09:04:11Z</time>
      </trkpt>
      <trkpt lat="45.59376" lon="4.42507">
        <ele>548.09</ele>
        <time>2022-05-08T09:04:12Z</time>
      </trkpt>
      <trkpt lat="45.59366" lon="4.42526">
        <ele>547.13</ele>
        <time>2022-05-08T09:04:22Z</time>
      </trkpt>
      <trkpt lat="45.59369" lon="4.42537">
        <ele>547.61</ele>
        <time>2022-05-08T09:04:30Z</time>
      </trkpt>
      <trkpt lat="45.5937" lon="4.42539">
        <ele>547.61</ele>
        <time>2022-05-08T09:04:31Z</time>
      </trkpt>
      <trkpt lat="45.59371" lon="4.4254">
        <ele>547.13</ele>
        <time>2022-05-08T09:04:32Z</time>
      </trkpt>
      <trkpt lat="45.59376" lon="4.42542">
        <ele>545.2</ele>
        <time>2022-05-08T09:04:47Z</time>
      </trkpt>
      <trkpt lat="45.59381" lon="4.42553">
        <ele>547.13</ele>
        <time>2022-05-08T09:05:13Z</time>
      </trkpt>
      <trkpt lat="45.59382" lon="4.42554">
        <ele>547.13</ele>
        <time>2022-05-08T09:05:14Z</time>
      </trkpt>
      <trkpt lat="45.59383" lon="4.42559">
        <ele>548.09</ele>
        <time>2022-05-08T09:05:17Z</time>
      </trkpt>
      <trkpt lat="45.59385" lon="4.42563">
        <ele>548.57</ele>
        <time>2022-05-08T09:05:20Z</time>
      </trkpt>
      <trkpt lat="45.59387" lon="4.42567">
        <ele>549.05</ele>
        <time>2022-05-08T09:05:22Z</time>
      </trkpt>
      <trkpt lat="45.594" lon="4.42589">
        <ele>554.34</ele>
        <time>2022-05-08T09:05:37Z</time>
      </trkpt>
      <trkpt lat="45.59404" lon="4.42588">
        <ele>556.26</ele>
        <time>2022-05-08T09:05:39Z</time>
      </trkpt>
      <trkpt lat="45.59416" lon="4.42576">
        <ele>558.18</ele>
        <time>2022-05-08T09:05:51Z</time>
      </trkpt>
      <trkpt lat="45.59431" lon="4.4257">
        <ele>558.66</ele>
        <time>2022-05-08T09:06:04Z</time>
      </trkpt>
      <trkpt lat="45.5945" lon="4.42564">
        <ele>560.11</ele>
        <time>2022-05-08T09:06:17Z</time>
      </trkpt>
      <trkpt lat="45.59479" lon="4.42555">
        <ele>565.39</ele>
        <time>2022-05-08T09:06:36Z</time>
      </trkpt>
      <trkpt lat="45.59499" lon="4.42547">
        <ele>570.68</ele>
        <time>2022-05-08T09:06:52Z</time>
      </trkpt>
      <trkpt lat="45.5952" lon="4.42541">
        <ele>578.85</ele>
        <time>2022-05-08T09:07:08Z</time>
      </trkpt>
      <trkpt lat="45.59543" lon="4.42533">
        <ele>583.66</ele>
        <time>2022-05-08T09:07:26Z</time>
      </trkpt>
      <trkpt lat="45.59566" lon="4.42522">
        <ele>585.58</ele>
        <time>2022-05-08T09:07:42Z</time>
      </trkpt>
      <trkpt lat="45.59587" lon="4.42512">
        <ele>586.06</ele>
        <time>2022-05-08T09:07:58Z</time>
      </trkpt>
      <trkpt lat="45.59605" lon="4.42496">
        <ele>587.02</ele>
        <time>2022-05-08T09:08:13Z</time>
      </trkpt>
      <trkpt lat="45.59615" lon="4.42472">
        <ele>587.02</ele>
        <time>2022-05-08T09:08:29Z</time>
      </trkpt>
      <trkpt lat="45.59616" lon="4.4247">
        <ele>587.02</ele>
        <time>2022-05-08T09:08:31Z</time>
      </trkpt>
      <trkpt lat="45.59617" lon="4.42468">
        <ele>587.02</ele>
        <time>2022-05-08T09:08:32Z</time>
      </trkpt>
      <trkpt lat="45.59618" lon="4.42468">
        <ele>587.02</ele>
        <time>2022-05-08T09:08:33Z</time>
      </trkpt>
      <trkpt lat="45.5964" lon="4.42463">
        <ele>589.43</ele>
        <time>2022-05-08T09:08:50Z</time>
      </trkpt>
      <trkpt lat="45.59661" lon="4.42464">
        <ele>593.75</ele>
        <time>2022-05-08T09:09:07Z</time>
      </trkpt>
      <trkpt lat="45.59685" lon="4.42463">
        <ele>599.52</ele>
        <time>2022-05-08T09:09:23Z</time>
      </trkpt>
      <trkpt lat="45.59704" lon="4.42464">
        <ele>597.12</ele>
        <time>2022-05-08T09:09:37Z</time>
      </trkpt>
      <trkpt lat="45.59723" lon="4.4246">
        <ele>593.27</ele>
        <time>2022-05-08T09:09:52Z</time>
      </trkpt>
      <trkpt lat="45.59743" lon="4.42464">
        <ele>589.43</ele>
        <time>2022-05-08T09:10:05Z</time>
      </trkpt>
      <trkpt lat="45.59759" lon="4.42465">
        <ele>589.91</ele>
        <time>2022-05-08T09:10:17Z</time>
      </trkpt>
      <trkpt lat="45.5978" lon="4.42479">
        <ele>593.27</ele>
        <time>2022-05-08T09:10:33Z</time>
      </trkpt>
      <trkpt lat="45.59798" lon="4.42497">
        <ele>592.31</ele>
        <time>2022-05-08T09:10:45Z</time>
      </trkpt>
      <trkpt lat="45.59802" lon="4.42502">
        <ele>591.83</ele>
        <time>2022-05-08T09:10:48Z</time>
      </trkpt>
      <trkpt lat="45.59803" lon="4.42504">
        <ele>591.83</ele>
        <time>2022-05-08T09:10:49Z</time>
      </trkpt>
      <trkpt lat="45.59807" lon="4.42512">
        <ele>591.35</ele>
        <time>2022-05-08T09:10:54Z</time>
      </trkpt>
      <trkpt lat="45.59809" lon="4.42513">
        <ele>591.35</ele>
        <time>2022-05-08T09:10:55Z</time>
      </trkpt>
      <trkpt lat="45.5981" lon="4.42514">
        <ele>591.35</ele>
        <time>2022-05-08T09:10:56Z</time>
      </trkpt>
      <trkpt lat="45.59812" lon="4.42517">
        <ele>591.35</ele>
        <time>2022-05-08T09:10:58Z</time>
      </trkpt>
      <trkpt lat="45.59814" lon="4.42518">
        <ele>591.35</ele>
        <time>2022-05-08T09:10:59Z</time>
      </trkpt>
      <trkpt lat="45.59833" lon="4.42535">
        <ele>589.91</ele>
        <time>2022-05-08T09:11:16Z</time>
      </trkpt>
      <trkpt lat="45.59836" lon="4.42538">
        <ele>589.43</ele>
        <time>2022-05-08T09:11:19Z</time>
      </trkpt>
      <trkpt lat="45.59837" lon="4.42539">
        <ele>589.43</ele>
        <time>2022-05-08T09:11:20Z</time>
      </trkpt>
      <trkpt lat="45.59851" lon="4.42555">
        <ele>588.46</ele>
        <time>2022-05-08T09:11:34Z</time>
      </trkpt>
      <trkpt lat="45.59861" lon="4.4257">
        <ele>586.54</ele>
        <time>2022-05-08T09:11:45Z</time>
      </trkpt>
      <trkpt lat="45.59867" lon="4.42596">
        <ele>587.5</ele>
        <time>2022-05-08T09:12:00Z</time>
      </trkpt>
      <trkpt lat="45.59881" lon="4.42626">
        <ele>589.43</ele>
        <time>2022-05-08T09:12:17Z</time>
      </trkpt>
      <trkpt lat="45.59899" lon="4.42656">
        <ele>592.79</ele>
        <time>2022-05-08T09:12:34Z</time>
      </trkpt>
      <trkpt lat="45.59912" lon="4.42678">
        <ele>594.23</ele>
        <time>2022-05-08T09:12:48Z</time>
      </trkpt>
      <trkpt lat="45.59918" lon="4.4269">
        <ele>594.71</ele>
        <time>2022-05-08T09:12:56Z</time>
      </trkpt>
      <trkpt lat="45.5992" lon="4.42692">
        <ele>594.71</ele>
        <time>2022-05-08T09:12:57Z</time>
      </trkpt>
      <trkpt lat="45.59921" lon="4.42693">
        <ele>594.71</ele>
        <time>2022-05-08T09:12:58Z</time>
      </trkpt>
      <trkpt lat="45.59922" lon="4.42694">
        <ele>594.71</ele>
        <time>2022-05-08T09:12:59Z</time>
      </trkpt>
      <trkpt lat="45.59923" lon="4.42696">
        <ele>594.71</ele>
        <time>2022-05-08T09:13:00Z</time>
      </trkpt>
      <trkpt lat="45.59931" lon="4.42717">
        <ele>594.71</ele>
        <time>2022-05-08T09:13:13Z</time>
      </trkpt>
      <trkpt lat="45.59933" lon="4.42732">
        <ele>596.15</ele>
        <time>2022-05-08T09:13:19Z</time>
      </trkpt>
      <trkpt lat="45.59943" lon="4.42745">
        <ele>596.64</ele>
        <time>2022-05-08T09:13:27Z</time>
      </trkpt>
      <trkpt lat="45.59964" lon="4.42755">
        <ele>594.71</ele>
        <time>2022-05-08T09:13:39Z</time>
      </trkpt>
      <trkpt lat="45.59979" lon="4.42735">
        <ele>593.27</ele>
        <time>2022-05-08T09:13:55Z</time>
      </trkpt>
      <trkpt lat="45.59998" lon="4.42711">
        <ele>593.75</ele>
        <time>2022-05-08T09:14:12Z</time>
      </trkpt>
      <trkpt lat="45.60016" lon="4.42692">
        <ele>595.19</ele>
        <time>2022-05-08T09:14:26Z</time>
      </trkpt>
      <trkpt lat="45.60034" lon="4.42665">
        <ele>593.75</ele>
        <time>2022-05-08T09:14:43Z</time>
      </trkpt>
      <trkpt lat="45.60047" lon="4.42638">
        <ele>593.75</ele>
        <time>2022-05-08T09:14:58Z</time>
      </trkpt>
      <trkpt lat="45.60062" lon="4.4261">
        <ele>593.27</ele>
        <time>2022-05-08T09:15:14Z</time>
      </trkpt>
      <trkpt lat="45.6008" lon="4.42587">
        <ele>591.35</ele>
        <time>2022-05-08T09:15:33Z</time>
      </trkpt>
      <trkpt lat="45.601" lon="4.42563">
        <ele>590.39</ele>
        <time>2022-05-08T09:15:51Z</time>
      </trkpt>
      <trkpt lat="45.60125" lon="4.42534">
        <ele>588.95</ele>
        <time>2022-05-08T09:16:09Z</time>
      </trkpt>
      <trkpt lat="45.60143" lon="4.42515">
        <ele>587.5</ele>
        <time>2022-05-08T09:16:23Z</time>
      </trkpt>
      <trkpt lat="45.60144" lon="4.42514">
        <ele>587.02</ele>
        <time>2022-05-08T09:16:24Z</time>
      </trkpt>
      <trkpt lat="45.60145" lon="4.42513">
        <ele>587.02</ele>
        <time>2022-05-08T09:16:25Z</time>
      </trkpt>
      <trkpt lat="45.60146" lon="4.42511">
        <ele>587.02</ele>
        <time>2022-05-08T09:16:26Z</time>
      </trkpt>
      <trkpt lat="45.60147" lon="4.4251">
        <ele>587.02</ele>
        <time>2022-05-08T09:16:27Z</time>
      </trkpt>
      <trkpt lat="45.60148" lon="4.42509">
        <ele>586.54</ele>
        <time>2022-05-08T09:16:28Z</time>
      </trkpt>
      <trkpt lat="45.60176" lon="4.42485">
        <ele>584.62</ele>
        <time>2022-05-08T09:16:45Z</time>
      </trkpt>
      <trkpt lat="45.60193" lon="4.42479">
        <ele>584.14</ele>
        <time>2022-05-08T09:16:58Z</time>
      </trkpt>
      <trkpt lat="45.60216" lon="4.42473">
        <ele>585.1</ele>
        <time>2022-05-08T09:17:15Z</time>
      </trkpt>
      <trkpt lat="45.60246" lon="4.42472">
        <ele>584.62</ele>
        <time>2022-05-08T09:17:31Z</time>
      </trkpt>
      <trkpt lat="45.6026" lon="4.425">
        <ele>587.02</ele>
        <time>2022-05-08T09:17:45Z</time>
      </trkpt>
      <trkpt lat="45.60271" lon="4.42536">
        <ele>589.91</ele>
        <time>2022-05-08T09:18:02Z</time>
      </trkpt>
      <trkpt lat="45.60274" lon="4.42546">
        <ele>589.91</ele>
        <time>2022-05-08T09:18:08Z</time>
      </trkpt>
      <trkpt lat="45.60287" lon="4.42583">
        <ele>590.39</ele>
        <time>2022-05-08T09:18:27Z</time>
      </trkpt>
      <trkpt lat="45.60297" lon="4.42617">
        <ele>589.43</ele>
        <time>2022-05-08T09:18:43Z</time>
      </trkpt>
      <trkpt lat="45.60318" lon="4.42646">
        <ele>589.43</ele>
        <time>2022-05-08T09:19:00Z</time>
      </trkpt>
      <trkpt lat="45.60335" lon="4.42665">
        <ele>588.95</ele>
        <time>2022-05-08T09:19:14Z</time>
      </trkpt>
      <trkpt lat="45.60354" lon="4.42685">
        <ele>590.87</ele>
        <time>2022-05-08T09:19:31Z</time>
      </trkpt>
      <trkpt lat="45.60374" lon="4.42696">
        <ele>591.35</ele>
        <time>2022-05-08T09:19:46Z</time>
      </trkpt>
      <trkpt lat="45.60397" lon="4.42706">
        <ele>589.91</ele>
        <time>2022-05-08T09:20:01Z</time>
      </trkpt>
      <trkpt lat="45.60414" lon="4.42713">
        <ele>588.95</ele>
        <time>2022-05-08T09:20:15Z</time>
      </trkpt>
      <trkpt lat="45.60438" lon="4.4272">
        <ele>587.5</ele>
        <time>2022-05-08T09:20:32Z</time>
      </trkpt>
      <trkpt lat="45.60462" lon="4.42726">
        <ele>587.02</ele>
        <time>2022-05-08T09:20:49Z</time>
      </trkpt>
      <trkpt lat="45.60483" lon="4.4273">
        <ele>585.1</ele>
        <time>2022-05-08T09:21:04Z</time>
      </trkpt>
      <trkpt lat="45.60511" lon="4.4274">
        <ele>584.62</ele>
        <time>2022-05-08T09:21:23Z</time>
      </trkpt>
      <trkpt lat="45.60534" lon="4.42745">
        <ele>583.66</ele>
        <time>2022-05-08T09:21:37Z</time>
      </trkpt>
      <trkpt lat="45.60557" lon="4.42755">
        <ele>581.73</ele>
        <time>2022-05-08T09:21:55Z</time>
      </trkpt>
      <trkpt lat="45.60577" lon="4.42768">
        <ele>580.77</ele>
        <time>2022-05-08T09:22:12Z</time>
      </trkpt>
      <trkpt lat="45.60593" lon="4.42778">
        <ele>580.29</ele>
        <time>2022-05-08T09:22:29Z</time>
      </trkpt>
      <trkpt lat="45.60608" lon="4.42793">
        <ele>576.45</ele>
        <time>2022-05-08T09:22:47Z</time>
      </trkpt>
      <trkpt lat="45.6062" lon="4.42804">
        <ele>574.53</ele>
        <time>2022-05-08T09:23:02Z</time>
      </trkpt>
      <trkpt lat="45.60632" lon="4.42816">
        <ele>571.64</ele>
        <time>2022-05-08T09:23:18Z</time>
      </trkpt>
      <trkpt lat="45.60643" lon="4.42825">
        <ele>569.72</ele>
        <time>2022-05-08T09:23:32Z</time>
      </trkpt>
      <trkpt lat="45.60653" lon="4.42836">
        <ele>567.8</ele>
        <time>2022-05-08T09:23:44Z</time>
      </trkpt>
      <trkpt lat="45.60667" lon="4.4285">
        <ele>565.87</ele>
        <time>2022-05-08T09:23:57Z</time>
      </trkpt>
      <trkpt lat="45.60676" lon="4.42858">
        <ele>563.47</ele>
        <time>2022-05-08T09:24:09Z</time>
      </trkpt>
      <trkpt lat="45.6069" lon="4.42872">
        <ele>560.11</ele>
        <time>2022-05-08T09:24:23Z</time>
      </trkpt>
      <trkpt lat="45.60691" lon="4.42873">
        <ele>560.11</ele>
        <time>2022-05-08T09:24:24Z</time>
      </trkpt>
      <trkpt lat="45.60692" lon="4.42874">
        <ele>559.62</ele>
        <time>2022-05-08T09:24:25Z</time>
      </trkpt>
      <trkpt lat="45.60694" lon="4.42874">
        <ele>559.62</ele>
        <time>2022-05-08T09:24:26Z</time>
      </trkpt>
      <trkpt lat="45.60695" lon="4.42875">
        <ele>559.14</ele>
        <time>2022-05-08T09:24:27Z</time>
      </trkpt>
      <trkpt lat="45.60696" lon="4.42876">
        <ele>558.66</ele>
        <time>2022-05-08T09:24:28Z</time>
      </trkpt>
      <trkpt lat="45.60714" lon="4.4289">
        <ele>554.82</ele>
        <time>2022-05-08T09:24:43Z</time>
      </trkpt>
      <trkpt lat="45.60719" lon="4.42895">
        <ele>553.38</ele>
        <time>2022-05-08T09:24:49Z</time>
      </trkpt>
      <trkpt lat="45.60731" lon="4.42905">
        <ele>549.53</ele>
        <time>2022-05-08T09:25:01Z</time>
      </trkpt>
      <trkpt lat="45.60748" lon="4.42916">
        <ele>546.17</ele>
        <time>2022-05-08T09:25:17Z</time>
      </trkpt>
      <trkpt lat="45.6075" lon="4.42917">
        <ele>545.69</ele>
        <time>2022-05-08T09:25:37Z</time>
      </trkpt>
      <trkpt lat="45.60758" lon="4.42929">
        <ele>545.69</ele>
        <time>2022-05-08T09:25:52Z</time>
      </trkpt>
      <trkpt lat="45.60758" lon="4.42931">
        <ele>545.69</ele>
        <time>2022-05-08T09:25:53Z</time>
      </trkpt>
      <trkpt lat="45.60761" lon="4.42954">
        <ele>545.69</ele>
        <time>2022-05-08T09:26:09Z</time>
      </trkpt>
      <trkpt lat="45.60762" lon="4.42958">
        <ele>545.69</ele>
        <time>2022-05-08T09:26:11Z</time>
      </trkpt>
      <trkpt lat="45.60776" lon="4.4296">
        <ele>549.53</ele>
        <time>2022-05-08T09:26:24Z</time>
      </trkpt>
      <trkpt lat="45.60778" lon="4.42959">
        <ele>549.53</ele>
        <time>2022-05-08T09:26:25Z</time>
      </trkpt>
      <trkpt lat="45.6078" lon="4.42958">
        <ele>549.05</ele>
        <time>2022-05-08T09:26:26Z</time>
      </trkpt>
      <trkpt lat="45.60796" lon="4.42941">
        <ele>550.49</ele>
        <time>2022-05-08T09:26:39Z</time>
      </trkpt>
      <trkpt lat="45.60815" lon="4.42928">
        <ele>545.2</ele>
        <time>2022-05-08T09:26:53Z</time>
      </trkpt>
      <trkpt lat="45.60823" lon="4.42924">
        <ele>543.28</ele>
        <time>2022-05-08T09:26:59Z</time>
      </trkpt>
      <trkpt lat="45.60824" lon="4.42923">
        <ele>543.28</ele>
        <time>2022-05-08T09:27:00Z</time>
      </trkpt>
      <trkpt lat="45.60826" lon="4.42922">
        <ele>543.28</ele>
        <time>2022-05-08T09:27:01Z</time>
      </trkpt>
      <trkpt lat="45.60827" lon="4.4292">
        <ele>543.28</ele>
        <time>2022-05-08T09:27:02Z</time>
      </trkpt>
      <trkpt lat="45.60829" lon="4.42919">
        <ele>542.8</ele>
        <time>2022-05-08T09:27:03Z</time>
      </trkpt>
      <trkpt lat="45.6083" lon="4.42918">
        <ele>542.8</ele>
        <time>2022-05-08T09:27:04Z</time>
      </trkpt>
      <trkpt lat="45.60832" lon="4.42917">
        <ele>542.8</ele>
        <time>2022-05-08T09:27:05Z</time>
      </trkpt>
      <trkpt lat="45.60833" lon="4.42916">
        <ele>542.32</ele>
        <time>2022-05-08T09:27:06Z</time>
      </trkpt>
      <trkpt lat="45.60835" lon="4.42916">
        <ele>542.32</ele>
        <time>2022-05-08T09:27:07Z</time>
      </trkpt>
      <trkpt lat="45.60836" lon="4.42915">
        <ele>541.84</ele>
        <time>2022-05-08T09:27:08Z</time>
      </trkpt>
      <trkpt lat="45.60837" lon="4.42914">
        <ele>541.84</ele>
        <time>2022-05-08T09:27:09Z</time>
      </trkpt>
      <trkpt lat="45.60839" lon="4.42914">
        <ele>541.36</ele>
        <time>2022-05-08T09:27:10Z</time>
      </trkpt>
      <trkpt lat="45.60859" lon="4.42908">
        <ele>539.44</ele>
        <time>2022-05-08T09:27:23Z</time>
      </trkpt>
      <trkpt lat="45.60862" lon="4.42907">
        <ele>538.96</ele>
        <time>2022-05-08T09:27:25Z</time>
      </trkpt>
      <trkpt lat="45.60863" lon="4.42907">
        <ele>538.48</ele>
        <time>2022-05-08T09:27:26Z</time>
      </trkpt>
      <trkpt lat="45.60865" lon="4.42906">
        <ele>537.99</ele>
        <time>2022-05-08T09:27:27Z</time>
      </trkpt>
      <trkpt lat="45.60888" lon="4.42906">
        <ele>535.59</ele>
        <time>2022-05-08T09:27:43Z</time>
      </trkpt>
      <trkpt lat="45.60904" lon="4.42905">
        <ele>535.11</ele>
        <time>2022-05-08T09:27:54Z</time>
      </trkpt>
      <trkpt lat="45.60926" lon="4.42898">
        <ele>533.67</ele>
        <time>2022-05-08T09:28:09Z</time>
      </trkpt>
      <trkpt lat="45.6095" lon="4.42891">
        <ele>534.63</ele>
        <time>2022-05-08T09:28:25Z</time>
      </trkpt>
      <trkpt lat="45.60971" lon="4.42886">
        <ele>533.67</ele>
        <time>2022-05-08T09:28:40Z</time>
      </trkpt>
      <trkpt lat="45.60996" lon="4.42883">
        <ele>533.67</ele>
        <time>2022-05-08T09:28:57Z</time>
      </trkpt>
      <trkpt lat="45.61022" lon="4.4288">
        <ele>533.67</ele>
        <time>2022-05-08T09:29:12Z</time>
      </trkpt>
      <trkpt lat="45.61023" lon="4.42879">
        <ele>533.19</ele>
        <time>2022-05-08T09:29:13Z</time>
      </trkpt>
      <trkpt lat="45.61025" lon="4.42878">
        <ele>533.19</ele>
        <time>2022-05-08T09:29:14Z</time>
      </trkpt>
      <trkpt lat="45.61026" lon="4.42878">
        <ele>533.19</ele>
        <time>2022-05-08T09:29:15Z</time>
      </trkpt>
      <trkpt lat="45.61028" lon="4.42878">
        <ele>533.67</ele>
        <time>2022-05-08T09:29:16Z</time>
      </trkpt>
      <trkpt lat="45.61029" lon="4.42878">
        <ele>533.67</ele>
        <time>2022-05-08T09:29:17Z</time>
      </trkpt>
      <trkpt lat="45.61039" lon="4.42892">
        <ele>532.71</ele>
        <time>2022-05-08T09:29:27Z</time>
      </trkpt>
      <trkpt lat="45.61038" lon="4.42894">
        <ele>533.19</ele>
        <time>2022-05-08T09:29:28Z</time>
      </trkpt>
      <trkpt lat="45.61036" lon="4.42903">
        <ele>533.19</ele>
        <time>2022-05-08T09:29:32Z</time>
      </trkpt>
      <trkpt lat="45.61036" lon="4.42906">
        <ele>533.67</ele>
        <time>2022-05-08T09:29:33Z</time>
      </trkpt>
      <trkpt lat="45.61036" lon="4.42909">
        <ele>533.67</ele>
        <time>2022-05-08T09:29:34Z</time>
      </trkpt>
      <trkpt lat="45.61035" lon="4.42912">
        <ele>534.15</ele>
        <time>2022-05-08T09:29:35Z</time>
      </trkpt>
      <trkpt lat="45.61034" lon="4.42915">
        <ele>534.63</ele>
        <time>2022-05-08T09:29:36Z</time>
      </trkpt>
      <trkpt lat="45.61033" lon="4.42918">
        <ele>535.11</ele>
        <time>2022-05-08T09:29:37Z</time>
      </trkpt>
      <trkpt lat="45.61031" lon="4.4292">
        <ele>535.59</ele>
        <time>2022-05-08T09:29:38Z</time>
      </trkpt>
      <trkpt lat="45.61019" lon="4.42943">
        <ele>538.96</ele>
        <time>2022-05-08T09:29:53Z</time>
      </trkpt>
      <trkpt lat="45.61005" lon="4.42968">
        <ele>541.84</ele>
        <time>2022-05-08T09:30:10Z</time>
      </trkpt>
      <trkpt lat="45.60986" lon="4.43002">
        <ele>547.13</ele>
        <time>2022-05-08T09:30:30Z</time>
      </trkpt>
      <trkpt lat="45.60973" lon="4.43027">
        <ele>551.45</ele>
        <time>2022-05-08T09:30:45Z</time>
      </trkpt>
      <trkpt lat="45.60958" lon="4.43052">
        <ele>556.26</ele>
        <time>2022-05-08T09:31:04Z</time>
      </trkpt>
      <trkpt lat="45.60946" lon="4.43068">
        <ele>561.07</ele>
        <time>2022-05-08T09:31:19Z</time>
      </trkpt>
      <trkpt lat="45.60928" lon="4.43096">
        <ele>565.87</ele>
        <time>2022-05-08T09:31:37Z</time>
      </trkpt>
      <trkpt lat="45.60916" lon="4.43114">
        <ele>571.64</ele>
        <time>2022-05-08T09:31:52Z</time>
      </trkpt>
      <trkpt lat="45.60895" lon="4.43143">
        <ele>575.97</ele>
        <time>2022-05-08T09:32:08Z</time>
      </trkpt>
      <trkpt lat="45.60888" lon="4.43152">
        <ele>576.93</ele>
        <time>2022-05-08T09:32:14Z</time>
      </trkpt>
      <trkpt lat="45.60869" lon="4.4318">
        <ele>580.77</ele>
        <time>2022-05-08T09:32:32Z</time>
      </trkpt>
      <trkpt lat="45.60851" lon="4.43209">
        <ele>584.62</ele>
        <time>2022-05-08T09:32:49Z</time>
      </trkpt>
      <trkpt lat="45.60835" lon="4.43235">
        <ele>587.98</ele>
        <time>2022-05-08T09:33:04Z</time>
      </trkpt>
      <trkpt lat="45.60823" lon="4.4327">
        <ele>590.87</ele>
        <time>2022-05-08T09:33:21Z</time>
      </trkpt>
      <trkpt lat="45.60815" lon="4.43297">
        <ele>595.19</ele>
        <time>2022-05-08T09:33:37Z</time>
      </trkpt>
      <trkpt lat="45.60802" lon="4.43325">
        <ele>597.12</ele>
        <time>2022-05-08T09:33:54Z</time>
      </trkpt>
      <trkpt lat="45.60788" lon="4.43356">
        <ele>600.48</ele>
        <time>2022-05-08T09:34:15Z</time>
      </trkpt>
      <trkpt lat="45.60776" lon="4.43383">
        <ele>601.92</ele>
        <time>2022-05-08T09:34:33Z</time>
      </trkpt>
      <trkpt lat="45.6077" lon="4.43419">
        <ele>604.81</ele>
        <time>2022-05-08T09:34:50Z</time>
      </trkpt>
      <trkpt lat="45.60766" lon="4.4345">
        <ele>604.81</ele>
        <time>2022-05-08T09:35:06Z</time>
      </trkpt>
      <trkpt lat="45.6076" lon="4.4348">
        <ele>605.29</ele>
        <time>2022-05-08T09:35:23Z</time>
      </trkpt>
      <trkpt lat="45.60756" lon="4.43494">
        <ele>605.29</ele>
        <time>2022-05-08T09:35:31Z</time>
      </trkpt>
      <trkpt lat="45.60748" lon="4.43533">
        <ele>612.02</ele>
        <time>2022-05-08T09:35:47Z</time>
      </trkpt>
      <trkpt lat="45.60737" lon="4.43561">
        <ele>614.42</ele>
        <time>2022-05-08T09:36:04Z</time>
      </trkpt>
      <trkpt lat="45.60734" lon="4.43579">
        <ele>615.86</ele>
        <time>2022-05-08T09:36:19Z</time>
      </trkpt>
      <trkpt lat="45.60727" lon="4.43614">
        <ele>622.59</ele>
        <time>2022-05-08T09:36:31Z</time>
      </trkpt>
      <trkpt lat="45.60722" lon="4.43652">
        <ele>623.07</ele>
        <time>2022-05-08T09:36:48Z</time>
      </trkpt>
      <trkpt lat="45.60718" lon="4.43693">
        <ele>622.59</ele>
        <time>2022-05-08T09:37:05Z</time>
      </trkpt>
      <trkpt lat="45.60716" lon="4.43736">
        <ele>624.99</ele>
        <time>2022-05-08T09:37:22Z</time>
      </trkpt>
      <trkpt lat="45.60717" lon="4.43774">
        <ele>626.92</ele>
        <time>2022-05-08T09:37:39Z</time>
      </trkpt>
      <trkpt lat="45.60714" lon="4.43813">
        <ele>626.44</ele>
        <time>2022-05-08T09:37:56Z</time>
      </trkpt>
      <trkpt lat="45.60701" lon="4.43854">
        <ele>628.36</ele>
        <time>2022-05-08T09:38:15Z</time>
      </trkpt>
      <trkpt lat="45.60682" lon="4.43879">
        <ele>629.32</ele>
        <time>2022-05-08T09:38:31Z</time>
      </trkpt>
      <trkpt lat="45.60658" lon="4.43902">
        <ele>628.36</ele>
        <time>2022-05-08T09:38:48Z</time>
      </trkpt>
      <trkpt lat="45.60635" lon="4.43935">
        <ele>629.32</ele>
        <time>2022-05-08T09:39:07Z</time>
      </trkpt>
      <trkpt lat="45.6062" lon="4.43965">
        <ele>627.88</ele>
        <time>2022-05-08T09:39:23Z</time>
      </trkpt>
      <trkpt lat="45.60605" lon="4.43998">
        <ele>627.88</ele>
        <time>2022-05-08T09:39:42Z</time>
      </trkpt>
      <trkpt lat="45.60586" lon="4.44028">
        <ele>629.8</ele>
        <time>2022-05-08T09:40:01Z</time>
      </trkpt>
      <trkpt lat="45.60565" lon="4.4405">
        <ele>633.17</ele>
        <time>2022-05-08T09:40:20Z</time>
      </trkpt>
      <trkpt lat="45.60536" lon="4.44069">
        <ele>634.61</ele>
        <time>2022-05-08T09:40:42Z</time>
      </trkpt>
      <trkpt lat="45.60506" lon="4.44088">
        <ele>636.53</ele>
        <time>2022-05-08T09:41:05Z</time>
      </trkpt>
      <trkpt lat="45.6048" lon="4.44108">
        <ele>638.45</ele>
        <time>2022-05-08T09:41:26Z</time>
      </trkpt>
      <trkpt lat="45.60451" lon="4.4413">
        <ele>640.38</ele>
        <time>2022-05-08T09:41:48Z</time>
      </trkpt>
      <trkpt lat="45.60423" lon="4.44157">
        <ele>644.22</ele>
        <time>2022-05-08T09:42:11Z</time>
      </trkpt>
      <trkpt lat="45.60393" lon="4.44185">
        <ele>647.1</ele>
        <time>2022-05-08T09:42:35Z</time>
      </trkpt>
      <trkpt lat="45.60368" lon="4.44187">
        <ele>648.07</ele>
        <time>2022-05-08T09:42:53Z</time>
      </trkpt>
      <trkpt lat="45.60344" lon="4.44186">
        <ele>649.03</ele>
        <time>2022-05-08T09:43:10Z</time>
      </trkpt>
      <trkpt lat="45.60317" lon="4.44183">
        <ele>651.43</ele>
        <time>2022-05-08T09:43:29Z</time>
      </trkpt>
      <trkpt lat="45.6029" lon="4.44174">
        <ele>654.8</ele>
        <time>2022-05-08T09:43:48Z</time>
      </trkpt>
      <trkpt lat="45.60263" lon="4.44165">
        <ele>662.01</ele>
        <time>2022-05-08T09:44:09Z</time>
      </trkpt>
      <trkpt lat="45.60234" lon="4.44158">
        <ele>665.37</ele>
        <time>2022-05-08T09:44:31Z</time>
      </trkpt>
      <trkpt lat="45.60207" lon="4.44153">
        <ele>668.25</ele>
        <time>2022-05-08T09:44:50Z</time>
      </trkpt>
      <trkpt lat="45.60144" lon="4.44127">
        <ele>672.58</ele>
        <time>2022-05-08T09:45:04Z</time>
      </trkpt>
      <trkpt lat="45.6012" lon="4.44119">
        <ele>674.98</ele>
        <time>2022-05-08T09:45:09Z</time>
      </trkpt>
      <trkpt lat="45.60115" lon="4.44119">
        <ele>675.46</ele>
        <time>2022-05-08T09:45:10Z</time>
      </trkpt>
      <trkpt lat="45.6011" lon="4.4412">
        <ele>675.94</ele>
        <time>2022-05-08T09:45:11Z</time>
      </trkpt>
      <trkpt lat="45.60105" lon="4.44121">
        <ele>676.42</ele>
        <time>2022-05-08T09:45:12Z</time>
      </trkpt>
      <trkpt lat="45.60101" lon="4.44123">
        <ele>676.91</ele>
        <time>2022-05-08T09:45:13Z</time>
      </trkpt>
      <trkpt lat="45.60097" lon="4.44125">
        <ele>677.39</ele>
        <time>2022-05-08T09:45:14Z</time>
      </trkpt>
      <trkpt lat="45.6006" lon="4.44155">
        <ele>679.31</ele>
        <time>2022-05-08T09:45:25Z</time>
      </trkpt>
      <trkpt lat="45.60009" lon="4.44206">
        <ele>678.83</ele>
        <time>2022-05-08T09:45:39Z</time>
      </trkpt>
      <trkpt lat="45.59984" lon="4.44229">
        <ele>678.83</ele>
        <time>2022-05-08T09:45:50Z</time>
      </trkpt>
      <trkpt lat="45.59955" lon="4.44248">
        <ele>677.39</ele>
        <time>2022-05-08T09:46:05Z</time>
      </trkpt>
      <trkpt lat="45.59895" lon="4.44274">
        <ele>679.31</ele>
        <time>2022-05-08T09:46:19Z</time>
      </trkpt>
      <trkpt lat="45.5985" lon="4.44291">
        <ele>684.12</ele>
        <time>2022-05-08T09:46:33Z</time>
      </trkpt>
      <trkpt lat="45.59827" lon="4.44306">
        <ele>686.04</ele>
        <time>2022-05-08T09:46:47Z</time>
      </trkpt>
      <trkpt lat="45.59801" lon="4.44324">
        <ele>687.48</ele>
        <time>2022-05-08T09:47:04Z</time>
      </trkpt>
      <trkpt lat="45.59774" lon="4.44334">
        <ele>688.44</ele>
        <time>2022-05-08T09:47:19Z</time>
      </trkpt>
      <trkpt lat="45.59748" lon="4.44342">
        <ele>690.84</ele>
        <time>2022-05-08T09:47:35Z</time>
      </trkpt>
      <trkpt lat="45.59722" lon="4.44342">
        <ele>692.77</ele>
        <time>2022-05-08T09:47:50Z</time>
      </trkpt>
      <trkpt lat="45.59691" lon="4.44346">
        <ele>693.73</ele>
        <time>2022-05-08T09:48:09Z</time>
      </trkpt>
      <trkpt lat="45.59664" lon="4.44346">
        <ele>695.17</ele>
        <time>2022-05-08T09:48:26Z</time>
      </trkpt>
      <trkpt lat="45.59629" lon="4.44343">
        <ele>696.13</ele>
        <time>2022-05-08T09:48:46Z</time>
      </trkpt>
      <trkpt lat="45.59595" lon="4.44339">
        <ele>697.09</ele>
        <time>2022-05-08T09:49:05Z</time>
      </trkpt>
      <trkpt lat="45.59566" lon="4.44334">
        <ele>698.05</ele>
        <time>2022-05-08T09:49:23Z</time>
      </trkpt>
      <trkpt lat="45.5954" lon="4.44329">
        <ele>698.05</ele>
        <time>2022-05-08T09:49:41Z</time>
      </trkpt>
      <trkpt lat="45.59513" lon="4.44323">
        <ele>699.98</ele>
        <time>2022-05-08T09:49:58Z</time>
      </trkpt>
      <trkpt lat="45.59489" lon="4.44312">
        <ele>701.42</ele>
        <time>2022-05-08T09:50:16Z</time>
      </trkpt>
      <trkpt lat="45.59462" lon="4.44304">
        <ele>703.82</ele>
        <time>2022-05-08T09:50:35Z</time>
      </trkpt>
      <trkpt lat="45.59432" lon="4.44295">
        <ele>704.78</ele>
        <time>2022-05-08T09:50:54Z</time>
      </trkpt>
      <trkpt lat="45.59396" lon="4.44286">
        <ele>706.71</ele>
        <time>2022-05-08T09:51:14Z</time>
      </trkpt>
      <trkpt lat="45.59368" lon="4.44278">
        <ele>709.11</ele>
        <time>2022-05-08T09:51:30Z</time>
      </trkpt>
      <trkpt lat="45.59336" lon="4.44271">
        <ele>711.51</ele>
        <time>2022-05-08T09:51:47Z</time>
      </trkpt>
      <trkpt lat="45.59298" lon="4.44258">
        <ele>711.99</ele>
        <time>2022-05-08T09:52:09Z</time>
      </trkpt>
      <trkpt lat="45.59266" lon="4.4425">
        <ele>712.47</ele>
        <time>2022-05-08T09:52:28Z</time>
      </trkpt>
      <trkpt lat="45.59239" lon="4.44241">
        <ele>714.4</ele>
        <time>2022-05-08T09:52:45Z</time>
      </trkpt>
      <trkpt lat="45.59212" lon="4.44223">
        <ele>716.32</ele>
        <time>2022-05-08T09:53:03Z</time>
      </trkpt>
      <trkpt lat="45.59185" lon="4.44208">
        <ele>716.32</ele>
        <time>2022-05-08T09:53:21Z</time>
      </trkpt>
      <trkpt lat="45.59162" lon="4.44197">
        <ele>716.8</ele>
        <time>2022-05-08T09:53:37Z</time>
      </trkpt>
      <trkpt lat="45.59138" lon="4.44186">
        <ele>717.28</ele>
        <time>2022-05-08T09:53:55Z</time>
      </trkpt>
      <trkpt lat="45.59112" lon="4.44177">
        <ele>716.8</ele>
        <time>2022-05-08T09:54:14Z</time>
      </trkpt>
      <trkpt lat="45.59089" lon="4.44173">
        <ele>716.8</ele>
        <time>2022-05-08T09:54:30Z</time>
      </trkpt>
      <trkpt lat="45.59065" lon="4.4417">
        <ele>717.28</ele>
        <time>2022-05-08T09:54:47Z</time>
      </trkpt>
      <trkpt lat="45.5904" lon="4.4417">
        <ele>717.28</ele>
        <time>2022-05-08T09:55:05Z</time>
      </trkpt>
      <trkpt lat="45.59013" lon="4.4416">
        <ele>717.76</ele>
        <time>2022-05-08T09:55:20Z</time>
      </trkpt>
      <trkpt lat="45.58986" lon="4.44138">
        <ele>717.76</ele>
        <time>2022-05-08T09:55:39Z</time>
      </trkpt>
      <trkpt lat="45.58959" lon="4.44118">
        <ele>716.8</ele>
        <time>2022-05-08T09:56:00Z</time>
      </trkpt>
      <trkpt lat="45.58935" lon="4.44104">
        <ele>716.32</ele>
        <time>2022-05-08T09:56:18Z</time>
      </trkpt>
      <trkpt lat="45.58909" lon="4.44092">
        <ele>715.84</ele>
        <time>2022-05-08T09:56:37Z</time>
      </trkpt>
      <trkpt lat="45.58886" lon="4.44078">
        <ele>714.88</ele>
        <time>2022-05-08T09:56:54Z</time>
      </trkpt>
      <trkpt lat="45.58866" lon="4.44061">
        <ele>713.44</ele>
        <time>2022-05-08T09:57:11Z</time>
      </trkpt>
      <trkpt lat="45.58844" lon="4.44043">
        <ele>710.07</ele>
        <time>2022-05-08T09:57:32Z</time>
      </trkpt>
      <trkpt lat="45.58825" lon="4.44026">
        <ele>708.15</ele>
        <time>2022-05-08T09:57:51Z</time>
      </trkpt>
      <trkpt lat="45.58803" lon="4.44014">
        <ele>706.23</ele>
        <time>2022-05-08T09:58:10Z</time>
      </trkpt>
      <trkpt lat="45.5878" lon="4.44016">
        <ele>702.38</ele>
        <time>2022-05-08T09:58:30Z</time>
      </trkpt>
      <trkpt lat="45.58756" lon="4.44006">
        <ele>697.57</ele>
        <time>2022-05-08T09:58:50Z</time>
      </trkpt>
      <trkpt lat="45.58734" lon="4.43987">
        <ele>695.17</ele>
        <time>2022-05-08T09:59:10Z</time>
      </trkpt>
      <trkpt lat="45.58705" lon="4.43977">
        <ele>691.81</ele>
        <time>2022-05-08T09:59:32Z</time>
      </trkpt>
      <trkpt lat="45.58681" lon="4.43979">
        <ele>689.4</ele>
        <time>2022-05-08T09:59:50Z</time>
      </trkpt>
      <trkpt lat="45.58657" lon="4.43985">
        <ele>686.52</ele>
        <time>2022-05-08T10:00:09Z</time>
      </trkpt>
      <trkpt lat="45.58635" lon="4.43984">
        <ele>682.67</ele>
        <time>2022-05-08T10:00:26Z</time>
      </trkpt>
      <trkpt lat="45.58609" lon="4.43977">
        <ele>679.79</ele>
        <time>2022-05-08T10:00:46Z</time>
      </trkpt>
      <trkpt lat="45.58591" lon="4.43966">
        <ele>675.46</ele>
        <time>2022-05-08T10:01:02Z</time>
      </trkpt>
      <trkpt lat="45.58579" lon="4.43941">
        <ele>672.1</ele>
        <time>2022-05-08T10:01:18Z</time>
      </trkpt>
      <trkpt lat="45.58555" lon="4.43926">
        <ele>667.77</ele>
        <time>2022-05-08T10:01:37Z</time>
      </trkpt>
      <trkpt lat="45.58527" lon="4.43913">
        <ele>664.41</ele>
        <time>2022-05-08T10:01:56Z</time>
      </trkpt>
      <trkpt lat="45.58504" lon="4.439">
        <ele>662.01</ele>
        <time>2022-05-08T10:02:10Z</time>
      </trkpt>
      <trkpt lat="45.58503" lon="4.43899">
        <ele>662.01</ele>
        <time>2022-05-08T10:02:11Z</time>
      </trkpt>
      <trkpt lat="45.58502" lon="4.43898">
        <ele>662.01</ele>
        <time>2022-05-08T10:02:12Z</time>
      </trkpt>
      <trkpt lat="45.58501" lon="4.43897">
        <ele>662.01</ele>
        <time>2022-05-08T10:02:13Z</time>
      </trkpt>
      <trkpt lat="45.585" lon="4.43897">
        <ele>661.52</ele>
        <time>2022-05-08T10:02:14Z</time>
      </trkpt>
      <trkpt lat="45.58473" lon="4.43886">
        <ele>659.12</ele>
        <time>2022-05-08T10:02:31Z</time>
      </trkpt>
      <trkpt lat="45.58463" lon="4.43885">
        <ele>657.68</ele>
        <time>2022-05-08T10:02:44Z</time>
      </trkpt>
      <trkpt lat="45.58462" lon="4.43885">
        <ele>657.68</ele>
        <time>2022-05-08T10:02:45Z</time>
      </trkpt>
      <trkpt lat="45.58461" lon="4.43885">
        <ele>657.68</ele>
        <time>2022-05-08T10:02:46Z</time>
      </trkpt>
      <trkpt lat="45.5846" lon="4.43885">
        <ele>657.68</ele>
        <time>2022-05-08T10:02:47Z</time>
      </trkpt>
      <trkpt lat="45.58455" lon="4.43884">
        <ele>657.2</ele>
        <time>2022-05-08T10:03:00Z</time>
      </trkpt>
      <trkpt lat="45.58455" lon="4.43882">
        <ele>657.2</ele>
        <time>2022-05-08T10:03:18Z</time>
      </trkpt>
      <trkpt lat="45.58456" lon="4.43882">
        <ele>657.68</ele>
        <time>2022-05-08T10:03:34Z</time>
      </trkpt>
      <trkpt lat="45.58456" lon="4.43881">
        <ele>658.16</ele>
        <time>2022-05-08T10:04:04Z</time>
      </trkpt>
      <trkpt lat="45.58456" lon="4.43882">
        <ele>658.16</ele>
        <time>2022-05-08T10:04:24Z</time>
      </trkpt>
      <trkpt lat="45.58444" lon="4.43878">
        <ele>656.72</ele>
        <time>2022-05-08T10:04:37Z</time>
      </trkpt>
      <trkpt lat="45.58415" lon="4.43878">
        <ele>655.76</ele>
        <time>2022-05-08T10:04:56Z</time>
      </trkpt>
      <trkpt lat="45.58383" lon="4.43873">
        <ele>653.83</ele>
        <time>2022-05-08T10:05:19Z</time>
      </trkpt>
      <trkpt lat="45.58358" lon="4.43871">
        <ele>651.43</ele>
        <time>2022-05-08T10:05:38Z</time>
      </trkpt>
      <trkpt lat="45.58336" lon="4.43871">
        <ele>649.99</ele>
        <time>2022-05-08T10:05:55Z</time>
      </trkpt>
      <trkpt lat="45.58313" lon="4.43872">
        <ele>649.03</ele>
        <time>2022-05-08T10:06:12Z</time>
      </trkpt>
      <trkpt lat="45.58284" lon="4.43875">
        <ele>648.07</ele>
        <time>2022-05-08T10:06:33Z</time>
      </trkpt>
      <trkpt lat="45.58258" lon="4.43877">
        <ele>647.59</ele>
        <time>2022-05-08T10:06:50Z</time>
      </trkpt>
      <trkpt lat="45.58233" lon="4.43865">
        <ele>646.62</ele>
        <time>2022-05-08T10:07:05Z</time>
      </trkpt>
      <trkpt lat="45.58212" lon="4.43845">
        <ele>647.1</ele>
        <time>2022-05-08T10:07:22Z</time>
      </trkpt>
      <trkpt lat="45.58203" lon="4.4384">
        <ele>648.07</ele>
        <time>2022-05-08T10:07:31Z</time>
      </trkpt>
      <trkpt lat="45.58198" lon="4.43844">
        <ele>647.59</ele>
        <time>2022-05-08T10:07:37Z</time>
      </trkpt>
      <trkpt lat="45.58196" lon="4.43845">
        <ele>647.1</ele>
        <time>2022-05-08T10:07:38Z</time>
      </trkpt>
      <trkpt lat="45.58195" lon="4.43847">
        <ele>647.1</ele>
        <time>2022-05-08T10:07:39Z</time>
      </trkpt>
      <trkpt lat="45.58185" lon="4.43878">
        <ele>649.03</ele>
        <time>2022-05-08T10:07:56Z</time>
      </trkpt>
      <trkpt lat="45.58173" lon="4.43907">
        <ele>651.43</ele>
        <time>2022-05-08T10:08:13Z</time>
      </trkpt>
      <trkpt lat="45.58159" lon="4.43943">
        <ele>654.31</ele>
        <time>2022-05-08T10:08:32Z</time>
      </trkpt>
      <trkpt lat="45.58147" lon="4.43972">
        <ele>659.12</ele>
        <time>2022-05-08T10:08:49Z</time>
      </trkpt>
      <trkpt lat="45.58135" lon="4.43995">
        <ele>661.52</ele>
        <time>2022-05-08T10:09:05Z</time>
      </trkpt>
      <trkpt lat="45.58119" lon="4.44005">
        <ele>664.41</ele>
        <time>2022-05-08T10:09:21Z</time>
      </trkpt>
      <trkpt lat="45.58102" lon="4.44011">
        <ele>665.37</ele>
        <time>2022-05-08T10:09:35Z</time>
      </trkpt>
      <trkpt lat="45.58089" lon="4.44018">
        <ele>666.81</ele>
        <time>2022-05-08T10:09:48Z</time>
      </trkpt>
      <trkpt lat="45.58067" lon="4.44032">
        <ele>671.14</ele>
        <time>2022-05-08T10:10:04Z</time>
      </trkpt>
      <trkpt lat="45.58051" lon="4.4405">
        <ele>674.98</ele>
        <time>2022-05-08T10:10:20Z</time>
      </trkpt>
      <trkpt lat="45.5805" lon="4.44066">
        <ele>677.87</ele>
        <time>2022-05-08T10:10:30Z</time>
      </trkpt>
      <trkpt lat="45.58054" lon="4.44091">
        <ele>681.71</ele>
        <time>2022-05-08T10:10:44Z</time>
      </trkpt>
      <trkpt lat="45.58054" lon="4.4412">
        <ele>683.63</ele>
        <time>2022-05-08T10:11:00Z</time>
      </trkpt>
      <trkpt lat="45.58046" lon="4.44145">
        <ele>683.15</ele>
        <time>2022-05-08T10:11:16Z</time>
      </trkpt>
      <trkpt lat="45.58035" lon="4.44174">
        <ele>684.6</ele>
        <time>2022-05-08T10:11:32Z</time>
      </trkpt>
      <trkpt lat="45.58023" lon="4.44203">
        <ele>687</ele>
        <time>2022-05-08T10:11:49Z</time>
      </trkpt>
      <trkpt lat="45.58009" lon="4.44238">
        <ele>690.36</ele>
        <time>2022-05-08T10:12:07Z</time>
      </trkpt>
      <trkpt lat="45.57997" lon="4.4427">
        <ele>692.29</ele>
        <time>2022-05-08T10:12:25Z</time>
      </trkpt>
      <trkpt lat="45.57981" lon="4.44301">
        <ele>694.69</ele>
        <time>2022-05-08T10:12:44Z</time>
      </trkpt>
      <trkpt lat="45.57965" lon="4.44329">
        <ele>696.61</ele>
        <time>2022-05-08T10:13:01Z</time>
      </trkpt>
      <trkpt lat="45.57947" lon="4.44358">
        <ele>699.98</ele>
        <time>2022-05-08T10:13:20Z</time>
      </trkpt>
      <trkpt lat="45.57924" lon="4.44396">
        <ele>705.75</ele>
        <time>2022-05-08T10:13:34Z</time>
      </trkpt>
      <trkpt lat="45.57906" lon="4.44427">
        <ele>709.11</ele>
        <time>2022-05-08T10:13:48Z</time>
      </trkpt>
      <trkpt lat="45.57894" lon="4.44448">
        <ele>710.55</ele>
        <time>2022-05-08T10:14:03Z</time>
      </trkpt>
      <trkpt lat="45.57879" lon="4.44472">
        <ele>711.99</ele>
        <time>2022-05-08T10:14:20Z</time>
      </trkpt>
      <trkpt lat="45.57862" lon="4.44499">
        <ele>713.92</ele>
        <time>2022-05-08T10:14:38Z</time>
      </trkpt>
      <trkpt lat="45.57848" lon="4.44524">
        <ele>714.4</ele>
        <time>2022-05-08T10:14:55Z</time>
      </trkpt>
      <trkpt lat="45.57835" lon="4.44551">
        <ele>715.36</ele>
        <time>2022-05-08T10:15:12Z</time>
      </trkpt>
      <trkpt lat="45.5782" lon="4.44586">
        <ele>715.84</ele>
        <time>2022-05-08T10:15:32Z</time>
      </trkpt>
      <trkpt lat="45.57807" lon="4.44621">
        <ele>718.24</ele>
        <time>2022-05-08T10:15:52Z</time>
      </trkpt>
      <trkpt lat="45.57798" lon="4.44649">
        <ele>720.16</ele>
        <time>2022-05-08T10:16:09Z</time>
      </trkpt>
      <trkpt lat="45.57793" lon="4.44661">
        <ele>722.09</ele>
        <time>2022-05-08T10:16:17Z</time>
      </trkpt>
      <trkpt lat="45.57793" lon="4.44662">
        <ele>723.05</ele>
        <time>2022-05-08T10:16:34Z</time>
      </trkpt>
      <trkpt lat="45.57792" lon="4.44665">
        <ele>722.09</ele>
        <time>2022-05-08T10:17:01Z</time>
      </trkpt>
      <trkpt lat="45.57789" lon="4.44676">
        <ele>722.57</ele>
        <time>2022-05-08T10:17:15Z</time>
      </trkpt>
      <trkpt lat="45.57789" lon="4.44675">
        <ele>723.05</ele>
        <time>2022-05-08T10:17:37Z</time>
      </trkpt>
      <trkpt lat="45.57781" lon="4.44696">
        <ele>724.49</ele>
        <time>2022-05-08T10:17:52Z</time>
      </trkpt>
      <trkpt lat="45.57768" lon="4.4473">
        <ele>726.89</ele>
        <time>2022-05-08T10:18:11Z</time>
      </trkpt>
      <trkpt lat="45.57765" lon="4.44759">
        <ele>730.26</ele>
        <time>2022-05-08T10:18:27Z</time>
      </trkpt>
      <trkpt lat="45.57771" lon="4.44783">
        <ele>734.1</ele>
        <time>2022-05-08T10:18:42Z</time>
      </trkpt>
      <trkpt lat="45.57772" lon="4.44814">
        <ele>736.03</ele>
        <time>2022-05-08T10:18:58Z</time>
      </trkpt>
      <trkpt lat="45.57773" lon="4.44847">
        <ele>737.95</ele>
        <time>2022-05-08T10:19:17Z</time>
      </trkpt>
      <trkpt lat="45.57775" lon="4.44879">
        <ele>739.39</ele>
        <time>2022-05-08T10:19:35Z</time>
      </trkpt>
      <trkpt lat="45.57775" lon="4.4491">
        <ele>739.87</ele>
        <time>2022-05-08T10:19:53Z</time>
      </trkpt>
      <trkpt lat="45.57775" lon="4.44945">
        <ele>740.83</ele>
        <time>2022-05-08T10:20:11Z</time>
      </trkpt>
      <trkpt lat="45.57779" lon="4.44983">
        <ele>741.79</ele>
        <time>2022-05-08T10:20:29Z</time>
      </trkpt>
      <trkpt lat="45.57785" lon="4.45021">
        <ele>741.79</ele>
        <time>2022-05-08T10:20:49Z</time>
      </trkpt>
      <trkpt lat="45.57794" lon="4.45058">
        <ele>740.35</ele>
        <time>2022-05-08T10:21:08Z</time>
      </trkpt>
      <trkpt lat="45.57799" lon="4.45099">
        <ele>738.91</ele>
        <time>2022-05-08T10:21:27Z</time>
      </trkpt>
      <trkpt lat="45.57786" lon="4.45117">
        <ele>739.39</ele>
        <time>2022-05-08T10:21:43Z</time>
      </trkpt>
      <trkpt lat="45.57766" lon="4.45127">
        <ele>742.28</ele>
        <time>2022-05-08T10:21:59Z</time>
      </trkpt>
      <trkpt lat="45.57748" lon="4.45137">
        <ele>746.6</ele>
        <time>2022-05-08T10:22:14Z</time>
      </trkpt>
      <trkpt lat="45.57725" lon="4.45146">
        <ele>750.93</ele>
        <time>2022-05-08T10:22:31Z</time>
      </trkpt>
      <trkpt lat="45.57703" lon="4.45149">
        <ele>754.29</ele>
        <time>2022-05-08T10:22:48Z</time>
      </trkpt>
      <trkpt lat="45.57683" lon="4.45154">
        <ele>756.69</ele>
        <time>2022-05-08T10:23:03Z</time>
      </trkpt>
      <trkpt lat="45.5766" lon="4.45157">
        <ele>759.1</ele>
        <time>2022-05-08T10:23:21Z</time>
      </trkpt>
      <trkpt lat="45.57642" lon="4.45161">
        <ele>761.98</ele>
        <time>2022-05-08T10:23:37Z</time>
      </trkpt>
      <trkpt lat="45.57621" lon="4.45165">
        <ele>764.39</ele>
        <time>2022-05-08T10:23:53Z</time>
      </trkpt>
      <trkpt lat="45.57599" lon="4.4517">
        <ele>767.27</ele>
        <time>2022-05-08T10:24:10Z</time>
      </trkpt>
      <trkpt lat="45.57578" lon="4.45179">
        <ele>769.67</ele>
        <time>2022-05-08T10:24:26Z</time>
      </trkpt>
      <trkpt lat="45.57562" lon="4.45191">
        <ele>770.63</ele>
        <time>2022-05-08T10:24:39Z</time>
      </trkpt>
      <trkpt lat="45.57546" lon="4.45204">
        <ele>773.04</ele>
        <time>2022-05-08T10:24:53Z</time>
      </trkpt>
      <trkpt lat="45.57545" lon="4.45205">
        <ele>773.04</ele>
        <time>2022-05-08T10:24:54Z</time>
      </trkpt>
      <trkpt lat="45.5753" lon="4.45228">
        <ele>776.4</ele>
        <time>2022-05-08T10:25:10Z</time>
      </trkpt>
      <trkpt lat="45.57527" lon="4.45233">
        <ele>777.36</ele>
        <time>2022-05-08T10:25:14Z</time>
      </trkpt>
      <trkpt lat="45.57526" lon="4.45234">
        <ele>777.36</ele>
        <time>2022-05-08T10:25:15Z</time>
      </trkpt>
      <trkpt lat="45.57525" lon="4.45235">
        <ele>777.84</ele>
        <time>2022-05-08T10:25:16Z</time>
      </trkpt>
      <trkpt lat="45.57524" lon="4.45236">
        <ele>777.84</ele>
        <time>2022-05-08T10:25:17Z</time>
      </trkpt>
      <trkpt lat="45.57522" lon="4.45238">
        <ele>777.84</ele>
        <time>2022-05-08T10:25:18Z</time>
      </trkpt>
      <trkpt lat="45.57509" lon="4.45251">
        <ele>781.21</ele>
        <time>2022-05-08T10:25:32Z</time>
      </trkpt>
      <trkpt lat="45.57501" lon="4.45262">
        <ele>782.65</ele>
        <time>2022-05-08T10:25:49Z</time>
      </trkpt>
      <trkpt lat="45.57496" lon="4.45267">
        <ele>783.61</ele>
        <time>2022-05-08T10:26:07Z</time>
      </trkpt>
      <trkpt lat="45.57498" lon="4.45264">
        <ele>786.5</ele>
        <time>2022-05-08T10:26:27Z</time>
      </trkpt>
      <trkpt lat="45.57489" lon="4.45273">
        <ele>789.38</ele>
        <time>2022-05-08T10:26:41Z</time>
      </trkpt>
      <trkpt lat="45.57484" lon="4.45276">
        <ele>789.38</ele>
        <time>2022-05-08T10:27:02Z</time>
      </trkpt>
      <trkpt lat="45.57483" lon="4.45277">
        <ele>791.3</ele>
        <time>2022-05-08T10:27:24Z</time>
      </trkpt>
      <trkpt lat="45.57481" lon="4.45277">
        <ele>791.3</ele>
        <time>2022-05-08T10:27:44Z</time>
      </trkpt>
      <trkpt lat="45.5748" lon="4.45279">
        <ele>790.34</ele>
        <time>2022-05-08T10:28:10Z</time>
      </trkpt>
      <trkpt lat="45.57479" lon="4.45281">
        <ele>789.86</ele>
        <time>2022-05-08T10:28:29Z</time>
      </trkpt>
      <trkpt lat="45.57478" lon="4.45279">
        <ele>787.94</ele>
        <time>2022-05-08T10:28:58Z</time>
      </trkpt>
      <trkpt lat="45.5748" lon="4.45286">
        <ele>788.9</ele>
        <time>2022-05-08T10:29:19Z</time>
      </trkpt>
      <trkpt lat="45.57482" lon="4.45283">
        <ele>789.86</ele>
        <time>2022-05-08T10:29:42Z</time>
      </trkpt>
      <trkpt lat="45.57477" lon="4.45287">
        <ele>788.9</ele>
        <time>2022-05-08T10:30:10Z</time>
      </trkpt>
      <trkpt lat="45.57478" lon="4.45289">
        <ele>792.74</ele>
        <time>2022-05-08T10:30:42Z</time>
      </trkpt>
      <trkpt lat="45.57477" lon="4.45286">
        <ele>789.86</ele>
        <time>2022-05-08T10:31:02Z</time>
      </trkpt>
      <trkpt lat="45.57475" lon="4.45284">
        <ele>788.9</ele>
        <time>2022-05-08T10:31:30Z</time>
      </trkpt>
      <trkpt lat="45.57477" lon="4.45284">
        <ele>789.86</ele>
        <time>2022-05-08T10:31:49Z</time>
      </trkpt>
      <trkpt lat="45.57477" lon="4.45287">
        <ele>789.38</ele>
        <time>2022-05-08T10:32:10Z</time>
      </trkpt>
      <trkpt lat="45.57477" lon="4.45285">
        <ele>789.38</ele>
        <time>2022-05-08T10:32:37Z</time>
      </trkpt>
      <trkpt lat="45.57477" lon="4.45288">
        <ele>790.34</ele>
        <time>2022-05-08T10:33:06Z</time>
      </trkpt>
      <trkpt lat="45.57479" lon="4.4529">
        <ele>792.26</ele>
        <time>2022-05-08T10:33:23Z</time>
      </trkpt>
      <trkpt lat="45.5748" lon="4.45288">
        <ele>793.71</ele>
        <time>2022-05-08T10:33:55Z</time>
      </trkpt>
      <trkpt lat="45.57482" lon="4.45287">
        <ele>790.34</ele>
        <time>2022-05-08T10:34:11Z</time>
      </trkpt>
      <trkpt lat="45.57479" lon="4.45287">
        <ele>783.61</ele>
        <time>2022-05-08T10:34:30Z</time>
      </trkpt>
      <trkpt lat="45.57482" lon="4.45288">
        <ele>783.61</ele>
        <time>2022-05-08T10:35:06Z</time>
      </trkpt>
      <trkpt lat="45.57474" lon="4.45287">
        <ele>782.17</ele>
        <time>2022-05-08T10:35:48Z</time>
      </trkpt>
      <trkpt lat="45.57476" lon="4.45288">
        <ele>781.21</ele>
        <time>2022-05-08T10:36:22Z</time>
      </trkpt>
      <trkpt lat="45.57475" lon="4.45286">
        <ele>779.29</ele>
        <time>2022-05-08T10:36:59Z</time>
      </trkpt>
      <trkpt lat="45.57471" lon="4.45287">
        <ele>768.71</ele>
        <time>2022-05-08T10:37:34Z</time>
      </trkpt>
      <trkpt lat="45.57468" lon="4.4528">
        <ele>769.67</ele>
        <time>2022-05-08T10:38:17Z</time>
      </trkpt>
      <trkpt lat="45.57468" lon="4.45281">
        <ele>774.48</ele>
        <time>2022-05-08T10:39:02Z</time>
      </trkpt>
      <trkpt lat="45.57477" lon="4.45282">
        <ele>775.92</ele>
        <time>2022-05-08T10:39:40Z</time>
      </trkpt>
      <trkpt lat="45.57476" lon="4.45279">
        <ele>780.25</ele>
        <time>2022-05-08T10:40:13Z</time>
      </trkpt>
      <trkpt lat="45.57475" lon="4.45282">
        <ele>779.77</ele>
        <time>2022-05-08T10:40:46Z</time>
      </trkpt>
      <trkpt lat="45.57475" lon="4.45285">
        <ele>780.25</ele>
        <time>2022-05-08T10:41:25Z</time>
      </trkpt>
      <trkpt lat="45.57477" lon="4.45285">
        <ele>781.21</ele>
        <time>2022-05-08T10:42:09Z</time>
      </trkpt>
      <trkpt lat="45.5748" lon="4.45289">
        <ele>783.13</ele>
        <time>2022-05-08T10:42:51Z</time>
      </trkpt>
      <trkpt lat="45.57479" lon="4.4529">
        <ele>782.65</ele>
        <time>2022-05-08T10:43:26Z</time>
      </trkpt>
      <trkpt lat="45.57476" lon="4.45284">
        <ele>781.69</ele>
        <time>2022-05-08T10:43:58Z</time>
      </trkpt>
      <trkpt lat="45.57478" lon="4.45286">
        <ele>785.53</ele>
        <time>2022-05-08T10:44:37Z</time>
      </trkpt>
      <trkpt lat="45.57483" lon="4.45289">
        <ele>787.46</ele>
        <time>2022-05-08T10:45:14Z</time>
      </trkpt>
      <trkpt lat="45.57489" lon="4.45291">
        <ele>789.38</ele>
        <time>2022-05-08T10:46:00Z</time>
      </trkpt>
      <trkpt lat="45.57483" lon="4.45288">
        <ele>786.98</ele>
        <time>2022-05-08T10:46:42Z</time>
      </trkpt>
      <trkpt lat="45.57481" lon="4.45288">
        <ele>785.05</ele>
        <time>2022-05-08T10:47:23Z</time>
      </trkpt>
      <trkpt lat="45.57477" lon="4.45279">
        <ele>787.94</ele>
        <time>2022-05-08T10:48:05Z</time>
      </trkpt>
      <trkpt lat="45.57479" lon="4.4528">
        <ele>789.86</ele>
        <time>2022-05-08T10:48:44Z</time>
      </trkpt>
      <trkpt lat="45.57481" lon="4.45281">
        <ele>786.98</ele>
        <time>2022-05-08T10:49:16Z</time>
      </trkpt>
      <trkpt lat="45.57479" lon="4.4528">
        <ele>785.05</ele>
        <time>2022-05-08T10:49:47Z</time>
      </trkpt>
      <trkpt lat="45.57481" lon="4.45282">
        <ele>785.53</ele>
        <time>2022-05-08T10:50:23Z</time>
      </trkpt>
      <trkpt lat="45.5748" lon="4.4528">
        <ele>786.02</ele>
        <time>2022-05-08T10:51:00Z</time>
      </trkpt>
      <trkpt lat="45.57476" lon="4.4528">
        <ele>783.61</ele>
        <time>2022-05-08T10:51:41Z</time>
      </trkpt>
      <trkpt lat="45.57472" lon="4.45282">
        <ele>780.25</ele>
        <time>2022-05-08T10:52:13Z</time>
      </trkpt>
      <trkpt lat="45.57478" lon="4.45281">
        <ele>782.17</ele>
        <time>2022-05-08T10:52:46Z</time>
      </trkpt>
      <trkpt lat="45.5748" lon="4.45284">
        <ele>780.25</ele>
        <time>2022-05-08T10:53:21Z</time>
      </trkpt>
      <trkpt lat="45.57481" lon="4.45285">
        <ele>780.73</ele>
        <time>2022-05-08T10:53:52Z</time>
      </trkpt>
      <trkpt lat="45.57482" lon="4.45288">
        <ele>786.98</ele>
        <time>2022-05-08T10:54:28Z</time>
      </trkpt>
      <trkpt lat="45.57483" lon="4.45286">
        <ele>788.42</ele>
        <time>2022-05-08T10:55:00Z</time>
      </trkpt>
      <trkpt lat="45.57486" lon="4.45289">
        <ele>792.74</ele>
        <time>2022-05-08T10:55:38Z</time>
      </trkpt>
      <trkpt lat="45.57488" lon="4.45288">
        <ele>793.71</ele>
        <time>2022-05-08T10:56:12Z</time>
      </trkpt>
      <trkpt lat="45.57487" lon="4.45283">
        <ele>797.55</ele>
        <time>2022-05-08T10:56:49Z</time>
      </trkpt>
      <trkpt lat="45.57483" lon="4.45287">
        <ele>794.19</ele>
        <time>2022-05-08T10:57:28Z</time>
      </trkpt>
      <trkpt lat="45.57479" lon="4.45286">
        <ele>792.26</ele>
        <time>2022-05-08T10:58:08Z</time>
      </trkpt>
      <trkpt lat="45.5748" lon="4.45287">
        <ele>785.05</ele>
        <time>2022-05-08T10:58:45Z</time>
      </trkpt>
      <trkpt lat="45.57476" lon="4.45288">
        <ele>779.29</ele>
        <time>2022-05-08T10:59:23Z</time>
      </trkpt>
      <trkpt lat="45.5747" lon="4.45286">
        <ele>776.4</ele>
        <time>2022-05-08T10:59:59Z</time>
      </trkpt>
      <trkpt lat="45.57471" lon="4.45284">
        <ele>775.92</ele>
        <time>2022-05-08T11:00:37Z</time>
      </trkpt>
      <trkpt lat="45.57475" lon="4.45273">
        <ele>781.21</ele>
        <time>2022-05-08T11:01:14Z</time>
      </trkpt>
      <trkpt lat="45.5747" lon="4.45275">
        <ele>788.42</ele>
        <time>2022-05-08T11:01:52Z</time>
      </trkpt>
      <trkpt lat="45.5747" lon="4.45286">
        <ele>794.19</ele>
        <time>2022-05-08T11:02:28Z</time>
      </trkpt>
      <trkpt lat="45.57474" lon="4.45286">
        <ele>798.51</ele>
        <time>2022-05-08T11:03:02Z</time>
      </trkpt>
      <trkpt lat="45.57477" lon="4.4529">
        <ele>798.03</ele>
        <time>2022-05-08T11:03:37Z</time>
      </trkpt>
      <trkpt lat="45.57481" lon="4.45288">
        <ele>790.82</ele>
        <time>2022-05-08T11:04:11Z</time>
      </trkpt>
      <trkpt lat="45.57479" lon="4.45287">
        <ele>785.53</ele>
        <time>2022-05-08T11:04:48Z</time>
      </trkpt>
      <trkpt lat="45.57478" lon="4.45286">
        <ele>783.61</ele>
        <time>2022-05-08T11:05:20Z</time>
      </trkpt>
      <trkpt lat="45.57473" lon="4.45287">
        <ele>785.05</ele>
        <time>2022-05-08T11:06:02Z</time>
      </trkpt>
      <trkpt lat="45.57475" lon="4.4528">
        <ele>786.02</ele>
        <time>2022-05-08T11:06:41Z</time>
      </trkpt>
      <trkpt lat="45.57481" lon="4.4528">
        <ele>785.53</ele>
        <time>2022-05-08T11:07:10Z</time>
      </trkpt>
      <trkpt lat="45.57482" lon="4.45283">
        <ele>784.09</ele>
        <time>2022-05-08T11:07:44Z</time>
      </trkpt>
      <trkpt lat="45.57483" lon="4.45283">
        <ele>784.09</ele>
        <time>2022-05-08T11:08:28Z</time>
      </trkpt>
      <trkpt lat="45.57484" lon="4.45282">
        <ele>785.53</ele>
        <time>2022-05-08T11:09:11Z</time>
      </trkpt>
      <trkpt lat="45.57481" lon="4.45277">
        <ele>781.69</ele>
        <time>2022-05-08T11:09:48Z</time>
      </trkpt>
      <trkpt lat="45.5748" lon="4.45282">
        <ele>778.81</ele>
        <time>2022-05-08T11:10:26Z</time>
      </trkpt>
      <trkpt lat="45.57476" lon="4.45285">
        <ele>779.77</ele>
        <time>2022-05-08T11:11:13Z</time>
      </trkpt>
      <trkpt lat="45.57478" lon="4.45289">
        <ele>782.65</ele>
        <time>2022-05-08T11:11:58Z</time>
      </trkpt>
      <trkpt lat="45.57477" lon="4.45288">
        <ele>779.29</ele>
        <time>2022-05-08T11:12:34Z</time>
      </trkpt>
      <trkpt lat="45.57473" lon="4.4529">
        <ele>778.81</ele>
        <time>2022-05-08T11:13:21Z</time>
      </trkpt>
      <trkpt lat="45.57475" lon="4.45289">
        <ele>779.29</ele>
        <time>2022-05-08T11:14:00Z</time>
      </trkpt>
      <trkpt lat="45.57475" lon="4.45284">
        <ele>779.77</ele>
        <time>2022-05-08T11:14:31Z</time>
      </trkpt>
      <trkpt lat="45.57475" lon="4.45283">
        <ele>775.44</ele>
        <time>2022-05-08T11:15:21Z</time>
      </trkpt>
      <trkpt lat="45.57474" lon="4.45285">
        <ele>778.32</ele>
        <time>2022-05-08T11:16:08Z</time>
      </trkpt>
      <trkpt lat="45.57477" lon="4.45282">
        <ele>780.25</ele>
        <time>2022-05-08T11:16:50Z</time>
      </trkpt>
      <trkpt lat="45.57481" lon="4.45278">
        <ele>784.57</ele>
        <time>2022-05-08T11:17:30Z</time>
      </trkpt>
      <trkpt lat="45.57477" lon="4.45285">
        <ele>786.02</ele>
        <time>2022-05-08T11:18:12Z</time>
      </trkpt>
      <trkpt lat="45.57473" lon="4.4529">
        <ele>786.98</ele>
        <time>2022-05-08T11:18:50Z</time>
      </trkpt>
      <trkpt lat="45.57475" lon="4.45287">
        <ele>787.46</ele>
        <time>2022-05-08T11:19:23Z</time>
      </trkpt>
      <trkpt lat="45.57477" lon="4.45278">
        <ele>785.05</ele>
        <time>2022-05-08T11:20:04Z</time>
      </trkpt>
      <trkpt lat="45.57479" lon="4.45283">
        <ele>785.05</ele>
        <time>2022-05-08T11:20:47Z</time>
      </trkpt>
      <trkpt lat="45.57478" lon="4.45283">
        <ele>782.65</ele>
        <time>2022-05-08T11:21:22Z</time>
      </trkpt>
      <trkpt lat="45.57473" lon="4.45289">
        <ele>780.25</ele>
        <time>2022-05-08T11:22:01Z</time>
      </trkpt>
      <trkpt lat="45.57471" lon="4.45289">
        <ele>778.32</ele>
        <time>2022-05-08T11:22:38Z</time>
      </trkpt>
      <trkpt lat="45.57473" lon="4.45289">
        <ele>777.84</ele>
        <time>2022-05-08T11:23:15Z</time>
      </trkpt>
      <trkpt lat="45.57476" lon="4.45291">
        <ele>779.77</ele>
        <time>2022-05-08T11:23:47Z</time>
      </trkpt>
      <trkpt lat="45.57476" lon="4.45288">
        <ele>782.65</ele>
        <time>2022-05-08T11:24:24Z</time>
      </trkpt>
      <trkpt lat="45.57475" lon="4.45288">
        <ele>777.36</ele>
        <time>2022-05-08T11:24:59Z</time>
      </trkpt>
      <trkpt lat="45.57476" lon="4.4529">
        <ele>776.4</ele>
        <time>2022-05-08T11:25:40Z</time>
      </trkpt>
      <trkpt lat="45.57473" lon="4.45289">
        <ele>784.09</ele>
        <time>2022-05-08T11:26:24Z</time>
      </trkpt>
      <trkpt lat="45.57474" lon="4.45291">
        <ele>782.65</ele>
        <time>2022-05-08T11:26:56Z</time>
      </trkpt>
      <trkpt lat="45.57472" lon="4.45295">
        <ele>781.21</ele>
        <time>2022-05-08T11:27:28Z</time>
      </trkpt>
      <trkpt lat="45.57475" lon="4.45296">
        <ele>779.29</ele>
        <time>2022-05-08T11:28:00Z</time>
      </trkpt>
      <trkpt lat="45.57473" lon="4.45297">
        <ele>777.84</ele>
        <time>2022-05-08T11:28:29Z</time>
      </trkpt>
      <trkpt lat="45.57473" lon="4.45293">
        <ele>771.11</ele>
        <time>2022-05-08T11:29:09Z</time>
      </trkpt>
      <trkpt lat="45.57472" lon="4.45298">
        <ele>769.19</ele>
        <time>2022-05-08T11:29:42Z</time>
      </trkpt>
      <trkpt lat="45.5748" lon="4.45292">
        <ele>774.48</ele>
        <time>2022-05-08T11:30:26Z</time>
      </trkpt>
      <trkpt lat="45.57482" lon="4.45297">
        <ele>773.52</ele>
        <time>2022-05-08T11:31:01Z</time>
      </trkpt>
      <trkpt lat="45.57478" lon="4.45292">
        <ele>781.69</ele>
        <time>2022-05-08T11:31:45Z</time>
      </trkpt>
      <trkpt lat="45.5748" lon="4.45288">
        <ele>785.05</ele>
        <time>2022-05-08T11:32:07Z</time>
      </trkpt>
      <trkpt lat="45.57479" lon="4.45284">
        <ele>784.09</ele>
        <time>2022-05-08T11:32:47Z</time>
      </trkpt>
      <trkpt lat="45.57483" lon="4.45286">
        <ele>788.9</ele>
        <time>2022-05-08T11:33:21Z</time>
      </trkpt>
      <trkpt lat="45.57484" lon="4.45281">
        <ele>785.05</ele>
        <time>2022-05-08T11:34:00Z</time>
      </trkpt>
      <trkpt lat="45.57486" lon="4.45282">
        <ele>786.98</ele>
        <time>2022-05-08T11:34:32Z</time>
      </trkpt>
      <trkpt lat="45.57484" lon="4.45286">
        <ele>784.09</ele>
        <time>2022-05-08T11:35:11Z</time>
      </trkpt>
      <trkpt lat="45.5749" lon="4.45285">
        <ele>790.34</ele>
        <time>2022-05-08T11:35:48Z</time>
      </trkpt>
      <trkpt lat="45.57485" lon="4.45286">
        <ele>789.38</ele>
        <time>2022-05-08T11:36:15Z</time>
      </trkpt>
      <trkpt lat="45.57481" lon="4.45287">
        <ele>787.46</ele>
        <time>2022-05-08T11:36:54Z</time>
      </trkpt>
      <trkpt lat="45.5748" lon="4.45286">
        <ele>784.57</ele>
        <time>2022-05-08T11:37:32Z</time>
      </trkpt>
      <trkpt lat="45.57481" lon="4.45286">
        <ele>785.05</ele>
        <time>2022-05-08T11:37:58Z</time>
      </trkpt>
      <trkpt lat="45.5748" lon="4.45284">
        <ele>788.42</ele>
        <time>2022-05-08T11:38:26Z</time>
      </trkpt>
      <trkpt lat="45.5748" lon="4.45286">
        <ele>790.82</ele>
        <time>2022-05-08T11:38:57Z</time>
      </trkpt>
      <trkpt lat="45.5748" lon="4.45285">
        <ele>791.78</ele>
        <time>2022-05-08T11:39:19Z</time>
      </trkpt>
      <trkpt lat="45.57478" lon="4.45282">
        <ele>793.71</ele>
        <time>2022-05-08T11:39:43Z</time>
      </trkpt>
      <trkpt lat="45.57476" lon="4.45285">
        <ele>793.71</ele>
        <time>2022-05-08T11:40:03Z</time>
      </trkpt>
      <trkpt lat="45.57478" lon="4.45284">
        <ele>794.19</ele>
        <time>2022-05-08T11:40:28Z</time>
      </trkpt>
      <trkpt lat="45.57479" lon="4.4528">
        <ele>792.74</ele>
        <time>2022-05-08T11:40:58Z</time>
      </trkpt>
      <trkpt lat="45.57477" lon="4.45281">
        <ele>794.19</ele>
        <time>2022-05-08T11:41:30Z</time>
      </trkpt>
      <trkpt lat="45.57477" lon="4.45281">
        <ele>794.19</ele>
        <time>2022-05-08T11:42:01Z</time>
      </trkpt>
      <trkpt lat="45.57478" lon="4.45281">
        <ele>793.71</ele>
        <time>2022-05-08T11:42:26Z</time>
      </trkpt>
      <trkpt lat="45.57479" lon="4.45284">
        <ele>792.26</ele>
        <time>2022-05-08T11:43:00Z</time>
      </trkpt>
      <trkpt lat="45.57477" lon="4.45282">
        <ele>792.74</ele>
        <time>2022-05-08T11:43:21Z</time>
      </trkpt>
      <trkpt lat="45.57478" lon="4.45282">
        <ele>794.67</ele>
        <time>2022-05-08T11:43:51Z</time>
      </trkpt>
      <trkpt lat="45.5748" lon="4.45283">
        <ele>794.19</ele>
        <time>2022-05-08T11:44:20Z</time>
      </trkpt>
      <trkpt lat="45.57479" lon="4.45283">
        <ele>789.86</ele>
        <time>2022-05-08T11:44:46Z</time>
      </trkpt>
      <trkpt lat="45.57478" lon="4.45284">
        <ele>791.3</ele>
        <time>2022-05-08T11:45:16Z</time>
      </trkpt>
      <trkpt lat="45.57478" lon="4.45282">
        <ele>791.3</ele>
        <time>2022-05-08T11:45:40Z</time>
      </trkpt>
      <trkpt lat="45.57479" lon="4.45282">
        <ele>790.82</ele>
        <time>2022-05-08T11:46:00Z</time>
      </trkpt>
      <trkpt lat="45.57473" lon="4.45287">
        <ele>789.86</ele>
        <time>2022-05-08T11:46:13Z</time>
      </trkpt>
      <trkpt lat="45.57462" lon="4.45298">
        <ele>790.82</ele>
        <time>2022-05-08T11:46:28Z</time>
      </trkpt>
      <trkpt lat="45.57452" lon="4.45306">
        <ele>789.86</ele>
        <time>2022-05-08T11:46:38Z</time>
      </trkpt>
      <trkpt lat="45.57436" lon="4.45322">
        <ele>786.98</ele>
        <time>2022-05-08T11:46:54Z</time>
      </trkpt>
      <trkpt lat="45.5743" lon="4.45328">
        <ele>786.5</ele>
        <time>2022-05-08T11:47:01Z</time>
      </trkpt>
      <trkpt lat="45.57428" lon="4.4533">
        <ele>786.02</ele>
        <time>2022-05-08T11:47:03Z</time>
      </trkpt>
      <trkpt lat="45.57414" lon="4.45348">
        <ele>784.09</ele>
        <time>2022-05-08T11:47:18Z</time>
      </trkpt>
      <trkpt lat="45.57403" lon="4.45359">
        <ele>785.05</ele>
        <time>2022-05-08T11:47:31Z</time>
      </trkpt>
      <trkpt lat="45.57401" lon="4.4536">
        <ele>785.05</ele>
        <time>2022-05-08T11:47:48Z</time>
      </trkpt>
      <trkpt lat="45.57396" lon="4.45362">
        <ele>784.09</ele>
        <time>2022-05-08T11:48:06Z</time>
      </trkpt>
      <trkpt lat="45.57395" lon="4.45363">
        <ele>783.61</ele>
        <time>2022-05-08T11:48:20Z</time>
      </trkpt>
      <trkpt lat="45.57393" lon="4.45365">
        <ele>783.13</ele>
        <time>2022-05-08T11:48:40Z</time>
      </trkpt>
      <trkpt lat="45.57392" lon="4.45365">
        <ele>783.13</ele>
        <time>2022-05-08T11:49:03Z</time>
      </trkpt>
      <trkpt lat="45.57393" lon="4.45363">
        <ele>783.13</ele>
        <time>2022-05-08T11:49:32Z</time>
      </trkpt>
      <trkpt lat="45.57393" lon="4.45364">
        <ele>781.69</ele>
        <time>2022-05-08T11:49:58Z</time>
      </trkpt>
      <trkpt lat="45.57392" lon="4.45363">
        <ele>781.69</ele>
        <time>2022-05-08T11:50:19Z</time>
      </trkpt>
      <trkpt lat="45.5739" lon="4.45364">
        <ele>781.21</ele>
        <time>2022-05-08T11:50:40Z</time>
      </trkpt>
      <trkpt lat="45.57372" lon="4.45373">
        <ele>780.73</ele>
        <time>2022-05-08T11:50:54Z</time>
      </trkpt>
      <trkpt lat="45.57346" lon="4.45383">
        <ele>779.29</ele>
        <time>2022-05-08T11:51:11Z</time>
      </trkpt>
      <trkpt lat="45.57328" lon="4.45387">
        <ele>779.77</ele>
        <time>2022-05-08T11:51:25Z</time>
      </trkpt>
      <trkpt lat="45.57297" lon="4.45385">
        <ele>781.21</ele>
        <time>2022-05-08T11:51:45Z</time>
      </trkpt>
      <trkpt lat="45.57268" lon="4.45386">
        <ele>784.09</ele>
        <time>2022-05-08T11:52:05Z</time>
      </trkpt>
      <trkpt lat="45.57242" lon="4.45389">
        <ele>787.46</ele>
        <time>2022-05-08T11:52:23Z</time>
      </trkpt>
      <trkpt lat="45.57215" lon="4.45385">
        <ele>789.86</ele>
        <time>2022-05-08T11:52:40Z</time>
      </trkpt>
      <trkpt lat="45.57188" lon="4.45378">
        <ele>791.3</ele>
        <time>2022-05-08T11:53:00Z</time>
      </trkpt>
      <trkpt lat="45.57163" lon="4.4537">
        <ele>791.78</ele>
        <time>2022-05-08T11:53:18Z</time>
      </trkpt>
      <trkpt lat="45.57131" lon="4.45359">
        <ele>791.3</ele>
        <time>2022-05-08T11:53:37Z</time>
      </trkpt>
      <trkpt lat="45.571" lon="4.4535">
        <ele>790.34</ele>
        <time>2022-05-08T11:53:57Z</time>
      </trkpt>
      <trkpt lat="45.57074" lon="4.45341">
        <ele>790.34</ele>
        <time>2022-05-08T11:54:14Z</time>
      </trkpt>
      <trkpt lat="45.57051" lon="4.45332">
        <ele>789.86</ele>
        <time>2022-05-08T11:54:29Z</time>
      </trkpt>
      <trkpt lat="45.57022" lon="4.45325">
        <ele>790.34</ele>
        <time>2022-05-08T11:54:47Z</time>
      </trkpt>
      <trkpt lat="45.57005" lon="4.45321">
        <ele>791.3</ele>
        <time>2022-05-08T11:55:00Z</time>
      </trkpt>
      <trkpt lat="45.56972" lon="4.45317">
        <ele>792.26</ele>
        <time>2022-05-08T11:55:19Z</time>
      </trkpt>
      <trkpt lat="45.56945" lon="4.45314">
        <ele>792.26</ele>
        <time>2022-05-08T11:55:36Z</time>
      </trkpt>
      <trkpt lat="45.5692" lon="4.45311">
        <ele>795.63</ele>
        <time>2022-05-08T11:55:54Z</time>
      </trkpt>
      <trkpt lat="45.5689" lon="4.45307">
        <ele>800.44</ele>
        <time>2022-05-08T11:56:13Z</time>
      </trkpt>
      <trkpt lat="45.56861" lon="4.45304">
        <ele>807.64</ele>
        <time>2022-05-08T11:56:30Z</time>
      </trkpt>
      <trkpt lat="45.56831" lon="4.45292">
        <ele>813.41</ele>
        <time>2022-05-08T11:56:52Z</time>
      </trkpt>
      <trkpt lat="45.56801" lon="4.45296">
        <ele>818.7</ele>
        <time>2022-05-08T11:57:15Z</time>
      </trkpt>
      <trkpt lat="45.56776" lon="4.453">
        <ele>823.51</ele>
        <time>2022-05-08T11:57:33Z</time>
      </trkpt>
      <trkpt lat="45.56742" lon="4.45305">
        <ele>827.83</ele>
        <time>2022-05-08T11:57:56Z</time>
      </trkpt>
      <trkpt lat="45.5671" lon="4.45309">
        <ele>831.2</ele>
        <time>2022-05-08T11:58:18Z</time>
      </trkpt>
      <trkpt lat="45.56685" lon="4.45305">
        <ele>832.64</ele>
        <time>2022-05-08T11:58:37Z</time>
      </trkpt>
      <trkpt lat="45.5666" lon="4.4529">
        <ele>832.16</ele>
        <time>2022-05-08T11:58:55Z</time>
      </trkpt>
      <trkpt lat="45.56629" lon="4.45267">
        <ele>832.64</ele>
        <time>2022-05-08T11:59:16Z</time>
      </trkpt>
      <trkpt lat="45.56593" lon="4.45241">
        <ele>832.64</ele>
        <time>2022-05-08T11:59:42Z</time>
      </trkpt>
      <trkpt lat="45.56568" lon="4.45213">
        <ele>833.12</ele>
        <time>2022-05-08T12:00:02Z</time>
      </trkpt>
      <trkpt lat="45.5654" lon="4.4519">
        <ele>835.52</ele>
        <time>2022-05-08T12:00:20Z</time>
      </trkpt>
      <trkpt lat="45.56506" lon="4.45179">
        <ele>836.96</ele>
        <time>2022-05-08T12:00:39Z</time>
      </trkpt>
      <trkpt lat="45.56476" lon="4.45165">
        <ele>838.41</ele>
        <time>2022-05-08T12:00:57Z</time>
      </trkpt>
      <trkpt lat="45.56447" lon="4.45147">
        <ele>841.29</ele>
        <time>2022-05-08T12:01:14Z</time>
      </trkpt>
      <trkpt lat="45.56422" lon="4.4513">
        <ele>843.69</ele>
        <time>2022-05-08T12:01:31Z</time>
      </trkpt>
      <trkpt lat="45.56398" lon="4.45106">
        <ele>846.58</ele>
        <time>2022-05-08T12:01:48Z</time>
      </trkpt>
      <trkpt lat="45.56373" lon="4.45074">
        <ele>849.94</ele>
        <time>2022-05-08T12:02:06Z</time>
      </trkpt>
      <trkpt lat="45.56345" lon="4.45047">
        <ele>851.87</ele>
        <time>2022-05-08T12:02:25Z</time>
      </trkpt>
      <trkpt lat="45.56321" lon="4.4503">
        <ele>854.75</ele>
        <time>2022-05-08T12:02:42Z</time>
      </trkpt>
      <trkpt lat="45.56296" lon="4.45015">
        <ele>858.11</ele>
        <time>2022-05-08T12:03:00Z</time>
      </trkpt>
      <trkpt lat="45.56269" lon="4.44993">
        <ele>861.48</ele>
        <time>2022-05-08T12:03:20Z</time>
      </trkpt>
      <trkpt lat="45.56246" lon="4.4497">
        <ele>865.32</ele>
        <time>2022-05-08T12:03:40Z</time>
      </trkpt>
      <trkpt lat="45.56222" lon="4.44947">
        <ele>867.25</ele>
        <time>2022-05-08T12:03:59Z</time>
      </trkpt>
      <trkpt lat="45.56201" lon="4.44927">
        <ele>870.13</ele>
        <time>2022-05-08T12:04:18Z</time>
      </trkpt>
      <trkpt lat="45.5618" lon="4.44905">
        <ele>873.98</ele>
        <time>2022-05-08T12:04:37Z</time>
      </trkpt>
      <trkpt lat="45.56163" lon="4.44879">
        <ele>877.34</ele>
        <time>2022-05-08T12:04:52Z</time>
      </trkpt>
      <trkpt lat="45.56142" lon="4.44859">
        <ele>880.71</ele>
        <time>2022-05-08T12:05:11Z</time>
      </trkpt>
      <trkpt lat="45.56119" lon="4.44835">
        <ele>882.63</ele>
        <time>2022-05-08T12:05:31Z</time>
      </trkpt>
      <trkpt lat="45.56098" lon="4.44817">
        <ele>881.67</ele>
        <time>2022-05-08T12:05:48Z</time>
      </trkpt>
      <trkpt lat="45.56072" lon="4.448">
        <ele>879.74</ele>
        <time>2022-05-08T12:06:10Z</time>
      </trkpt>
      <trkpt lat="45.56046" lon="4.4479">
        <ele>878.3</ele>
        <time>2022-05-08T12:06:29Z</time>
      </trkpt>
      <trkpt lat="45.56018" lon="4.44783">
        <ele>875.42</ele>
        <time>2022-05-08T12:06:50Z</time>
      </trkpt>
      <trkpt lat="45.55995" lon="4.44778">
        <ele>873.01</ele>
        <time>2022-05-08T12:07:06Z</time>
      </trkpt>
      <trkpt lat="45.55966" lon="4.44773">
        <ele>870.61</ele>
        <time>2022-05-08T12:07:26Z</time>
      </trkpt>
      <trkpt lat="45.55938" lon="4.44775">
        <ele>866.77</ele>
        <time>2022-05-08T12:07:45Z</time>
      </trkpt>
      <trkpt lat="45.55912" lon="4.44778">
        <ele>863.88</ele>
        <time>2022-05-08T12:08:02Z</time>
      </trkpt>
      <trkpt lat="45.55885" lon="4.4477">
        <ele>859.56</ele>
        <time>2022-05-08T12:08:22Z</time>
      </trkpt>
      <trkpt lat="45.55863" lon="4.44758">
        <ele>856.67</ele>
        <time>2022-05-08T12:08:40Z</time>
      </trkpt>
      <trkpt lat="45.55835" lon="4.44743">
        <ele>856.19</ele>
        <time>2022-05-08T12:09:01Z</time>
      </trkpt>
      <trkpt lat="45.55814" lon="4.44728">
        <ele>855.71</ele>
        <time>2022-05-08T12:09:17Z</time>
      </trkpt>
      <trkpt lat="45.55786" lon="4.44703">
        <ele>854.75</ele>
        <time>2022-05-08T12:09:38Z</time>
      </trkpt>
      <trkpt lat="45.55759" lon="4.44679">
        <ele>854.27</ele>
        <time>2022-05-08T12:09:57Z</time>
      </trkpt>
      <trkpt lat="45.55734" lon="4.44651">
        <ele>853.79</ele>
        <time>2022-05-08T12:10:16Z</time>
      </trkpt>
      <trkpt lat="45.55713" lon="4.44624">
        <ele>854.75</ele>
        <time>2022-05-08T12:10:35Z</time>
      </trkpt>
      <trkpt lat="45.55687" lon="4.446">
        <ele>857.63</ele>
        <time>2022-05-08T12:10:54Z</time>
      </trkpt>
      <trkpt lat="45.55658" lon="4.44572">
        <ele>863.4</ele>
        <time>2022-05-08T12:11:15Z</time>
      </trkpt>
      <trkpt lat="45.55637" lon="4.44552">
        <ele>866.77</ele>
        <time>2022-05-08T12:11:32Z</time>
      </trkpt>
      <trkpt lat="45.55609" lon="4.44526">
        <ele>870.13</ele>
        <time>2022-05-08T12:11:51Z</time>
      </trkpt>
      <trkpt lat="45.55575" lon="4.4449">
        <ele>872.05</ele>
        <time>2022-05-08T12:12:08Z</time>
      </trkpt>
      <trkpt lat="45.55556" lon="4.4446">
        <ele>874.46</ele>
        <time>2022-05-08T12:12:25Z</time>
      </trkpt>
      <trkpt lat="45.55532" lon="4.44425">
        <ele>879.26</ele>
        <time>2022-05-08T12:12:45Z</time>
      </trkpt>
      <trkpt lat="45.55512" lon="4.44403">
        <ele>883.59</ele>
        <time>2022-05-08T12:12:59Z</time>
      </trkpt>
      <trkpt lat="45.55492" lon="4.44385">
        <ele>887.91</ele>
        <time>2022-05-08T12:13:15Z</time>
      </trkpt>
      <trkpt lat="45.55485" lon="4.44382">
        <ele>889.36</ele>
        <time>2022-05-08T12:13:20Z</time>
      </trkpt>
      <trkpt lat="45.55484" lon="4.44381">
        <ele>889.36</ele>
        <time>2022-05-08T12:13:21Z</time>
      </trkpt>
      <trkpt lat="45.55483" lon="4.44381">
        <ele>889.84</ele>
        <time>2022-05-08T12:13:22Z</time>
      </trkpt>
      <trkpt lat="45.55482" lon="4.4438">
        <ele>889.84</ele>
        <time>2022-05-08T12:13:23Z</time>
      </trkpt>
      <trkpt lat="45.55481" lon="4.4438">
        <ele>890.32</ele>
        <time>2022-05-08T12:13:24Z</time>
      </trkpt>
      <trkpt lat="45.5548" lon="4.44381">
        <ele>890.8</ele>
        <time>2022-05-08T12:13:25Z</time>
      </trkpt>
      <trkpt lat="45.55476" lon="4.44381">
        <ele>891.28</ele>
        <time>2022-05-08T12:13:41Z</time>
      </trkpt>
      <trkpt lat="45.55476" lon="4.44383">
        <ele>889.36</ele>
        <time>2022-05-08T12:14:10Z</time>
      </trkpt>
      <trkpt lat="45.55465" lon="4.4438">
        <ele>890.32</ele>
        <time>2022-05-08T12:14:33Z</time>
      </trkpt>
      <trkpt lat="45.55443" lon="4.44377">
        <ele>891.76</ele>
        <time>2022-05-08T12:14:50Z</time>
      </trkpt>
      <trkpt lat="45.55418" lon="4.44375">
        <ele>893.68</ele>
        <time>2022-05-08T12:15:09Z</time>
      </trkpt>
      <trkpt lat="45.5539" lon="4.4437">
        <ele>894.64</ele>
        <time>2022-05-08T12:15:28Z</time>
      </trkpt>
      <trkpt lat="45.55369" lon="4.44365">
        <ele>894.64</ele>
        <time>2022-05-08T12:15:45Z</time>
      </trkpt>
      <trkpt lat="45.55347" lon="4.44365">
        <ele>896.09</ele>
        <time>2022-05-08T12:16:01Z</time>
      </trkpt>
      <trkpt lat="45.55323" lon="4.44361">
        <ele>895.61</ele>
        <time>2022-05-08T12:16:18Z</time>
      </trkpt>
      <trkpt lat="45.55314" lon="4.44358">
        <ele>895.61</ele>
        <time>2022-05-08T12:16:25Z</time>
      </trkpt>
      <trkpt lat="45.55313" lon="4.44357">
        <ele>895.12</ele>
        <time>2022-05-08T12:16:26Z</time>
      </trkpt>
      <trkpt lat="45.55311" lon="4.44356">
        <ele>895.12</ele>
        <time>2022-05-08T12:16:27Z</time>
      </trkpt>
      <trkpt lat="45.55285" lon="4.44354">
        <ele>891.28</ele>
        <time>2022-05-08T12:16:45Z</time>
      </trkpt>
      <trkpt lat="45.55256" lon="4.44358">
        <ele>888.4</ele>
        <time>2022-05-08T12:17:01Z</time>
      </trkpt>
      <trkpt lat="45.55229" lon="4.44377">
        <ele>889.84</ele>
        <time>2022-05-08T12:17:17Z</time>
      </trkpt>
      <trkpt lat="45.55208" lon="4.444">
        <ele>890.8</ele>
        <time>2022-05-08T12:17:33Z</time>
      </trkpt>
      <trkpt lat="45.55191" lon="4.44419">
        <ele>890.8</ele>
        <time>2022-05-08T12:17:46Z</time>
      </trkpt>
      <trkpt lat="45.55171" lon="4.44447">
        <ele>890.8</ele>
        <time>2022-05-08T12:18:04Z</time>
      </trkpt>
      <trkpt lat="45.55154" lon="4.44477">
        <ele>889.84</ele>
        <time>2022-05-08T12:18:22Z</time>
      </trkpt>
      <trkpt lat="45.5513" lon="4.44499">
        <ele>887.91</ele>
        <time>2022-05-08T12:18:40Z</time>
      </trkpt>
      <trkpt lat="45.55107" lon="4.44513">
        <ele>885.99</ele>
        <time>2022-05-08T12:18:58Z</time>
      </trkpt>
      <trkpt lat="45.55081" lon="4.44525">
        <ele>882.63</ele>
        <time>2022-05-08T12:19:18Z</time>
      </trkpt>
      <trkpt lat="45.55049" lon="4.44531">
        <ele>879.26</ele>
        <time>2022-05-08T12:19:41Z</time>
      </trkpt>
      <trkpt lat="45.5502" lon="4.44531">
        <ele>877.34</ele>
        <time>2022-05-08T12:20:00Z</time>
      </trkpt>
      <trkpt lat="45.54996" lon="4.44523">
        <ele>876.38</ele>
        <time>2022-05-08T12:20:17Z</time>
      </trkpt>
      <trkpt lat="45.54975" lon="4.44499">
        <ele>876.86</ele>
        <time>2022-05-08T12:20:33Z</time>
      </trkpt>
      <trkpt lat="45.54952" lon="4.44465">
        <ele>876.38</ele>
        <time>2022-05-08T12:20:52Z</time>
      </trkpt>
      <trkpt lat="45.54935" lon="4.44441">
        <ele>875.42</ele>
        <time>2022-05-08T12:21:08Z</time>
      </trkpt>
      <trkpt lat="45.54914" lon="4.44411">
        <ele>871.57</ele>
        <time>2022-05-08T12:21:30Z</time>
      </trkpt>
      <trkpt lat="45.54896" lon="4.44378">
        <ele>869.17</ele>
        <time>2022-05-08T12:21:51Z</time>
      </trkpt>
      <trkpt lat="45.5488" lon="4.44351">
        <ele>866.77</ele>
        <time>2022-05-08T12:22:09Z</time>
      </trkpt>
      <trkpt lat="45.54866" lon="4.44321">
        <ele>862.92</ele>
        <time>2022-05-08T12:22:27Z</time>
      </trkpt>
      <trkpt lat="45.54884" lon="4.44296">
        <ele>861.96</ele>
        <time>2022-05-08T12:22:43Z</time>
      </trkpt>
      <trkpt lat="45.54904" lon="4.4427">
        <ele>861.48</ele>
        <time>2022-05-08T12:22:59Z</time>
      </trkpt>
      <trkpt lat="45.5492" lon="4.44243">
        <ele>861.96</ele>
        <time>2022-05-08T12:23:15Z</time>
      </trkpt>
      <trkpt lat="45.5494" lon="4.44207">
        <ele>861.48</ele>
        <time>2022-05-08T12:23:36Z</time>
      </trkpt>
      <trkpt lat="45.5494" lon="4.44167">
        <ele>863.88</ele>
        <time>2022-05-08T12:23:54Z</time>
      </trkpt>
      <trkpt lat="45.54931" lon="4.44124">
        <ele>863.4</ele>
        <time>2022-05-08T12:24:13Z</time>
      </trkpt>
      <trkpt lat="45.54918" lon="4.44076">
        <ele>862.92</ele>
        <time>2022-05-08T12:24:35Z</time>
      </trkpt>
      <trkpt lat="45.54904" lon="4.44038">
        <ele>861</ele>
        <time>2022-05-08T12:24:53Z</time>
      </trkpt>
      <trkpt lat="45.54886" lon="4.44001">
        <ele>861.96</ele>
        <time>2022-05-08T12:25:10Z</time>
      </trkpt>
      <trkpt lat="45.54866" lon="4.43963">
        <ele>862.92</ele>
        <time>2022-05-08T12:25:28Z</time>
      </trkpt>
      <trkpt lat="45.54846" lon="4.43933">
        <ele>864.84</ele>
        <time>2022-05-08T12:25:43Z</time>
      </trkpt>
      <trkpt lat="45.54842" lon="4.43921">
        <ele>866.77</ele>
        <time>2022-05-08T12:25:50Z</time>
      </trkpt>
      <trkpt lat="45.54851" lon="4.43916">
        <ele>868.21</ele>
        <time>2022-05-08T12:25:57Z</time>
      </trkpt>
      <trkpt lat="45.54873" lon="4.43925">
        <ele>873.01</ele>
        <time>2022-05-08T12:26:11Z</time>
      </trkpt>
      <trkpt lat="45.54899" lon="4.43944">
        <ele>874.46</ele>
        <time>2022-05-08T12:26:26Z</time>
      </trkpt>
      <trkpt lat="45.54926" lon="4.4397">
        <ele>875.42</ele>
        <time>2022-05-08T12:26:44Z</time>
      </trkpt>
      <trkpt lat="45.54944" lon="4.43992">
        <ele>877.34</ele>
        <time>2022-05-08T12:27:01Z</time>
      </trkpt>
      <trkpt lat="45.54965" lon="4.44024">
        <ele>878.78</ele>
        <time>2022-05-08T12:27:21Z</time>
      </trkpt>
      <trkpt lat="45.54985" lon="4.44057">
        <ele>881.67</ele>
        <time>2022-05-08T12:27:42Z</time>
      </trkpt>
      <trkpt lat="45.55008" lon="4.44091">
        <ele>884.55</ele>
        <time>2022-05-08T12:28:03Z</time>
      </trkpt>
      <trkpt lat="45.55029" lon="4.4412">
        <ele>887.91</ele>
        <time>2022-05-08T12:28:24Z</time>
      </trkpt>
      <trkpt lat="45.5505" lon="4.44149">
        <ele>888.88</ele>
        <time>2022-05-08T12:28:42Z</time>
      </trkpt>
      <trkpt lat="45.5507" lon="4.4417">
        <ele>889.84</ele>
        <time>2022-05-08T12:28:58Z</time>
      </trkpt>
      <trkpt lat="45.55092" lon="4.44189">
        <ele>891.76</ele>
        <time>2022-05-08T12:29:15Z</time>
      </trkpt>
      <trkpt lat="45.55115" lon="4.44213">
        <ele>894.16</ele>
        <time>2022-05-08T12:29:34Z</time>
      </trkpt>
      <trkpt lat="45.55142" lon="4.44237">
        <ele>897.05</ele>
        <time>2022-05-08T12:29:56Z</time>
      </trkpt>
      <trkpt lat="45.5517" lon="4.44255">
        <ele>898.97</ele>
        <time>2022-05-08T12:30:18Z</time>
      </trkpt>
      <trkpt lat="45.55176" lon="4.4426">
        <ele>898.97</ele>
        <time>2022-05-08T12:30:32Z</time>
      </trkpt>
      <trkpt lat="45.552" lon="4.44275">
        <ele>899.45</ele>
        <time>2022-05-08T12:30:51Z</time>
      </trkpt>
      <trkpt lat="45.55221" lon="4.44285">
        <ele>899.45</ele>
        <time>2022-05-08T12:31:06Z</time>
      </trkpt>
      <trkpt lat="45.55246" lon="4.44296">
        <ele>898.01</ele>
        <time>2022-05-08T12:31:23Z</time>
      </trkpt>
      <trkpt lat="45.55274" lon="4.44307">
        <ele>897.53</ele>
        <time>2022-05-08T12:31:41Z</time>
      </trkpt>
      <trkpt lat="45.55302" lon="4.44318">
        <ele>897.05</ele>
        <time>2022-05-08T12:31:59Z</time>
      </trkpt>
      <trkpt lat="45.55326" lon="4.44328">
        <ele>896.09</ele>
        <time>2022-05-08T12:32:15Z</time>
      </trkpt>
      <trkpt lat="45.55356" lon="4.44341">
        <ele>895.61</ele>
        <time>2022-05-08T12:32:36Z</time>
      </trkpt>
      <trkpt lat="45.55376" lon="4.44358">
        <ele>893.2</ele>
        <time>2022-05-08T12:32:52Z</time>
      </trkpt>
      <trkpt lat="45.5538" lon="4.44362">
        <ele>893.2</ele>
        <time>2022-05-08T12:32:55Z</time>
      </trkpt>
      <trkpt lat="45.5539" lon="4.44359">
        <ele>893.68</ele>
        <time>2022-05-08T12:33:01Z</time>
      </trkpt>
      <trkpt lat="45.55419" lon="4.44348">
        <ele>893.68</ele>
        <time>2022-05-08T12:33:21Z</time>
      </trkpt>
      <trkpt lat="45.55446" lon="4.44326">
        <ele>892.72</ele>
        <time>2022-05-08T12:33:39Z</time>
      </trkpt>
      <trkpt lat="45.55467" lon="4.44303">
        <ele>891.76</ele>
        <time>2022-05-08T12:33:56Z</time>
      </trkpt>
      <trkpt lat="45.55484" lon="4.44274">
        <ele>886.47</ele>
        <time>2022-05-08T12:34:16Z</time>
      </trkpt>
      <trkpt lat="45.55503" lon="4.4423">
        <ele>878.78</ele>
        <time>2022-05-08T12:34:39Z</time>
      </trkpt>
      <trkpt lat="45.55516" lon="4.44198">
        <ele>875.42</ele>
        <time>2022-05-08T12:34:57Z</time>
      </trkpt>
      <trkpt lat="45.55528" lon="4.44167">
        <ele>872.53</ele>
        <time>2022-05-08T12:35:15Z</time>
      </trkpt>
      <trkpt lat="45.55538" lon="4.44141">
        <ele>870.13</ele>
        <time>2022-05-08T12:35:32Z</time>
      </trkpt>
      <trkpt lat="45.55552" lon="4.44109">
        <ele>867.73</ele>
        <time>2022-05-08T12:35:50Z</time>
      </trkpt>
      <trkpt lat="45.5557" lon="4.44069">
        <ele>863.4</ele>
        <time>2022-05-08T12:36:13Z</time>
      </trkpt>
      <trkpt lat="45.55581" lon="4.44031">
        <ele>859.56</ele>
        <time>2022-05-08T12:36:32Z</time>
      </trkpt>
      <trkpt lat="45.5559" lon="4.44">
        <ele>857.63</ele>
        <time>2022-05-08T12:36:47Z</time>
      </trkpt>
      <trkpt lat="45.55591" lon="4.43997">
        <ele>857.63</ele>
        <time>2022-05-08T12:36:49Z</time>
      </trkpt>
      <trkpt lat="45.55597" lon="4.43999">
        <ele>856.67</ele>
        <time>2022-05-08T12:36:55Z</time>
      </trkpt>
      <trkpt lat="45.55604" lon="4.44038">
        <ele>858.59</ele>
        <time>2022-05-08T12:37:14Z</time>
      </trkpt>
      <trkpt lat="45.55606" lon="4.44081">
        <ele>861.48</ele>
        <time>2022-05-08T12:37:33Z</time>
      </trkpt>
      <trkpt lat="45.5561" lon="4.44125">
        <ele>864.36</ele>
        <time>2022-05-08T12:37:55Z</time>
      </trkpt>
      <trkpt lat="45.55611" lon="4.44128">
        <ele>864.36</ele>
        <time>2022-05-08T12:37:57Z</time>
      </trkpt>
      <trkpt lat="45.55624" lon="4.44133">
        <ele>864.36</ele>
        <time>2022-05-08T12:38:05Z</time>
      </trkpt>
      <trkpt lat="45.5565" lon="4.44137">
        <ele>863.4</ele>
        <time>2022-05-08T12:38:22Z</time>
      </trkpt>
      <trkpt lat="45.55678" lon="4.44141">
        <ele>862.44</ele>
        <time>2022-05-08T12:38:39Z</time>
      </trkpt>
      <trkpt lat="45.55701" lon="4.4414">
        <ele>862.44</ele>
        <time>2022-05-08T12:38:56Z</time>
      </trkpt>
      <trkpt lat="45.55706" lon="4.44136">
        <ele>862.44</ele>
        <time>2022-05-08T12:39:01Z</time>
      </trkpt>
      <trkpt lat="45.55707" lon="4.44135">
        <ele>862.44</ele>
        <time>2022-05-08T12:39:02Z</time>
      </trkpt>
      <trkpt lat="45.55708" lon="4.44133">
        <ele>861.96</ele>
        <time>2022-05-08T12:39:03Z</time>
      </trkpt>
      <trkpt lat="45.55709" lon="4.44131">
        <ele>861.96</ele>
        <time>2022-05-08T12:39:04Z</time>
      </trkpt>
      <trkpt lat="45.55712" lon="4.44118">
        <ele>859.56</ele>
        <time>2022-05-08T12:39:12Z</time>
      </trkpt>
      <trkpt lat="45.55712" lon="4.44116">
        <ele>859.08</ele>
        <time>2022-05-08T12:39:13Z</time>
      </trkpt>
      <trkpt lat="45.55712" lon="4.44114">
        <ele>858.59</ele>
        <time>2022-05-08T12:39:14Z</time>
      </trkpt>
      <trkpt lat="45.55713" lon="4.44112">
        <ele>858.59</ele>
        <time>2022-05-08T12:39:15Z</time>
      </trkpt>
      <trkpt lat="45.55713" lon="4.4411">
        <ele>858.11</ele>
        <time>2022-05-08T12:39:16Z</time>
      </trkpt>
      <trkpt lat="45.55714" lon="4.44108">
        <ele>858.11</ele>
        <time>2022-05-08T12:39:17Z</time>
      </trkpt>
      <trkpt lat="45.55714" lon="4.44106">
        <ele>857.63</ele>
        <time>2022-05-08T12:39:18Z</time>
      </trkpt>
      <trkpt lat="45.55715" lon="4.44105">
        <ele>857.63</ele>
        <time>2022-05-08T12:39:19Z</time>
      </trkpt>
      <trkpt lat="45.55716" lon="4.44103">
        <ele>857.63</ele>
        <time>2022-05-08T12:39:20Z</time>
      </trkpt>
      <trkpt lat="45.55717" lon="4.44101">
        <ele>857.63</ele>
        <time>2022-05-08T12:39:21Z</time>
      </trkpt>
      <trkpt lat="45.55718" lon="4.44099">
        <ele>857.63</ele>
        <time>2022-05-08T12:39:22Z</time>
      </trkpt>
      <trkpt lat="45.55728" lon="4.44072">
        <ele>855.71</ele>
        <time>2022-05-08T12:39:37Z</time>
      </trkpt>
      <trkpt lat="45.55734" lon="4.44055">
        <ele>854.75</ele>
        <time>2022-05-08T12:39:46Z</time>
      </trkpt>
      <trkpt lat="45.55735" lon="4.44053">
        <ele>854.75</ele>
        <time>2022-05-08T12:39:47Z</time>
      </trkpt>
      <trkpt lat="45.55746" lon="4.44025">
        <ele>853.31</ele>
        <time>2022-05-08T12:40:02Z</time>
      </trkpt>
      <trkpt lat="45.55749" lon="4.44019">
        <ele>852.83</ele>
        <time>2022-05-08T12:40:14Z</time>
      </trkpt>
      <trkpt lat="45.55752" lon="4.44012">
        <ele>852.35</ele>
        <time>2022-05-08T12:40:30Z</time>
      </trkpt>
      <trkpt lat="45.55763" lon="4.43987">
        <ele>850.42</ele>
        <time>2022-05-08T12:40:45Z</time>
      </trkpt>
      <trkpt lat="45.55763" lon="4.43985">
        <ele>849.94</ele>
        <time>2022-05-08T12:40:46Z</time>
      </trkpt>
      <trkpt lat="45.55763" lon="4.43983">
        <ele>849.94</ele>
        <time>2022-05-08T12:40:47Z</time>
      </trkpt>
      <trkpt lat="45.55764" lon="4.4398">
        <ele>849.46</ele>
        <time>2022-05-08T12:40:48Z</time>
      </trkpt>
      <trkpt lat="45.55764" lon="4.43979">
        <ele>849.46</ele>
        <time>2022-05-08T12:40:49Z</time>
      </trkpt>
      <trkpt lat="45.55764" lon="4.43977">
        <ele>849.46</ele>
        <time>2022-05-08T12:40:50Z</time>
      </trkpt>
      <trkpt lat="45.55765" lon="4.43975">
        <ele>849.46</ele>
        <time>2022-05-08T12:40:51Z</time>
      </trkpt>
      <trkpt lat="45.55765" lon="4.43973">
        <ele>848.98</ele>
        <time>2022-05-08T12:40:52Z</time>
      </trkpt>
      <trkpt lat="45.55776" lon="4.43949">
        <ele>845.14</ele>
        <time>2022-05-08T12:41:07Z</time>
      </trkpt>
      <trkpt lat="45.55788" lon="4.43919">
        <ele>840.33</ele>
        <time>2022-05-08T12:41:24Z</time>
      </trkpt>
      <trkpt lat="45.55789" lon="4.43917">
        <ele>839.85</ele>
        <time>2022-05-08T12:41:25Z</time>
      </trkpt>
      <trkpt lat="45.5579" lon="4.43915">
        <ele>839.37</ele>
        <time>2022-05-08T12:41:26Z</time>
      </trkpt>
      <trkpt lat="45.55791" lon="4.43913">
        <ele>838.89</ele>
        <time>2022-05-08T12:41:27Z</time>
      </trkpt>
      <trkpt lat="45.55791" lon="4.43912">
        <ele>838.41</ele>
        <time>2022-05-08T12:41:28Z</time>
      </trkpt>
      <trkpt lat="45.55792" lon="4.4391">
        <ele>837.93</ele>
        <time>2022-05-08T12:41:29Z</time>
      </trkpt>
      <trkpt lat="45.55794" lon="4.43903">
        <ele>836.48</ele>
        <time>2022-05-08T12:41:33Z</time>
      </trkpt>
      <trkpt lat="45.55794" lon="4.43901">
        <ele>836</ele>
        <time>2022-05-08T12:41:34Z</time>
      </trkpt>
      <trkpt lat="45.558" lon="4.43872">
        <ele>831.68</ele>
        <time>2022-05-08T12:41:50Z</time>
      </trkpt>
      <trkpt lat="45.55803" lon="4.43868">
        <ele>830.24</ele>
        <time>2022-05-08T12:41:53Z</time>
      </trkpt>
      <trkpt lat="45.5582" lon="4.43852">
        <ele>824.95</ele>
        <time>2022-05-08T12:42:09Z</time>
      </trkpt>
      <trkpt lat="45.55834" lon="4.43834">
        <ele>821.1</ele>
        <time>2022-05-08T12:42:26Z</time>
      </trkpt>
      <trkpt lat="45.55836" lon="4.43833">
        <ele>820.14</ele>
        <time>2022-05-08T12:42:28Z</time>
      </trkpt>
      <trkpt lat="45.55837" lon="4.43832">
        <ele>820.14</ele>
        <time>2022-05-08T12:42:29Z</time>
      </trkpt>
      <trkpt lat="45.55838" lon="4.43832">
        <ele>819.66</ele>
        <time>2022-05-08T12:42:30Z</time>
      </trkpt>
      <trkpt lat="45.55839" lon="4.43831">
        <ele>819.18</ele>
        <time>2022-05-08T12:42:31Z</time>
      </trkpt>
      <trkpt lat="45.55854" lon="4.43807">
        <ele>816.78</ele>
        <time>2022-05-08T12:42:49Z</time>
      </trkpt>
      <trkpt lat="45.55868" lon="4.43782">
        <ele>813.89</ele>
        <time>2022-05-08T12:43:08Z</time>
      </trkpt>
      <trkpt lat="45.55869" lon="4.43779">
        <ele>813.41</ele>
        <time>2022-05-08T12:43:10Z</time>
      </trkpt>
      <trkpt lat="45.5587" lon="4.43778">
        <ele>812.93</ele>
        <time>2022-05-08T12:43:11Z</time>
      </trkpt>
      <trkpt lat="45.55871" lon="4.43776">
        <ele>812.93</ele>
        <time>2022-05-08T12:43:12Z</time>
      </trkpt>
      <trkpt lat="45.55872" lon="4.43774">
        <ele>812.93</ele>
        <time>2022-05-08T12:43:13Z</time>
      </trkpt>
      <trkpt lat="45.55873" lon="4.43773">
        <ele>812.45</ele>
        <time>2022-05-08T12:43:14Z</time>
      </trkpt>
      <trkpt lat="45.5588" lon="4.43764">
        <ele>811.49</ele>
        <time>2022-05-08T12:43:23Z</time>
      </trkpt>
      <trkpt lat="45.55881" lon="4.43763">
        <ele>811.49</ele>
        <time>2022-05-08T12:43:24Z</time>
      </trkpt>
      <trkpt lat="45.55882" lon="4.43761">
        <ele>811.01</ele>
        <time>2022-05-08T12:43:25Z</time>
      </trkpt>
      <trkpt lat="45.55883" lon="4.4376">
        <ele>811.01</ele>
        <time>2022-05-08T12:43:26Z</time>
      </trkpt>
      <trkpt lat="45.55884" lon="4.43759">
        <ele>811.01</ele>
        <time>2022-05-08T12:43:27Z</time>
      </trkpt>
      <trkpt lat="45.55898" lon="4.43745">
        <ele>807.16</ele>
        <time>2022-05-08T12:43:42Z</time>
      </trkpt>
      <trkpt lat="45.55916" lon="4.43725">
        <ele>802.36</ele>
        <time>2022-05-08T12:43:58Z</time>
      </trkpt>
      <trkpt lat="45.55917" lon="4.43688">
        <ele>800.92</ele>
        <time>2022-05-08T12:44:11Z</time>
      </trkpt>
      <trkpt lat="45.5591" lon="4.43645">
        <ele>801.88</ele>
        <time>2022-05-08T12:44:25Z</time>
      </trkpt>
      <trkpt lat="45.55916" lon="4.43613">
        <ele>801.4</ele>
        <time>2022-05-08T12:44:40Z</time>
      </trkpt>
      <trkpt lat="45.55918" lon="4.43605">
        <ele>801.4</ele>
        <time>2022-05-08T12:44:44Z</time>
      </trkpt>
      <trkpt lat="45.55919" lon="4.43603">
        <ele>801.4</ele>
        <time>2022-05-08T12:44:45Z</time>
      </trkpt>
      <trkpt lat="45.55932" lon="4.43565">
        <ele>801.4</ele>
        <time>2022-05-08T12:45:03Z</time>
      </trkpt>
      <trkpt lat="45.55948" lon="4.4353">
        <ele>801.88</ele>
        <time>2022-05-08T12:45:20Z</time>
      </trkpt>
      <trkpt lat="45.55957" lon="4.43503">
        <ele>801.4</ele>
        <time>2022-05-08T12:45:35Z</time>
      </trkpt>
      <trkpt lat="45.55958" lon="4.43502">
        <ele>801.4</ele>
        <time>2022-05-08T12:45:36Z</time>
      </trkpt>
      <trkpt lat="45.55972" lon="4.4347">
        <ele>800.92</ele>
        <time>2022-05-08T12:45:53Z</time>
      </trkpt>
      <trkpt lat="45.55984" lon="4.43434">
        <ele>798.03</ele>
        <time>2022-05-08T12:46:12Z</time>
      </trkpt>
      <trkpt lat="45.55991" lon="4.43407">
        <ele>795.63</ele>
        <time>2022-05-08T12:46:25Z</time>
      </trkpt>
      <trkpt lat="45.55993" lon="4.434">
        <ele>794.67</ele>
        <time>2022-05-08T12:46:30Z</time>
      </trkpt>
      <trkpt lat="45.55995" lon="4.43395">
        <ele>793.71</ele>
        <time>2022-05-08T12:46:34Z</time>
      </trkpt>
      <trkpt lat="45.55995" lon="4.43394">
        <ele>793.22</ele>
        <time>2022-05-08T12:46:35Z</time>
      </trkpt>
      <trkpt lat="45.55994" lon="4.43367">
        <ele>790.82</ele>
        <time>2022-05-08T12:46:51Z</time>
      </trkpt>
      <trkpt lat="45.5599" lon="4.4334">
        <ele>786.5</ele>
        <time>2022-05-08T12:47:05Z</time>
      </trkpt>
      <trkpt lat="45.5599" lon="4.43336">
        <ele>786.02</ele>
        <time>2022-05-08T12:47:07Z</time>
      </trkpt>
      <trkpt lat="45.55989" lon="4.43334">
        <ele>785.53</ele>
        <time>2022-05-08T12:47:08Z</time>
      </trkpt>
      <trkpt lat="45.55989" lon="4.43332">
        <ele>785.05</ele>
        <time>2022-05-08T12:47:09Z</time>
      </trkpt>
      <trkpt lat="45.55984" lon="4.43298">
        <ele>781.21</ele>
        <time>2022-05-08T12:47:24Z</time>
      </trkpt>
      <trkpt lat="45.55975" lon="4.43267">
        <ele>775.92</ele>
        <time>2022-05-08T12:47:40Z</time>
      </trkpt>
      <trkpt lat="45.55973" lon="4.43259">
        <ele>773.04</ele>
        <time>2022-05-08T12:47:45Z</time>
      </trkpt>
      <trkpt lat="45.55966" lon="4.43246">
        <ele>769.67</ele>
        <time>2022-05-08T12:47:54Z</time>
      </trkpt>
      <trkpt lat="45.55955" lon="4.43222">
        <ele>770.15</ele>
        <time>2022-05-08T12:48:08Z</time>
      </trkpt>
      <trkpt lat="45.55955" lon="4.43219">
        <ele>770.15</ele>
        <time>2022-05-08T12:48:09Z</time>
      </trkpt>
      <trkpt lat="45.55961" lon="4.43185">
        <ele>769.19</ele>
        <time>2022-05-08T12:48:21Z</time>
      </trkpt>
      <trkpt lat="45.55965" lon="4.43167">
        <ele>769.67</ele>
        <time>2022-05-08T12:48:29Z</time>
      </trkpt>
      <trkpt lat="45.55966" lon="4.43165">
        <ele>769.67</ele>
        <time>2022-05-08T12:48:30Z</time>
      </trkpt>
      <trkpt lat="45.55966" lon="4.43163">
        <ele>769.67</ele>
        <time>2022-05-08T12:48:31Z</time>
      </trkpt>
      <trkpt lat="45.55966" lon="4.43161">
        <ele>769.19</ele>
        <time>2022-05-08T12:48:32Z</time>
      </trkpt>
      <trkpt lat="45.55967" lon="4.4316">
        <ele>769.67</ele>
        <time>2022-05-08T12:48:33Z</time>
      </trkpt>
      <trkpt lat="45.55966" lon="4.43158">
        <ele>769.19</ele>
        <time>2022-05-08T12:48:34Z</time>
      </trkpt>
      <trkpt lat="45.55966" lon="4.43156">
        <ele>769.19</ele>
        <time>2022-05-08T12:48:35Z</time>
      </trkpt>
      <trkpt lat="45.55966" lon="4.43154">
        <ele>768.71</ele>
        <time>2022-05-08T12:48:36Z</time>
      </trkpt>
      <trkpt lat="45.55965" lon="4.43152">
        <ele>768.71</ele>
        <time>2022-05-08T12:48:37Z</time>
      </trkpt>
      <trkpt lat="45.55965" lon="4.4315">
        <ele>768.71</ele>
        <time>2022-05-08T12:48:38Z</time>
      </trkpt>
      <trkpt lat="45.55965" lon="4.43148">
        <ele>768.23</ele>
        <time>2022-05-08T12:48:39Z</time>
      </trkpt>
      <trkpt lat="45.55965" lon="4.43146">
        <ele>767.75</ele>
        <time>2022-05-08T12:48:40Z</time>
      </trkpt>
      <trkpt lat="45.55965" lon="4.43144">
        <ele>767.75</ele>
        <time>2022-05-08T12:48:41Z</time>
      </trkpt>
      <trkpt lat="45.55965" lon="4.43142">
        <ele>767.27</ele>
        <time>2022-05-08T12:48:42Z</time>
      </trkpt>
      <trkpt lat="45.55967" lon="4.43125">
        <ele>765.83</ele>
        <time>2022-05-08T12:48:50Z</time>
      </trkpt>
      <trkpt lat="45.55968" lon="4.43124">
        <ele>765.35</ele>
        <time>2022-05-08T12:48:51Z</time>
      </trkpt>
      <trkpt lat="45.55969" lon="4.43123">
        <ele>764.87</ele>
        <time>2022-05-08T12:48:52Z</time>
      </trkpt>
      <trkpt lat="45.55971" lon="4.43121">
        <ele>764.39</ele>
        <time>2022-05-08T12:48:53Z</time>
      </trkpt>
      <trkpt lat="45.55972" lon="4.4312">
        <ele>764.39</ele>
        <time>2022-05-08T12:48:54Z</time>
      </trkpt>
      <trkpt lat="45.55973" lon="4.43119">
        <ele>763.9</ele>
        <time>2022-05-08T12:48:55Z</time>
      </trkpt>
      <trkpt lat="45.55974" lon="4.43118">
        <ele>763.42</ele>
        <time>2022-05-08T12:48:56Z</time>
      </trkpt>
      <trkpt lat="45.55974" lon="4.43116">
        <ele>762.94</ele>
        <time>2022-05-08T12:48:57Z</time>
      </trkpt>
      <trkpt lat="45.55975" lon="4.43116">
        <ele>762.46</ele>
        <time>2022-05-08T12:48:58Z</time>
      </trkpt>
      <trkpt lat="45.55976" lon="4.43114">
        <ele>761.98</ele>
        <time>2022-05-08T12:49:00Z</time>
      </trkpt>
      <trkpt lat="45.55994" lon="4.43097">
        <ele>761.5</ele>
        <time>2022-05-08T12:49:15Z</time>
      </trkpt>
      <trkpt lat="45.56015" lon="4.43081">
        <ele>761.5</ele>
        <time>2022-05-08T12:49:28Z</time>
      </trkpt>
      <trkpt lat="45.56023" lon="4.43066">
        <ele>763.42</ele>
        <time>2022-05-08T12:49:36Z</time>
      </trkpt>
      <trkpt lat="45.56023" lon="4.43063">
        <ele>763.42</ele>
        <time>2022-05-08T12:49:37Z</time>
      </trkpt>
      <trkpt lat="45.56024" lon="4.43062">
        <ele>763.9</ele>
        <time>2022-05-08T12:49:38Z</time>
      </trkpt>
      <trkpt lat="45.56024" lon="4.4306">
        <ele>763.9</ele>
        <time>2022-05-08T12:49:39Z</time>
      </trkpt>
      <trkpt lat="45.56025" lon="4.43058">
        <ele>764.39</ele>
        <time>2022-05-08T12:49:40Z</time>
      </trkpt>
      <trkpt lat="45.56035" lon="4.43023">
        <ele>767.27</ele>
        <time>2022-05-08T12:49:57Z</time>
      </trkpt>
      <trkpt lat="45.56043" lon="4.42988">
        <ele>768.23</ele>
        <time>2022-05-08T12:50:13Z</time>
      </trkpt>
      <trkpt lat="45.56059" lon="4.42954">
        <ele>770.15</ele>
        <time>2022-05-08T12:50:32Z</time>
      </trkpt>
      <trkpt lat="45.56062" lon="4.4295">
        <ele>770.63</ele>
        <time>2022-05-08T12:50:35Z</time>
      </trkpt>
      <trkpt lat="45.56084" lon="4.42923">
        <ele>772.56</ele>
        <time>2022-05-08T12:50:54Z</time>
      </trkpt>
      <trkpt lat="45.56109" lon="4.42895">
        <ele>774.96</ele>
        <time>2022-05-08T12:51:15Z</time>
      </trkpt>
      <trkpt lat="45.56135" lon="4.42888">
        <ele>776.4</ele>
        <time>2022-05-08T12:51:33Z</time>
      </trkpt>
      <trkpt lat="45.5616" lon="4.4289">
        <ele>779.29</ele>
        <time>2022-05-08T12:51:54Z</time>
      </trkpt>
      <trkpt lat="45.56164" lon="4.4289">
        <ele>779.29</ele>
        <time>2022-05-08T12:52:16Z</time>
      </trkpt>
      <trkpt lat="45.56165" lon="4.4289">
        <ele>779.29</ele>
        <time>2022-05-08T12:52:41Z</time>
      </trkpt>
      <trkpt lat="45.56186" lon="4.42889">
        <ele>778.81</ele>
        <time>2022-05-08T12:53:00Z</time>
      </trkpt>
      <trkpt lat="45.56217" lon="4.42887">
        <ele>778.81</ele>
        <time>2022-05-08T12:53:20Z</time>
      </trkpt>
      <trkpt lat="45.56247" lon="4.42882">
        <ele>780.73</ele>
        <time>2022-05-08T12:53:40Z</time>
      </trkpt>
      <trkpt lat="45.56278" lon="4.42875">
        <ele>783.13</ele>
        <time>2022-05-08T12:54:01Z</time>
      </trkpt>
      <trkpt lat="45.56301" lon="4.42869">
        <ele>780.73</ele>
        <time>2022-05-08T12:54:17Z</time>
      </trkpt>
      <trkpt lat="45.56335" lon="4.42861">
        <ele>778.81</ele>
        <time>2022-05-08T12:54:39Z</time>
      </trkpt>
      <trkpt lat="45.56364" lon="4.42857">
        <ele>778.32</ele>
        <time>2022-05-08T12:54:58Z</time>
      </trkpt>
      <trkpt lat="45.56383" lon="4.42849">
        <ele>777.84</ele>
        <time>2022-05-08T12:55:11Z</time>
      </trkpt>
      <trkpt lat="45.56384" lon="4.42847">
        <ele>777.84</ele>
        <time>2022-05-08T12:55:12Z</time>
      </trkpt>
      <trkpt lat="45.56383" lon="4.42845">
        <ele>777.84</ele>
        <time>2022-05-08T12:55:13Z</time>
      </trkpt>
      <trkpt lat="45.56383" lon="4.42842">
        <ele>777.84</ele>
        <time>2022-05-08T12:55:14Z</time>
      </trkpt>
      <trkpt lat="45.56382" lon="4.4284">
        <ele>777.84</ele>
        <time>2022-05-08T12:55:15Z</time>
      </trkpt>
      <trkpt lat="45.56382" lon="4.42838">
        <ele>777.84</ele>
        <time>2022-05-08T12:55:16Z</time>
      </trkpt>
      <trkpt lat="45.56372" lon="4.42804">
        <ele>777.84</ele>
        <time>2022-05-08T12:55:33Z</time>
      </trkpt>
      <trkpt lat="45.56364" lon="4.42768">
        <ele>777.84</ele>
        <time>2022-05-08T12:55:52Z</time>
      </trkpt>
      <trkpt lat="45.56355" lon="4.42724">
        <ele>778.81</ele>
        <time>2022-05-08T12:56:13Z</time>
      </trkpt>
      <trkpt lat="45.56347" lon="4.42678">
        <ele>780.73</ele>
        <time>2022-05-08T12:56:36Z</time>
      </trkpt>
      <trkpt lat="45.56336" lon="4.4265">
        <ele>779.29</ele>
        <time>2022-05-08T12:56:53Z</time>
      </trkpt>
      <trkpt lat="45.56316" lon="4.42616">
        <ele>776.88</ele>
        <time>2022-05-08T12:57:13Z</time>
      </trkpt>
      <trkpt lat="45.563" lon="4.42587">
        <ele>775.44</ele>
        <time>2022-05-08T12:57:30Z</time>
      </trkpt>
      <trkpt lat="45.56282" lon="4.42557">
        <ele>774</ele>
        <time>2022-05-08T12:57:49Z</time>
      </trkpt>
      <trkpt lat="45.56264" lon="4.42526">
        <ele>773.04</ele>
        <time>2022-05-08T12:58:07Z</time>
      </trkpt>
      <trkpt lat="45.56246" lon="4.42494">
        <ele>773.04</ele>
        <time>2022-05-08T12:58:25Z</time>
      </trkpt>
      <trkpt lat="45.56245" lon="4.42466">
        <ele>773.52</ele>
        <time>2022-05-08T12:58:39Z</time>
      </trkpt>
      <trkpt lat="45.56253" lon="4.42431">
        <ele>773.04</ele>
        <time>2022-05-08T12:58:55Z</time>
      </trkpt>
      <trkpt lat="45.56273" lon="4.42408">
        <ele>773.52</ele>
        <time>2022-05-08T12:59:09Z</time>
      </trkpt>
      <trkpt lat="45.56301" lon="4.42382">
        <ele>773.52</ele>
        <time>2022-05-08T12:59:29Z</time>
      </trkpt>
      <trkpt lat="45.56326" lon="4.42357">
        <ele>773.04</ele>
        <time>2022-05-08T12:59:49Z</time>
      </trkpt>
      <trkpt lat="45.56356" lon="4.42329">
        <ele>774</ele>
        <time>2022-05-08T13:00:11Z</time>
      </trkpt>
      <trkpt lat="45.56383" lon="4.42306">
        <ele>774</ele>
        <time>2022-05-08T13:00:30Z</time>
      </trkpt>
      <trkpt lat="45.56409" lon="4.42283">
        <ele>773.04</ele>
        <time>2022-05-08T13:00:51Z</time>
      </trkpt>
      <trkpt lat="45.5644" lon="4.42263">
        <ele>775.44</ele>
        <time>2022-05-08T13:01:11Z</time>
      </trkpt>
      <trkpt lat="45.5647" lon="4.42248">
        <ele>776.4</ele>
        <time>2022-05-08T13:01:31Z</time>
      </trkpt>
      <trkpt lat="45.56477" lon="4.42245">
        <ele>775.92</ele>
        <time>2022-05-08T13:01:36Z</time>
      </trkpt>
      <trkpt lat="45.56478" lon="4.42244">
        <ele>776.4</ele>
        <time>2022-05-08T13:01:37Z</time>
      </trkpt>
      <trkpt lat="45.5648" lon="4.42243">
        <ele>775.92</ele>
        <time>2022-05-08T13:01:38Z</time>
      </trkpt>
      <trkpt lat="45.56512" lon="4.42228">
        <ele>774</ele>
        <time>2022-05-08T13:01:57Z</time>
      </trkpt>
      <trkpt lat="45.56538" lon="4.42213">
        <ele>772.56</ele>
        <time>2022-05-08T13:02:15Z</time>
      </trkpt>
      <trkpt lat="45.56564" lon="4.422">
        <ele>772.08</ele>
        <time>2022-05-08T13:02:31Z</time>
      </trkpt>
      <trkpt lat="45.56592" lon="4.42187">
        <ele>769.19</ele>
        <time>2022-05-08T13:02:48Z</time>
      </trkpt>
      <trkpt lat="45.56612" lon="4.42179">
        <ele>767.27</ele>
        <time>2022-05-08T13:03:01Z</time>
      </trkpt>
      <trkpt lat="45.56639" lon="4.42169">
        <ele>765.35</ele>
        <time>2022-05-08T13:03:19Z</time>
      </trkpt>
      <trkpt lat="45.56658" lon="4.42163">
        <ele>763.9</ele>
        <time>2022-05-08T13:03:33Z</time>
      </trkpt>
      <trkpt lat="45.56684" lon="4.42155">
        <ele>761.98</ele>
        <time>2022-05-08T13:03:51Z</time>
      </trkpt>
      <trkpt lat="45.56707" lon="4.42148">
        <ele>760.06</ele>
        <time>2022-05-08T13:04:08Z</time>
      </trkpt>
      <trkpt lat="45.56736" lon="4.42136">
        <ele>758.62</ele>
        <time>2022-05-08T13:04:28Z</time>
      </trkpt>
      <trkpt lat="45.56752" lon="4.42131">
        <ele>757.18</ele>
        <time>2022-05-08T13:04:43Z</time>
      </trkpt>
      <trkpt lat="45.56775" lon="4.42124">
        <ele>755.25</ele>
        <time>2022-05-08T13:05:02Z</time>
      </trkpt>
      <trkpt lat="45.56803" lon="4.4211">
        <ele>751.89</ele>
        <time>2022-05-08T13:05:22Z</time>
      </trkpt>
      <trkpt lat="45.56831" lon="4.42095">
        <ele>747.56</ele>
        <time>2022-05-08T13:05:43Z</time>
      </trkpt>
      <trkpt lat="45.5685" lon="4.42082">
        <ele>745.16</ele>
        <time>2022-05-08T13:06:00Z</time>
      </trkpt>
      <trkpt lat="45.56871" lon="4.42065">
        <ele>742.28</ele>
        <time>2022-05-08T13:06:19Z</time>
      </trkpt>
      <trkpt lat="45.56887" lon="4.42044">
        <ele>738.43</ele>
        <time>2022-05-08T13:06:35Z</time>
      </trkpt>
      <trkpt lat="45.56894" lon="4.42032">
        <ele>732.18</ele>
        <time>2022-05-08T13:06:49Z</time>
      </trkpt>
      <trkpt lat="45.56899" lon="4.42023">
        <ele>723.05</ele>
        <time>2022-05-08T13:07:03Z</time>
      </trkpt>
      <trkpt lat="45.56907" lon="4.42013">
        <ele>713.44</ele>
        <time>2022-05-08T13:07:17Z</time>
      </trkpt>
      <trkpt lat="45.56932" lon="4.41994">
        <ele>713.44</ele>
        <time>2022-05-08T13:07:35Z</time>
      </trkpt>
      <trkpt lat="45.56954" lon="4.41993">
        <ele>714.88</ele>
        <time>2022-05-08T13:07:49Z</time>
      </trkpt>
      <trkpt lat="45.5697" lon="4.41986">
        <ele>716.8</ele>
        <time>2022-05-08T13:08:06Z</time>
      </trkpt>
      <trkpt lat="45.56957" lon="4.4197">
        <ele>716.32</ele>
        <time>2022-05-08T13:08:22Z</time>
      </trkpt>
      <trkpt lat="45.56932" lon="4.41953">
        <ele>724.49</ele>
        <time>2022-05-08T13:08:41Z</time>
      </trkpt>
      <trkpt lat="45.56911" lon="4.41943">
        <ele>725.93</ele>
        <time>2022-05-08T13:08:55Z</time>
      </trkpt>
      <trkpt lat="45.56888" lon="4.41925">
        <ele>725.45</ele>
        <time>2022-05-08T13:09:11Z</time>
      </trkpt>
      <trkpt lat="45.56873" lon="4.41907">
        <ele>722.57</ele>
        <time>2022-05-08T13:09:25Z</time>
      </trkpt>
      <trkpt lat="45.56891" lon="4.41891">
        <ele>715.36</ele>
        <time>2022-05-08T13:09:40Z</time>
      </trkpt>
      <trkpt lat="45.56909" lon="4.41887">
        <ele>714.4</ele>
        <time>2022-05-08T13:09:54Z</time>
      </trkpt>
      <trkpt lat="45.5693" lon="4.41888">
        <ele>709.59</ele>
        <time>2022-05-08T13:10:09Z</time>
      </trkpt>
      <trkpt lat="45.56945" lon="4.41882">
        <ele>708.63</ele>
        <time>2022-05-08T13:10:23Z</time>
      </trkpt>
      <trkpt lat="45.56955" lon="4.41883">
        <ele>705.26</ele>
        <time>2022-05-08T13:10:39Z</time>
      </trkpt>
      <trkpt lat="45.56963" lon="4.41888">
        <ele>702.86</ele>
        <time>2022-05-08T13:11:05Z</time>
      </trkpt>
      <trkpt lat="45.56972" lon="4.41887">
        <ele>700.94</ele>
        <time>2022-05-08T13:11:18Z</time>
      </trkpt>
      <trkpt lat="45.56984" lon="4.41887">
        <ele>699.98</ele>
        <time>2022-05-08T13:11:31Z</time>
      </trkpt>
      <trkpt lat="45.57007" lon="4.41886">
        <ele>697.09</ele>
        <time>2022-05-08T13:11:48Z</time>
      </trkpt>
      <trkpt lat="45.57026" lon="4.41893">
        <ele>692.29</ele>
        <time>2022-05-08T13:12:03Z</time>
      </trkpt>
      <trkpt lat="45.57044" lon="4.41899">
        <ele>689.4</ele>
        <time>2022-05-08T13:12:17Z</time>
      </trkpt>
      <trkpt lat="45.57064" lon="4.41907">
        <ele>687</ele>
        <time>2022-05-08T13:12:33Z</time>
      </trkpt>
      <trkpt lat="45.57085" lon="4.41915">
        <ele>687.96</ele>
        <time>2022-05-08T13:12:47Z</time>
      </trkpt>
      <trkpt lat="45.57092" lon="4.41912">
        <ele>688.44</ele>
        <time>2022-05-08T13:12:59Z</time>
      </trkpt>
      <trkpt lat="45.57082" lon="4.41884">
        <ele>689.88</ele>
        <time>2022-05-08T13:13:20Z</time>
      </trkpt>
      <trkpt lat="45.57076" lon="4.41871">
        <ele>689.88</ele>
        <time>2022-05-08T13:13:26Z</time>
      </trkpt>
      <trkpt lat="45.57057" lon="4.41843">
        <ele>688.44</ele>
        <time>2022-05-08T13:13:43Z</time>
      </trkpt>
      <trkpt lat="45.57038" lon="4.41823">
        <ele>687.48</ele>
        <time>2022-05-08T13:13:58Z</time>
      </trkpt>
      <trkpt lat="45.57026" lon="4.41807">
        <ele>688.92</ele>
        <time>2022-05-08T13:14:12Z</time>
      </trkpt>
      <trkpt lat="45.57022" lon="4.41793">
        <ele>687.48</ele>
        <time>2022-05-08T13:14:35Z</time>
      </trkpt>
      <trkpt lat="45.57024" lon="4.41781">
        <ele>687</ele>
        <time>2022-05-08T13:14:43Z</time>
      </trkpt>
      <trkpt lat="45.57057" lon="4.41773">
        <ele>685.08</ele>
        <time>2022-05-08T13:15:03Z</time>
      </trkpt>
      <trkpt lat="45.57089" lon="4.41762">
        <ele>682.19</ele>
        <time>2022-05-08T13:15:24Z</time>
      </trkpt>
      <trkpt lat="45.57115" lon="4.41756">
        <ele>679.79</ele>
        <time>2022-05-08T13:15:41Z</time>
      </trkpt>
      <trkpt lat="45.57142" lon="4.41748">
        <ele>678.35</ele>
        <time>2022-05-08T13:15:58Z</time>
      </trkpt>
      <trkpt lat="45.57172" lon="4.41739">
        <ele>676.91</ele>
        <time>2022-05-08T13:16:18Z</time>
      </trkpt>
      <trkpt lat="45.57201" lon="4.41732">
        <ele>675.46</ele>
        <time>2022-05-08T13:16:38Z</time>
      </trkpt>
      <trkpt lat="45.57208" lon="4.41732">
        <ele>674.98</ele>
        <time>2022-05-08T13:16:45Z</time>
      </trkpt>
      <trkpt lat="45.57225" lon="4.41732">
        <ele>672.58</ele>
        <time>2022-05-08T13:17:02Z</time>
      </trkpt>
      <trkpt lat="45.57244" lon="4.41724">
        <ele>666.81</ele>
        <time>2022-05-08T13:17:18Z</time>
      </trkpt>
      <trkpt lat="45.57266" lon="4.41709">
        <ele>660.56</ele>
        <time>2022-05-08T13:17:33Z</time>
      </trkpt>
      <trkpt lat="45.57288" lon="4.41692">
        <ele>655.76</ele>
        <time>2022-05-08T13:17:50Z</time>
      </trkpt>
      <trkpt lat="45.57306" lon="4.41677">
        <ele>651.91</ele>
        <time>2022-05-08T13:18:05Z</time>
      </trkpt>
      <trkpt lat="45.57324" lon="4.41661">
        <ele>645.18</ele>
        <time>2022-05-08T13:18:22Z</time>
      </trkpt>
      <trkpt lat="45.57342" lon="4.41647">
        <ele>642.78</ele>
        <time>2022-05-08T13:18:37Z</time>
      </trkpt>
      <trkpt lat="45.5736" lon="4.41628">
        <ele>640.86</ele>
        <time>2022-05-08T13:18:53Z</time>
      </trkpt>
      <trkpt lat="45.5738" lon="4.41606">
        <ele>644.22</ele>
        <time>2022-05-08T13:19:08Z</time>
      </trkpt>
      <trkpt lat="45.57391" lon="4.4159">
        <ele>643.26</ele>
        <time>2022-05-08T13:19:19Z</time>
      </trkpt>
      <trkpt lat="45.57394" lon="4.41579">
        <ele>642.78</ele>
        <time>2022-05-08T13:19:23Z</time>
      </trkpt>
      <trkpt lat="45.57399" lon="4.41565">
        <ele>643.74</ele>
        <time>2022-05-08T13:19:41Z</time>
      </trkpt>
      <trkpt lat="45.57402" lon="4.41563">
        <ele>646.14</ele>
        <time>2022-05-08T13:20:04Z</time>
      </trkpt>
      <trkpt lat="45.57404" lon="4.41549">
        <ele>648.55</ele>
        <time>2022-05-08T13:20:23Z</time>
      </trkpt>
      <trkpt lat="45.57405" lon="4.41525">
        <ele>653.83</ele>
        <time>2022-05-08T13:20:42Z</time>
      </trkpt>
      <trkpt lat="45.57404" lon="4.41486">
        <ele>652.87</ele>
        <time>2022-05-08T13:21:03Z</time>
      </trkpt>
      <trkpt lat="45.57406" lon="4.41457">
        <ele>649.99</ele>
        <time>2022-05-08T13:21:16Z</time>
      </trkpt>
      <trkpt lat="45.57408" lon="4.41426">
        <ele>648.55</ele>
        <time>2022-05-08T13:21:32Z</time>
      </trkpt>
      <trkpt lat="45.57413" lon="4.41395">
        <ele>648.55</ele>
        <time>2022-05-08T13:21:48Z</time>
      </trkpt>
      <trkpt lat="45.57414" lon="4.4136">
        <ele>649.99</ele>
        <time>2022-05-08T13:22:04Z</time>
      </trkpt>
      <trkpt lat="45.57411" lon="4.41334">
        <ele>651.91</ele>
        <time>2022-05-08T13:22:17Z</time>
      </trkpt>
      <trkpt lat="45.57401" lon="4.41294">
        <ele>652.39</ele>
        <time>2022-05-08T13:22:34Z</time>
      </trkpt>
      <trkpt lat="45.57395" lon="4.41265">
        <ele>652.39</ele>
        <time>2022-05-08T13:22:49Z</time>
      </trkpt>
      <trkpt lat="45.57396" lon="4.41251">
        <ele>651.91</ele>
        <time>2022-05-08T13:22:56Z</time>
      </trkpt>
      <trkpt lat="45.57402" lon="4.41211">
        <ele>651.43</ele>
        <time>2022-05-08T13:23:14Z</time>
      </trkpt>
      <trkpt lat="45.57408" lon="4.41159">
        <ele>652.87</ele>
        <time>2022-05-08T13:23:37Z</time>
      </trkpt>
      <trkpt lat="45.57411" lon="4.41113">
        <ele>652.39</ele>
        <time>2022-05-08T13:23:53Z</time>
      </trkpt>
      <trkpt lat="45.57409" lon="4.4107">
        <ele>649.51</ele>
        <time>2022-05-08T13:24:12Z</time>
      </trkpt>
      <trkpt lat="45.5741" lon="4.4105">
        <ele>648.07</ele>
        <time>2022-05-08T13:24:20Z</time>
      </trkpt>
      <trkpt lat="45.57411" lon="4.4105">
        <ele>648.07</ele>
        <time>2022-05-08T13:24:21Z</time>
      </trkpt>
      <trkpt lat="45.57413" lon="4.41049">
        <ele>648.07</ele>
        <time>2022-05-08T13:24:22Z</time>
      </trkpt>
      <trkpt lat="45.57414" lon="4.4105">
        <ele>648.07</ele>
        <time>2022-05-08T13:24:23Z</time>
      </trkpt>
      <trkpt lat="45.57416" lon="4.41051">
        <ele>648.07</ele>
        <time>2022-05-08T13:24:24Z</time>
      </trkpt>
      <trkpt lat="45.57417" lon="4.41053">
        <ele>648.07</ele>
        <time>2022-05-08T13:24:25Z</time>
      </trkpt>
      <trkpt lat="45.57418" lon="4.41055">
        <ele>648.07</ele>
        <time>2022-05-08T13:24:26Z</time>
      </trkpt>
      <trkpt lat="45.5742" lon="4.41056">
        <ele>647.59</ele>
        <time>2022-05-08T13:24:27Z</time>
      </trkpt>
      <trkpt lat="45.5744" lon="4.41077">
        <ele>646.14</ele>
        <time>2022-05-08T13:24:44Z</time>
      </trkpt>
      <trkpt lat="45.57463" lon="4.4109">
        <ele>643.74</ele>
        <time>2022-05-08T13:25:02Z</time>
      </trkpt>
      <trkpt lat="45.57491" lon="4.41096">
        <ele>641.82</ele>
        <time>2022-05-08T13:25:21Z</time>
      </trkpt>
      <trkpt lat="45.57516" lon="4.411">
        <ele>638.93</ele>
        <time>2022-05-08T13:25:39Z</time>
      </trkpt>
      <trkpt lat="45.57543" lon="4.41102">
        <ele>634.61</ele>
        <time>2022-05-08T13:26:00Z</time>
      </trkpt>
      <trkpt lat="45.57564" lon="4.41102">
        <ele>628.36</ele>
        <time>2022-05-08T13:26:17Z</time>
      </trkpt>
      <trkpt lat="45.57585" lon="4.41107">
        <ele>622.11</ele>
        <time>2022-05-08T13:26:32Z</time>
      </trkpt>
      <trkpt lat="45.57593" lon="4.41137">
        <ele>620.19</ele>
        <time>2022-05-08T13:26:45Z</time>
      </trkpt>
      <trkpt lat="45.57591" lon="4.41176">
        <ele>619.71</ele>
        <time>2022-05-08T13:27:01Z</time>
      </trkpt>
      <trkpt lat="45.5758" lon="4.41215">
        <ele>619.23</ele>
        <time>2022-05-08T13:27:17Z</time>
      </trkpt>
      <trkpt lat="45.5757" lon="4.41244">
        <ele>621.63</ele>
        <time>2022-05-08T13:27:32Z</time>
      </trkpt>
      <trkpt lat="45.5756" lon="4.41272">
        <ele>625.47</ele>
        <time>2022-05-08T13:27:47Z</time>
      </trkpt>
      <trkpt lat="45.5756" lon="4.41292">
        <ele>627.88</ele>
        <time>2022-05-08T13:27:58Z</time>
      </trkpt>
      <trkpt lat="45.57576" lon="4.41298">
        <ele>628.36</ele>
        <time>2022-05-08T13:28:13Z</time>
      </trkpt>
      <trkpt lat="45.57577" lon="4.41298">
        <ele>628.84</ele>
        <time>2022-05-08T13:28:14Z</time>
      </trkpt>
      <trkpt lat="45.57579" lon="4.41298">
        <ele>628.36</ele>
        <time>2022-05-08T13:28:15Z</time>
      </trkpt>
      <trkpt lat="45.57581" lon="4.41299">
        <ele>628.84</ele>
        <time>2022-05-08T13:28:16Z</time>
      </trkpt>
      <trkpt lat="45.57583" lon="4.41299">
        <ele>628.84</ele>
        <time>2022-05-08T13:28:17Z</time>
      </trkpt>
      <trkpt lat="45.57585" lon="4.41299">
        <ele>628.84</ele>
        <time>2022-05-08T13:28:18Z</time>
      </trkpt>
      <trkpt lat="45.57588" lon="4.41298">
        <ele>629.32</ele>
        <time>2022-05-08T13:28:19Z</time>
      </trkpt>
      <trkpt lat="45.57606" lon="4.4128">
        <ele>619.71</ele>
        <time>2022-05-08T13:28:33Z</time>
      </trkpt>
      <trkpt lat="45.57619" lon="4.41251">
        <ele>617.3</ele>
        <time>2022-05-08T13:28:48Z</time>
      </trkpt>
      <trkpt lat="45.57646" lon="4.41227">
        <ele>614.9</ele>
        <time>2022-05-08T13:29:08Z</time>
      </trkpt>
      <trkpt lat="45.57675" lon="4.41212">
        <ele>615.38</ele>
        <time>2022-05-08T13:29:23Z</time>
      </trkpt>
      <trkpt lat="45.57694" lon="4.41202">
        <ele>614.42</ele>
        <time>2022-05-08T13:29:38Z</time>
      </trkpt>
      <trkpt lat="45.57721" lon="4.41186">
        <ele>615.86</ele>
        <time>2022-05-08T13:29:55Z</time>
      </trkpt>
      <trkpt lat="45.5775" lon="4.41163">
        <ele>616.82</ele>
        <time>2022-05-08T13:30:14Z</time>
      </trkpt>
      <trkpt lat="45.57768" lon="4.41137">
        <ele>616.82</ele>
        <time>2022-05-08T13:30:31Z</time>
      </trkpt>
      <trkpt lat="45.57792" lon="4.41132">
        <ele>618.26</ele>
        <time>2022-05-08T13:30:45Z</time>
      </trkpt>
      <trkpt lat="45.57813" lon="4.41124">
        <ele>620.19</ele>
        <time>2022-05-08T13:31:00Z</time>
      </trkpt>
      <trkpt lat="45.57837" lon="4.41114">
        <ele>620.67</ele>
        <time>2022-05-08T13:31:15Z</time>
      </trkpt>
      <trkpt lat="45.57867" lon="4.41109">
        <ele>620.67</ele>
        <time>2022-05-08T13:31:31Z</time>
      </trkpt>
      <trkpt lat="45.57893" lon="4.41102">
        <ele>619.71</ele>
        <time>2022-05-08T13:31:49Z</time>
      </trkpt>
      <trkpt lat="45.57923" lon="4.41085">
        <ele>619.23</ele>
        <time>2022-05-08T13:32:06Z</time>
      </trkpt>
      <trkpt lat="45.57934" lon="4.41073">
        <ele>619.23</ele>
        <time>2022-05-08T13:32:15Z</time>
      </trkpt>
      <trkpt lat="45.57935" lon="4.41069">
        <ele>619.23</ele>
        <time>2022-05-08T13:32:17Z</time>
      </trkpt>
      <trkpt lat="45.57936" lon="4.41068">
        <ele>619.23</ele>
        <time>2022-05-08T13:32:18Z</time>
      </trkpt>
      <trkpt lat="45.57937" lon="4.41066">
        <ele>619.23</ele>
        <time>2022-05-08T13:32:19Z</time>
      </trkpt>
      <trkpt lat="45.57938" lon="4.41064">
        <ele>619.23</ele>
        <time>2022-05-08T13:32:20Z</time>
      </trkpt>
      <trkpt lat="45.57938" lon="4.41063">
        <ele>619.23</ele>
        <time>2022-05-08T13:32:21Z</time>
      </trkpt>
      <trkpt lat="45.57939" lon="4.41061">
        <ele>619.71</ele>
        <time>2022-05-08T13:32:22Z</time>
      </trkpt>
      <trkpt lat="45.57959" lon="4.41031">
        <ele>619.23</ele>
        <time>2022-05-08T13:32:40Z</time>
      </trkpt>
      <trkpt lat="45.5797" lon="4.41001">
        <ele>618.75</ele>
        <time>2022-05-08T13:32:57Z</time>
      </trkpt>
      <trkpt lat="45.57969" lon="4.40967">
        <ele>615.38</ele>
        <time>2022-05-08T13:33:14Z</time>
      </trkpt>
      <trkpt lat="45.57955" lon="4.40937">
        <ele>613.46</ele>
        <time>2022-05-08T13:33:31Z</time>
      </trkpt>
      <trkpt lat="45.57945" lon="4.40907">
        <ele>611.06</ele>
        <time>2022-05-08T13:33:48Z</time>
      </trkpt>
      <trkpt lat="45.5793" lon="4.40874">
        <ele>607.21</ele>
        <time>2022-05-08T13:34:07Z</time>
      </trkpt>
      <trkpt lat="45.57912" lon="4.40836">
        <ele>602.88</ele>
        <time>2022-05-08T13:34:28Z</time>
      </trkpt>
      <trkpt lat="45.57892" lon="4.4081">
        <ele>601.44</ele>
        <time>2022-05-08T13:34:43Z</time>
      </trkpt>
      <trkpt lat="45.57885" lon="4.4081">
        <ele>601.44</ele>
        <time>2022-05-08T13:34:58Z</time>
      </trkpt>
      <trkpt lat="45.57885" lon="4.40807">
        <ele>603.36</ele>
        <time>2022-05-08T13:35:17Z</time>
      </trkpt>
      <trkpt lat="45.57885" lon="4.40807">
        <ele>603.85</ele>
        <time>2022-05-08T13:35:22Z</time>
      </trkpt>
      <trkpt lat="45.57876" lon="4.40809">
        <ele>601.92</ele>
        <time>2022-05-08T13:35:30Z</time>
      </trkpt>
      <trkpt lat="45.57865" lon="4.40822">
        <ele>598.56</ele>
        <time>2022-05-08T13:35:45Z</time>
      </trkpt>
      <trkpt lat="45.57852" lon="4.40842">
        <ele>597.12</ele>
        <time>2022-05-08T13:36:02Z</time>
      </trkpt>
      <trkpt lat="45.57851" lon="4.40847">
        <ele>597.12</ele>
        <time>2022-05-08T13:36:05Z</time>
      </trkpt>
      <trkpt lat="45.57854" lon="4.40859">
        <ele>597.12</ele>
        <time>2022-05-08T13:36:12Z</time>
      </trkpt>
      <trkpt lat="45.57861" lon="4.40862">
        <ele>597.6</ele>
        <time>2022-05-08T13:36:27Z</time>
      </trkpt>
      <trkpt lat="45.57859" lon="4.4086">
        <ele>599.04</ele>
        <time>2022-05-08T13:36:41Z</time>
      </trkpt>
      <trkpt lat="45.57856" lon="4.40861">
        <ele>600.96</ele>
        <time>2022-05-08T13:37:08Z</time>
      </trkpt>
      <trkpt lat="45.57857" lon="4.4086">
        <ele>601.44</ele>
        <time>2022-05-08T13:37:33Z</time>
      </trkpt>
      <trkpt lat="45.5786" lon="4.4086">
        <ele>599.52</ele>
        <time>2022-05-08T13:37:57Z</time>
      </trkpt>
      <trkpt lat="45.57861" lon="4.40859">
        <ele>598.56</ele>
        <time>2022-05-08T13:38:15Z</time>
      </trkpt>
      <trkpt lat="45.5786" lon="4.40862">
        <ele>603.85</ele>
        <time>2022-05-08T13:38:37Z</time>
      </trkpt>
      <trkpt lat="45.57861" lon="4.40862">
        <ele>603.36</ele>
        <time>2022-05-08T13:38:58Z</time>
      </trkpt>
      <trkpt lat="45.5786" lon="4.40862">
        <ele>601.44</ele>
        <time>2022-05-08T13:39:29Z</time>
      </trkpt>
      <trkpt lat="45.5786" lon="4.40865">
        <ele>602.4</ele>
        <time>2022-05-08T13:39:56Z</time>
      </trkpt>
      <trkpt lat="45.57862" lon="4.40868">
        <ele>604.81</ele>
        <time>2022-05-08T13:40:26Z</time>
      </trkpt>
      <trkpt lat="45.57862" lon="4.40866">
        <ele>607.69</ele>
        <time>2022-05-08T13:40:44Z</time>
      </trkpt>
    </trkseg>
  </trk>
</gpx>